Provisional Data: Blockhouse Creek near English Center, PA


Please select a monitoring station.
Please select start date.
Please select start date.

Toggle Unit: C/F Toggle Unit: C/F
Sample Time Temperature (C) Temperature (F) Specific Conductivity (mS/cm) pH   Turbidity (NTU+) DO (mg/L)
9/6/2021 12:00:00 AM 16.95 62.51 0.124 7.43 3.19 9.03
9/6/2021 12:15:00 AM 16.94 62.492 0.124 7.44 2.81 9.04
9/6/2021 12:30:00 AM 16.93 62.474 0.124 7.45 2.88 9.04
9/6/2021 12:45:00 AM 16.91 62.438 0.124 7.45 2.89 9.04
9/6/2021 1:00:00 AM 16.9 62.42 0.124 7.46 2.78 9.05
9/6/2021 1:15:00 AM 16.88 62.384 0.124 7.46 2.93 9.06
9/6/2021 1:30:00 AM 16.86 62.348 0.124 7.46 2.56 9.06
9/6/2021 1:45:00 AM 16.84 62.312 0.125 7.47 2.51 9.07
9/6/2021 2:00:00 AM 16.82 62.276 0.125 7.47 2.5 9.07
9/6/2021 2:15:00 AM 16.8 62.24 0.125 7.47 2.53 9.07
9/6/2021 2:30:00 AM 16.78 62.204 0.125 7.47 2.57 9.08
9/6/2021 2:45:00 AM 16.76 62.168 0.125 7.47 2.5 9.09
9/6/2021 3:00:00 AM 16.73 62.114 0.125 7.47 2.52 9.09
9/6/2021 3:15:00 AM 16.71 62.078 0.125 7.47 2.56 9.1
9/6/2021 3:30:00 AM 16.68 62.024 0.125 7.47 2.63 9.09
9/6/2021 3:45:00 AM 16.65 61.97 0.125 7.47 2.71 9.1
9/6/2021 4:00:00 AM 16.61 61.898 0.125 7.47 2.75 9.1
9/6/2021 4:15:00 AM 16.58 61.844 0.125 7.47 2.62 9.1
9/6/2021 4:30:00 AM 16.55 61.79 0.125 7.47 2.5 9.11
9/6/2021 4:45:00 AM 16.52 61.736 0.125 7.47 2.59 9.11
9/6/2021 5:00:00 AM 16.49 61.682 0.126 7.47 2.57 9.12
9/6/2021 5:15:00 AM 16.46 61.628 0.126 7.47 2.37 9.12
9/6/2021 5:30:00 AM 16.44 61.592 0.126 7.47 2.47 9.13
9/6/2021 5:45:00 AM 16.41 61.538 0.126 7.47 2.53 9.13
9/6/2021 6:00:00 AM 16.37 61.466 0.126 7.47 2.6 9.14
9/6/2021 6:15:00 AM 16.34 61.412 0.126 7.47 3.58 9.16
9/6/2021 6:30:00 AM 16.31 61.358 0.126 7.47 2.61 9.16
9/6/2021 6:45:00 AM 16.29 61.322 0.126 7.47 2.75 9.17
9/6/2021 7:00:00 AM 16.26 61.268 0.126 7.48 2.54 9.2
9/6/2021 7:15:00 AM 16.23 61.214 0.126 7.49 2.55 9.26
9/6/2021 7:30:00 AM 16.22 61.196 0.126 7.5 2.77 9.35
9/6/2021 7:45:00 AM 16.19 61.142 0.126 7.52 2.89 9.43
9/6/2021 8:00:00 AM 16.17 61.106 0.126 7.54 2.61 9.52
9/6/2021 8:15:00 AM 16.17 61.106 0.126 7.57 2.54 9.65
9/6/2021 8:30:00 AM 16.15 61.07 0.126 7.59 2.46 9.67
9/6/2021 8:45:00 AM 16.13 61.034 0.125 7.6 2.45 9.69
9/6/2021 9:00:00 AM 16.16 61.088 0.125 7.63 2.44 9.79
9/6/2021 9:15:00 AM 16.15 61.07 0.125 7.62 2.49 9.73
9/6/2021 9:30:00 AM 16.2 61.16 0.125 7.64 2.35 9.78
9/6/2021 9:45:00 AM 16.34 61.412 0.124 7.69 2.43 9.98
9/6/2021 10:00:00 AM 16.43 61.574 0.124 7.77 2.46 10.16
9/6/2021 10:15:00 AM 16.56 61.808 0.124 7.84 2.29 10.21
9/6/2021 10:30:00 AM 16.62 61.916 0.124 7.83 2.45 10.12
9/6/2021 10:45:00 AM 16.65 61.97 0.124 7.82 2.47 10.06
9/6/2021 11:00:00 AM 16.7 62.06 0.124 7.81 2.41 10.06
9/6/2021 11:15:00 AM 16.82 62.276 0.124 7.83 2.41 10.06
9/6/2021 11:30:00 AM 16.96 62.528 0.124 7.85 2.3 10.04
9/6/2021 11:45:00 AM 17.16 62.888 0.124 7.87 2.61 10.02
9/6/2021 12:00:00 PM 17.37 63.266 0.124 7.93 2.37 10.12
9/6/2021 12:15:00 PM 17.56 63.608 0.123 7.98 2.42 10.15
9/6/2021 12:30:00 PM 17.79 64.022 0.123 8.03 2.25 10.11
9/6/2021 12:45:00 PM 17.97 64.346 0.123 8.07 2.31 10.12
9/6/2021 1:00:00 PM 18.12 64.616 0.123 8.09 2.34 10.14
9/6/2021 3:30:00 PM 19.52 67.136 0.123 8.2 2.47 9.82
9/6/2021 3:45:00 PM 19.69 67.442 0.123 8.26 2.46 9.86
9/6/2021 4:00:00 PM 19.88 67.784 0.123 8.31 2.4 9.87
9/6/2021 4:15:00 PM 19.93 67.874 0.123 8.29 2.35 9.78
9/6/2021 4:30:00 PM 19.92 67.856 0.123 8.22 2.44 9.62
9/6/2021 4:45:00 PM 19.85 67.73 0.123 8.13 2.51 9.47
9/6/2021 5:00:00 PM 19.78 67.604 0.123 8.07 2.4 9.46
9/6/2021 5:15:00 PM 19.74 67.532 0.123 8.05 2.51 9.48
9/6/2021 5:30:00 PM 19.76 67.568 0.123 8.05 2.51 9.47
9/6/2021 5:45:00 PM 19.71 67.478 0.123 8.02 2.48 9.4
9/6/2021 6:00:00 PM 19.59 67.262 0.123 7.95 2.37 9.31
9/6/2021 6:15:00 PM 19.46 67.028 0.123 7.89 2.37 9.22
9/6/2021 6:30:00 PM 19.28 66.704 0.124 7.81 2.58 9.09
9/6/2021 6:45:00 PM 19.14 66.452 0.124 7.75 2.65 9.01
9/6/2021 7:00:00 PM 19.01 66.218 0.124 7.7 2.5 8.92
9/6/2021 7:15:00 PM 18.85 65.93 0.124 7.65 2.63 8.87
9/6/2021 7:30:00 PM 18.71 65.67799 0.124 7.62 2.56 8.82
9/6/2021 7:45:00 PM 18.57 65.426 0.124 7.59 2.71 8.76
9/6/2021 8:00:00 PM 18.44 65.192 0.124 7.56 2.79 8.73
9/6/2021 8:15:00 PM 18.3 64.94 0.124 7.54 2.66 8.74
9/6/2021 8:30:00 PM 18.19 64.742 0.124 7.52 2.71 8.74
9/6/2021 8:45:00 PM 18.08 64.544 0.124 7.51 2.83 8.75
9/6/2021 9:00:00 PM 17.98 64.364 0.124 7.5 2.92 8.77
9/6/2021 9:15:00 PM 17.88 64.184 0.124 7.49 2.88 8.77
9/6/2021 9:30:00 PM 17.77 63.986 0.124 7.49 2.74 8.78
9/6/2021 9:45:00 PM 17.67 63.806 0.124 7.48 2.88 8.8
9/6/2021 10:00:00 PM 17.57 63.626 0.125 7.48 2.89 8.82
9/6/2021 10:15:00 PM 17.46 63.428 0.125 7.48 2.73 8.86
9/6/2021 10:30:00 PM 17.36 63.248 0.125 7.48 2.68 8.86
9/6/2021 10:45:00 PM 17.25 63.05 0.125 7.47 2.66 8.9
9/6/2021 11:00:00 PM 17.15 62.87 0.125 7.47 2.67 8.92
9/6/2021 11:15:00 PM 17.04 62.672 0.125 7.47 2.74 8.94
9/6/2021 11:30:00 PM 16.94 62.492 0.125 7.47 2.77 8.96
9/6/2021 11:45:00 PM 16.84 62.312 0.125 7.47 2.94 8.99
9/7/2021 12:00:00 AM 16.73 62.114 0.125 7.47 2.94 9.03
9/7/2021 12:15:00 AM 16.63 61.934 0.125 7.46 2.8 9.04
9/7/2021 12:30:00 AM 16.55 61.79 0.125 7.46 2.81 9.06
9/7/2021 12:45:00 AM 16.45 61.61 0.125 7.46 2.88 9.07
9/7/2021 1:00:00 AM 16.37 61.466 0.125 7.46 3.22 9.09
9/7/2021 1:15:00 AM 16.28 61.304 0.125 7.46 2.7 9.11
9/7/2021 1:30:00 AM 16.2 61.16 0.125 7.46 2.8 9.14
9/7/2021 1:45:00 AM 16.13 61.034 0.125 7.46 2.86 9.17
9/7/2021 2:00:00 AM 16.06 60.908 0.125 7.46 2.81 9.18
9/7/2021 2:15:00 AM 15.99 60.782 0.125 7.46 2.8 9.2
9/7/2021 2:30:00 AM 15.93 60.674 0.125 7.46 2.81 9.22
9/7/2021 2:45:00 AM 15.86 60.548 0.125 7.46 2.65 9.24
9/7/2021 3:00:00 AM 15.8 60.44 0.125 7.46 2.91 9.25
9/7/2021 3:15:00 AM 15.73 60.314 0.125 7.46 2.66 9.27
9/7/2021 3:30:00 AM 15.67 60.206 0.125 7.46 2.68 9.27
9/7/2021 3:45:00 AM 15.62 60.116 0.125 7.46 2.64 9.29
9/7/2021 4:00:00 AM 15.56 60.008 0.125 7.46 2.89 9.3
9/7/2021 4:15:00 AM 15.5 59.9 0.125 7.46 2.79 9.32
9/7/2021 4:30:00 AM 15.44 59.792 0.125 7.46 2.74 9.35
9/7/2021 4:45:00 AM 15.38 59.684 0.125 7.46 2.7 9.36
9/7/2021 5:00:00 AM 15.32 59.576 0.125 7.46 3.15 9.38
9/7/2021 5:15:00 AM 15.26 59.468 0.125 7.46 2.8 9.4
9/7/2021 5:30:00 AM 15.19 59.342 0.125 7.46 2.62 9.42
9/7/2021 5:45:00 AM 15.12 59.216 0.125 7.46 2.54 9.43
9/7/2021 6:00:00 AM 15.06 59.108 0.126 7.46 2.79 9.46
9/7/2021 6:15:00 AM 14.99 58.982 0.126 7.46 2.65 9.48
9/7/2021 6:30:00 AM 14.93 58.874 0.125 7.46 2.6 9.49
9/7/2021 6:45:00 AM 14.87 58.766 0.125 7.46 2.66 9.49
9/7/2021 7:00:00 AM 14.81 58.658 0.126 7.47 2.57 9.53
9/7/2021 7:15:00 AM 14.74 58.532 0.125 7.47 2.53 9.59
9/7/2021 7:30:00 AM 14.69 58.442 0.125 7.49 2.48 9.68
9/7/2021 7:45:00 AM 14.64 58.352 0.125 7.51 2.54 9.79
9/7/2021 8:00:00 AM 14.61 58.298 0.125 7.53 2.48 9.93
9/7/2021 8:15:00 AM 14.58 58.244 0.125 7.56 2.46 10.04
9/7/2021 8:30:00 AM 14.59 58.262 0.125 7.59 2.63 10.19
9/7/2021 8:45:00 AM 14.61 58.298 0.124 7.64 2.39 10.33
9/7/2021 9:00:00 AM 14.64 58.352 0.124 7.68 2.69 10.41
9/7/2021 9:15:00 AM 14.69 58.442 0.124 7.69 2.36 10.38
9/7/2021 9:30:00 AM 14.71 58.478 0.124 7.69 2.43 10.35
9/7/2021 9:45:00 AM 14.76 58.568 0.124 7.7 2.49 10.35
9/7/2021 10:00:00 AM 14.83 58.694 0.124 7.71 2.44 10.35
9/7/2021 10:15:00 AM 14.95 58.91 0.124 7.72 2.32 10.36
9/7/2021 10:30:00 AM 15.09 59.162 0.124 7.74 2.35 10.38
9/7/2021 10:45:00 AM 15.24 59.432 0.124 7.76 2.6 10.38
9/7/2021 7:15:00 PM 19.17 66.506 0.123 7.66 2.74 8.78
9/7/2021 7:30:00 PM 19.04 66.272 0.124 7.61 2.94 8.73
9/7/2021 7:45:00 PM 18.93 66.074 0.124 7.58 2.38 8.69
9/7/2021 8:00:00 PM 18.82 65.876 0.124 7.55 2.97 8.65
9/7/2021 8:15:00 PM 18.71 65.67799 0.124 7.53 2.49 8.64
9/7/2021 8:30:00 PM 18.61 65.498 0.124 7.52 2.55 8.64
9/7/2021 8:45:00 PM 18.52 65.336 0.124 7.51 2.52 8.63
9/7/2021 9:00:00 PM 18.44 65.192 0.124 7.5 2.45 8.64
9/7/2021 9:15:00 PM 18.36 65.048 0.124 7.49 2.64 8.67
9/7/2021 9:30:00 PM 18.28 64.904 0.124 7.49 3.24 8.67
9/7/2021 9:45:00 PM 18.2 64.76 0.124 7.48 2.63 8.7
9/7/2021 10:00:00 PM 18.13 64.634 0.124 7.48 2.59 8.71
9/7/2021 10:15:00 PM 18.06 64.508 0.124 7.48 2.62 8.71
9/7/2021 10:30:00 PM 18 64.4 0.124 7.47 2.54 8.73
9/7/2021 10:45:00 PM 17.95 64.31 0.124 7.47 2.48 8.74
9/7/2021 11:00:00 PM 17.91 64.238 0.124 7.47 2.6 8.75
9/7/2021 11:15:00 PM 17.86 64.148 0.124 7.47 2.53 8.76
9/7/2021 11:30:00 PM 17.8 64.04 0.124 7.46 2.56 8.75
9/7/2021 11:45:00 PM 17.74 63.932 0.124 7.46 2.59 8.76
9/8/2021 12:00:00 AM 17.68 63.824 0.124 7.46 2.45 8.79
9/8/2021 12:15:00 AM 17.62 63.716 0.124 7.46 2.48 8.8
9/8/2021 12:30:00 AM 17.57 63.626 0.124 7.46 2.65 8.81
9/8/2021 12:45:00 AM 17.51 63.518 0.124 7.46 2.86 8.84
9/8/2021 1:00:00 AM 17.45 63.41 0.124 7.45 2.72 8.84
9/8/2021 1:15:00 AM 17.38 63.284 0.124 7.45 2.54 8.85
9/8/2021 1:30:00 AM 17.32 63.176 0.124 7.45 2.56 8.87
9/8/2021 1:45:00 AM 17.26 63.068 0.124 7.45 2.44 8.88
9/8/2021 2:00:00 AM 17.2 62.96 0.124 7.45 2.65 8.89
9/8/2021 2:15:00 AM 17.14 62.852 0.124 7.45 2.48 8.9
9/8/2021 2:30:00 AM 17.09 62.762 0.124 7.44 2.5 8.91
9/8/2021 2:45:00 AM 17.05 62.69 0.124 7.44 2.73 8.92
9/8/2021 3:00:00 AM 17.01 62.618 0.124 7.45 2.46 8.93
9/8/2021 3:15:00 AM 16.96 62.528 0.124 7.44 3.17 8.94
9/8/2021 3:30:00 AM 16.91 62.438 0.124 7.44 2.64 8.95
9/8/2021 3:45:00 AM 16.87 62.366 0.124 7.44 2.45 8.93
9/8/2021 4:00:00 AM 16.81 62.258 0.124 7.44 2.51 8.98
9/8/2021 4:15:00 AM 16.76 62.168 0.124 7.44 2.53 8.99
9/8/2021 4:30:00 AM 16.72 62.096 0.124 7.44 2.89 8.99
9/8/2021 4:45:00 AM 16.66 61.988 0.124 7.44 2.82 9.01
9/8/2021 5:00:00 AM 16.62 61.916 0.124 7.44 2.58 9.01
9/8/2021 5:15:00 AM 16.57 61.826 0.125 7.44 2.69 9.03
9/8/2021 5:30:00 AM 16.53 61.754 0.125 7.44 2.6 9.02
9/8/2021 5:45:00 AM 16.49 61.682 0.125 7.44 2.6 9.04
9/8/2021 6:00:00 AM 16.44 61.592 0.125 7.44 2.59 9.05
9/8/2021 6:15:00 AM 16.4 61.52 0.125 7.44 2.63 9.06
9/8/2021 6:30:00 AM 16.36 61.448 0.125 7.44 2.63 9.07
9/8/2021 6:45:00 AM 16.33 61.394 0.125 7.44 4.05 9.09
9/8/2021 7:00:00 AM 16.3 61.34 0.125 7.45 2.7 9.14
9/8/2021 7:15:00 AM 16.27 61.286 0.125 7.46 2.65 9.22
9/8/2021 7:30:00 AM 16.25 61.25 0.125 7.48 2.57 9.3
9/8/2021 7:45:00 AM 16.25 61.25 0.124 7.5 2.57 9.41
9/8/2021 8:00:00 AM 16.24 61.232 0.124 7.53 2.55 9.51
9/8/2021 8:15:00 AM 16.26 61.268 0.124 7.56 2.46 9.63
9/8/2021 8:45:00 AM 16.33 61.394 0.124 7.62 2.18 9.84
9/8/2021 9:00:00 AM 16.38 61.484 0.123 7.66 1.73 9.92
9/8/2021 9:15:00 AM 16.48 61.664 0.123 7.72 1.84 10
9/8/2021 9:30:00 AM 16.54 61.772 0.123 7.77 1.74 10.06
9/8/2021 9:45:00 AM 16.64 61.952 0.123 7.81 1.75 10.1
9/8/2021 10:00:00 AM 16.76 62.168 0.123 7.83 1.7 10.07
9/8/2021 10:15:00 AM 16.85 62.33 0.123 7.84 1.63 10.04
9/8/2021 10:30:00 AM 16.9 62.42 0.123 7.83 1.72 9.99
9/8/2021 10:45:00 AM 17.02 62.636 0.123 7.84 1.7 9.98
9/8/2021 11:00:00 AM 17.15 62.87 0.123 7.87 1.66 10
9/8/2021 11:15:00 AM 17.3 63.14 0.123 7.9 1.61 10.06
9/8/2021 11:30:00 AM 17.35 63.23 0.122 7.96 1.58 10.11
9/8/2021 11:45:00 AM 17.51 63.518 0.122 8.02 1.67 10.15
9/8/2021 12:00:00 PM 17.8 64.04 0.122 8.1 1.65 10.21
9/8/2021 12:15:00 PM 18.01 64.418 0.122 8.16 1.65 10.19
9/8/2021 12:30:00 PM 18.21 64.778 0.122 8.23 1.95 10.21
9/8/2021 12:45:00 PM 18.5 65.3 0.122 8.3 1.66 10.22
9/8/2021 1:00:00 PM 18.66 65.588 0.122 8.36 1.64 10.21
9/8/2021 1:15:00 PM 18.76 65.768 0.122 8.33 1.69 10.05
9/8/2021 1:30:00 PM 18.87 65.966 0.122 8.32 1.72 9.99
9/8/2021 1:45:00 PM 19 66.2 0.122 8.36 1.7 10.02
9/8/2021 2:00:00 PM 19.02 66.236 0.122 8.27 1.76 9.78
9/8/2021 2:15:00 PM 19.04 66.272 0.122 8.18 1.75 9.67
9/8/2021 2:30:00 PM 19.04 66.272 0.122 8.13 1.61 9.58
9/8/2021 2:45:00 PM 18.97 66.146 0.119 7.93 2.15 9.22
9/8/2021 3:00:00 PM 18.9 66.02 0.114 7.78 4.62 9
9/8/2021 3:15:00 PM 18.81 65.858 0.112 7.67 8.46 8.88
9/8/2021 3:30:00 PM 18.74 65.732 0.112 7.63 14.04 8.91
9/8/2021 3:45:00 PM 18.65 65.57 0.112 7.62 10.9 8.94
9/8/2021 4:00:00 PM 18.6 65.48 0.113 7.6 6.31 8.92
9/8/2021 4:15:00 PM 18.55 65.39 0.114 7.58 4.84 8.85
9/8/2021 4:30:00 PM 18.51 65.318 0.115 7.57 5.96 8.87
9/8/2021 4:45:00 PM 18.47 65.246 0.114 7.56 8.61 8.88
9/8/2021 5:00:00 PM 18.42 65.156 0.113 7.55 9.96 8.92
9/8/2021 5:15:00 PM 18.37 65.066 0.113 7.54 10.34 8.91
9/8/2021 5:30:00 PM 18.28 64.904 0.112 7.52 9.67 8.92
9/8/2021 5:45:00 PM 18.21 64.778 0.111 7.51 8.8 8.94
9/8/2021 6:00:00 PM 18.12 64.616 0.108 7.48 7.92 8.95
9/8/2021 6:15:00 PM 18.03 64.454 0.105 7.47 11.28 9.04
9/8/2021 6:30:00 PM 17.93 64.274 0.103 7.47 13.96 9.08
9/8/2021 6:45:00 PM 17.86 64.148 0.103 7.46 14.1 9.05
9/8/2021 7:00:00 PM 17.8 64.04 0.103 7.45 17.31 9
9/8/2021 7:15:00 PM 17.78 64.004 0.104 7.43 31.92 8.97
9/8/2021 7:30:00 PM 17.71 63.878 0.102 7.41 43.88 8.98
9/8/2021 7:45:00 PM 17.68 63.824 0.104 7.39 43.8 8.97
9/8/2021 8:00:00 PM 17.7 63.86 0.108 7.41 37.46 8.96
9/8/2021 8:15:00 PM 17.68 63.824 0.111 7.41 30.66 8.96
9/8/2021 8:30:00 PM 17.61 63.698 0.113 7.41 30.59 8.97
9/8/2021 8:45:00 PM 17.52 63.536 0.114 7.41 31.86 8.99
9/8/2021 9:00:00 PM 17.41 63.338 0.115 7.41 28.22 9.02
9/8/2021 9:15:00 PM 17.3 63.14 0.117 7.4 25.46 9.04
9/8/2021 9:30:00 PM 17.2 62.96 0.119 7.41 22.16 9.05
9/8/2021 9:45:00 PM 17.13 62.834 0.12 7.41 20.86 9.05
9/8/2021 10:00:00 PM 17.09 62.762 0.121 7.42 19.15 9.06
9/8/2021 10:15:00 PM 17.06 62.708 0.12 7.43 20.95 9.07
9/8/2021 10:30:00 PM 17.04 62.672 0.119 7.43 17.62 9.07
9/8/2021 10:45:00 PM 17.03 62.654 0.117 7.42 17.41 9.07
9/8/2021 11:00:00 PM 17.02 62.636 0.115 7.42 16.51 9.07
9/8/2021 11:15:00 PM 17 62.6 0.114 7.43 15.09 9.07
9/8/2021 11:30:00 PM 16.99 62.582 0.113 7.42 15.26 9.08
9/8/2021 11:45:00 PM 16.97 62.546 0.113 7.42 14.25 9.09
9/9/2021 12:00:00 AM 16.95 62.51 0.113 7.42 13.86 9.09
9/9/2021 12:15:00 AM 16.94 62.492 0.113 7.42 13.73 9.09
9/9/2021 12:30:00 AM 16.92 62.456 0.114 7.43 12.9 9.1
9/9/2021 12:45:00 AM 16.9 62.42 0.115 7.43 12.96 9.11
9/9/2021 1:00:00 AM 16.88 62.384 0.115 7.43 12.54 9.11
9/9/2021 1:15:00 AM 16.86 62.348 0.116 7.44 12.04 9.11
9/9/2021 1:30:00 AM 16.84 62.312 0.116 7.44 11.94 9.12
9/9/2021 1:45:00 AM 16.82 62.276 0.117 7.44 11.59 9.11
9/9/2021 2:00:00 AM 16.79 62.222 0.117 7.44 11.49 9.13
9/9/2021 2:15:00 AM 16.77 62.186 0.117 7.44 10.81 9.13
9/9/2021 2:30:00 AM 16.74 62.132 0.117 7.44 10.36 9.13
9/9/2021 2:45:00 AM 16.72 62.096 0.117 7.44 10.06 9.13
9/9/2021 3:00:00 AM 16.7 62.06 0.118 7.44 9.71 9.14
9/9/2021 3:15:00 AM 16.68 62.024 0.118 7.44 8.93 9.14
9/9/2021 3:30:00 AM 16.66 61.988 0.118 7.44 8.94 9.14
9/9/2021 3:45:00 AM 16.65 61.97 0.118 7.44 8.66 9.15
9/9/2021 4:00:00 AM 16.64 61.952 0.119 7.44 8.17 9.15
9/9/2021 4:15:00 AM 16.63 61.934 0.119 7.44 7.96 9.15
9/9/2021 4:30:00 AM 16.61 61.898 0.119 7.44 7.75 9.16
9/9/2021 4:45:00 AM 16.6 61.88 0.119 7.44 7.14 9.16
9/9/2021 5:00:00 AM 16.59 61.862 0.12 7.45 7.61 9.15
9/9/2021 5:15:00 AM 16.57 61.826 0.12 7.44 7.32 9.16
9/9/2021 5:30:00 AM 16.55 61.79 0.12 7.44 7.16 9.16
9/9/2021 5:45:00 AM 16.54 61.772 0.12 7.45 6.71 9.16
9/9/2021 6:00:00 AM 16.52 61.736 0.12 7.45 6.84 9.15
9/9/2021 6:15:00 AM 16.5 61.7 0.12 7.45 6.38 9.16
9/9/2021 6:30:00 AM 16.49 61.682 0.121 7.45 6.46 9.15
9/9/2021 6:45:00 AM 16.47 61.646 0.121 7.45 6.3 9.16
9/9/2021 7:00:00 AM 16.45 61.61 0.121 7.45 6.04 9.17
9/9/2021 7:15:00 AM 16.43 61.574 0.121 7.46 6.09 9.2
9/9/2021 7:30:00 AM 16.41 61.538 0.121 7.47 5.98 9.25
9/9/2021 7:45:00 AM 16.4 61.52 0.121 7.48 5.49 9.32
9/9/2021 8:00:00 AM 16.39 61.502 0.121 7.5 5.29 9.41
9/9/2021 8:15:00 AM 16.41 61.538 0.121 7.53 5.32 9.52
9/9/2021 8:30:00 AM 16.43 61.574 0.121 7.55 4.99 9.6
9/9/2021 8:45:00 AM 16.46 61.628 0.121 7.58 4.81 9.67
9/9/2021 9:00:00 AM 16.48 61.664 0.121 7.6 4.49 9.68
9/9/2021 9:15:00 AM 16.54 61.772 0.121 7.63 4.6 9.8
9/9/2021 9:30:00 AM 16.58 61.844 0.122 7.68 4.51 9.89
9/9/2021 9:45:00 AM 16.64 61.952 0.122 7.71 4.26 9.96
9/9/2021 10:00:00 AM 16.71 62.078 0.121 7.74 4.16 9.99
9/9/2021 10:15:00 AM 16.75 62.15 0.122 7.73 3.86 9.89
9/9/2021 10:30:00 AM 16.83 62.294 0.122 7.73 3.91 9.9
9/9/2021 10:45:00 AM 16.89 62.402 0.122 7.75 3.88 9.92
9/9/2021 11:00:00 AM 16.99 62.582 0.122 7.77 3.77 9.92
9/9/2021 11:15:00 AM 17.09 62.762 0.122 7.8 3.75 9.95
9/9/2021 11:30:00 AM 17.21 62.978 0.122 7.83 3.54 9.98
9/9/2021 11:45:00 AM 17.37 63.266 0.121 7.88 3.5 10.05
9/9/2021 12:00:00 PM 17.48 63.464 0.121 7.92 3.41 10.1
9/9/2021 12:15:00 PM 17.55 63.59 0.121 7.95 3.47 10.1
9/9/2021 12:30:00 PM 17.57 63.626 0.121 7.94 3.31 10.05
9/9/2021 12:45:00 PM 17.65 63.77 0.121 7.97 3.24 10.07
9/9/2021 1:00:00 PM 17.73 63.914 0.121 7.99 3.16 10.07
9/9/2021 1:15:00 PM 17.8 64.04 0.121 8 3.24 10.04
9/9/2021 1:30:00 PM 17.92 64.256 0.121 8.02 3.22 10.07
9/9/2021 1:45:00 PM 18 64.4 0.12 8.04 3.14 10.07
9/9/2021 2:00:00 PM 18.1 64.58 0.12 8.04 3.06 10.04
9/9/2021 2:15:00 PM 18.08 64.544 0.12 8.03 3.05 9.99
9/9/2021 2:30:00 PM 18.17 64.706 0.12 8.02 3.26 9.97
9/9/2021 2:45:00 PM 18.29 64.922 0.12 8.04 3 9.95
9/9/2021 3:00:00 PM 18.42 65.156 0.12 8.02 3.03 9.88
9/9/2021 3:15:00 PM 18.4 65.12 0.12 7.97 2.92 9.79
9/9/2021 3:30:00 PM 18.43 65.174 0.12 7.95 3.07 9.73
9/9/2021 3:45:00 PM 18.44 65.192 0.119 7.95 2.9 9.75
9/9/2021 4:00:00 PM 18.46 65.228 0.119 7.96 3 9.75
9/9/2021 4:15:00 PM 18.54 65.372 0.119 7.99 2.91 9.81
9/9/2021 4:30:00 PM 18.48 65.264 0.119 7.95 2.9 9.7
9/9/2021 4:45:00 PM 18.56 65.408 0.119 7.96 2.94 9.76
9/9/2021 5:00:00 PM 18.57 65.426 0.119 7.95 3.05 9.72
9/9/2021 5:15:00 PM 18.56 65.408 0.119 7.88 3.04 9.53
9/9/2021 5:30:00 PM 18.49 65.282 0.119 7.79 2.99 9.34
9/9/2021 5:45:00 PM 18.4 65.12 0.119 7.72 2.92 9.26
9/9/2021 6:00:00 PM 18.41 65.138 0.119 7.73 2.92 9.36
9/9/2021 6:15:00 PM 18.37 65.066 0.119 7.71 3.09 9.3
9/9/2021 6:30:00 PM 18.3 64.94 0.119 7.69 3.08 9.24
9/9/2021 6:45:00 PM 18.22 64.796 0.119 7.65 3.04 9.16
9/9/2021 7:00:00 PM 18.15 64.67 0.119 7.61 3 9.08
9/9/2021 7:15:00 PM 18.1 64.58 0.119 7.59 2.84 9.03
9/9/2021 7:30:00 PM 18.06 64.508 0.119 7.56 3.04 8.99
9/9/2021 7:45:00 PM 17.99 64.382 0.119 7.54 2.97 8.94
9/9/2021 8:00:00 PM 17.92 64.256 0.119 7.52 3.08 8.9
9/9/2021 8:15:00 PM 17.85 64.13 0.119 7.5 3.06 8.89
9/9/2021 8:30:00 PM 17.78 64.004 0.119 7.49 3.24 8.88
9/9/2021 8:45:00 PM 17.7 63.86 0.119 7.49 3.07 8.89
9/9/2021 9:00:00 PM 17.61 63.698 0.119 7.48 3.1 8.91
9/9/2021 9:15:00 PM 17.52 63.536 0.119 7.47 3.11 8.93
9/9/2021 9:30:00 PM 17.44 63.392 0.119 7.47 3.06 8.94
9/9/2021 9:45:00 PM 17.35 63.23 0.119 7.47 3.07 8.96
9/9/2021 10:00:00 PM 17.26 63.068 0.119 7.46 3.07 8.98
9/9/2021 10:15:00 PM 17.17 62.906 0.119 7.46 2.95 8.99
9/9/2021 10:30:00 PM 17.09 62.762 0.119 7.46 2.89 9
9/9/2021 10:45:00 PM 17.01 62.618 0.118 7.45 2.99 9.02
9/9/2021 11:00:00 PM 16.92 62.456 0.118 7.45 2.98 9.04
9/9/2021 11:15:00 PM 16.84 62.312 0.118 7.45 3.13 9.06
9/9/2021 11:30:00 PM 16.77 62.186 0.118 7.45 2.99 9.08
9/9/2021 11:45:00 PM 16.7 62.06 0.118 7.45 3.32 9.09
9/10/2021 12:00:00 AM 16.63 61.934 0.118 7.45 2.9 9.11
9/10/2021 12:15:00 AM 16.54 61.772 0.118 7.44 3.04 9.12
9/10/2021 12:30:00 AM 16.46 61.628 0.118 7.44 8.94 9.12
9/10/2021 12:45:00 AM 16.4 61.52 0.118 7.44 5.12 9.13
9/10/2021 1:00:00 AM 16.33 61.394 0.118 7.44 2.96 9.17
9/10/2021 1:15:00 AM 16.26 61.268 0.118 7.44 2.78 9.19
9/10/2021 1:30:00 AM 16.19 61.142 0.118 7.44 2.88 9.2
9/10/2021 1:45:00 AM 16.14 61.052 0.118 7.44 2.96 9.22
9/10/2021 2:00:00 AM 16.07 60.926 0.118 7.44 2.75 9.24
9/10/2021 2:15:00 AM 16.01 60.818 0.118 7.44 2.84 9.25
9/10/2021 2:30:00 AM 15.95 60.71 0.118 7.44 2.87 9.26
9/10/2021 2:45:00 AM 15.9 60.62 0.118 7.44 2.82 9.27
9/10/2021 3:00:00 AM 15.84 60.512 0.118 7.44 2.72 9.28
9/10/2021 3:15:00 AM 15.79 60.422 0.118 7.44 2.79 9.29
9/10/2021 3:30:00 AM 15.75 60.35 0.118 7.44 2.79 9.3
9/10/2021 3:45:00 AM 15.69 60.242 0.118 7.44 2.79 9.32
9/10/2021 4:00:00 AM 15.64 60.152 0.118 7.44 2.71 9.33
9/10/2021 4:15:00 AM 15.58 60.044 0.118 7.44 2.99 9.35
9/10/2021 4:30:00 AM 15.51 59.918 0.118 7.44 2.99 9.36
9/10/2021 4:45:00 AM 15.44 59.792 0.118 7.44 2.73 9.39
9/10/2021 5:00:00 AM 15.38 59.684 0.118 7.44 2.72 9.4
9/10/2021 5:15:00 AM 15.31 59.558 0.118 7.44 2.79 9.41
9/10/2021 5:30:00 AM 15.26 59.468 0.118 7.43 2.59 9.42
9/10/2021 5:45:00 AM 15.2 59.36 0.118 7.43 2.58 9.44
9/10/2021 6:00:00 AM 15.14 59.252 0.118 7.43 2.76 9.44
9/10/2021 6:15:00 AM 15.09 59.162 0.118 7.43 2.72 9.46
9/10/2021 6:30:00 AM 15.03 59.054 0.118 7.43 2.91 9.48
9/10/2021 6:45:00 AM 14.98 58.964 0.118 7.43 2.87 9.51
9/10/2021 7:00:00 AM 14.92 58.856 0.118 7.44 2.76 9.54
9/10/2021 7:15:00 AM 14.87 58.766 0.118 7.44 2.73 9.59
9/10/2021 7:30:00 AM 14.83 58.694 0.118 7.46 2.64 9.66
9/10/2021 7:45:00 AM 14.78 58.604 0.118 7.47 2.62 9.71
9/10/2021 8:00:00 AM 14.73 58.514 0.118 7.48 2.62 9.77
9/10/2021 8:15:00 AM 14.71 58.478 0.118 7.49 2.49 9.83
9/10/2021 8:30:00 AM 14.7 58.46 0.118 7.51 2.46 9.88
9/10/2021 8:45:00 AM 14.71 58.478 0.118 7.52 2.47 9.94
9/10/2021 9:00:00 AM 14.75 58.55 0.118 7.55 2.34 10.03
9/10/2021 9:15:00 AM 14.8 58.64 0.118 7.58 2.46 10.17
9/10/2021 9:30:00 AM 14.92 58.856 0.117 7.63 2.35 10.28
9/10/2021 9:45:00 AM 14.97 58.946 0.117 7.66 2.27 10.29
9/10/2021 10:00:00 AM 15.02 59.036 0.117 7.68 2.26 10.29
9/10/2021 10:15:00 AM 15.12 59.216 0.117 7.71 2.28 10.33
9/10/2021 10:30:00 AM 15.18 59.324 0.117 7.74 2.28 10.36
9/10/2021 10:45:00 AM 15.28 59.504 0.117 7.76 2.39 10.38
9/10/2021 11:00:00 AM 15.36 59.648 0.117 7.78 2.21 10.4
9/10/2021 11:15:00 AM 15.39 59.702 0.117 7.81 2.11 10.44
9/10/2021 11:30:00 AM 15.61 60.098 0.117 7.85 2.1 10.45
9/10/2021 11:45:00 AM 15.76 60.368 0.117 7.85 2.12 10.38
9/10/2021 12:00:00 PM 15.84 60.512 0.117 7.86 2.13 10.37
9/10/2021 12:15:00 PM 16.05 60.89 0.116 7.92 2.12 10.47
9/10/2021 12:30:00 PM 16.09 60.962 0.116 7.89 2.25 10.32
9/10/2021 12:45:00 PM 16.28 61.304 0.116 7.93 2.17 10.4
9/10/2021 1:00:00 PM 16.53 61.754 0.116 7.99 2.2 10.41
9/10/2021 1:15:00 PM 16.56 61.808 0.116 7.98 2.07 10.33
9/10/2021 1:30:00 PM 16.54 61.772 0.116 7.93 2.1 10.23
9/10/2021 1:45:00 PM 16.7 62.06 0.116 7.95 2.1 10.29
9/10/2021 2:00:00 PM 16.86 62.348 0.116 7.99 2.05 10.28
9/10/2021 2:15:00 PM 16.95 62.51 0.116 8.03 2.09 10.31
9/10/2021 2:30:00 PM 17.08 62.744 0.116 8.07 2.19 10.34
9/10/2021 2:45:00 PM 17.21 62.978 0.116 8.07 2.08 10.3
9/10/2021 3:00:00 PM 17.28 63.104 0.116 8.06 2.16 10.27
9/10/2021 3:15:00 PM 17.32 63.176 0.116 8.1 2.1 10.3
9/10/2021 3:30:00 PM 17.38 63.284 0.116 8.12 2.14 10.29
9/10/2021 3:45:00 PM 17.44 63.392 0.116 8.08 2.15 10.2
9/10/2021 4:00:00 PM 17.6 63.68 0.116 8.07 2.12 10.18
9/10/2021 4:15:00 PM 17.69 63.842 0.116 8.09 2.09 10.15
9/10/2021 4:30:00 PM 17.7 63.86 0.116 8.05 2.15 10.07
9/10/2021 4:45:00 PM 17.7 63.86 0.116 8 2.23 9.99
9/10/2021 5:00:00 PM 17.72 63.896 0.116 7.97 2.3 9.91
9/10/2021 5:15:00 PM 17.72 63.896 0.116 7.94 2.19 9.9
9/10/2021 5:30:00 PM 17.66 63.788 0.116 7.91 2.2 9.87
9/10/2021 5:45:00 PM 17.61 63.698 0.116 7.88 2.19 9.82
9/10/2021 6:00:00 PM 17.59 63.662 0.116 7.84 2.16 9.75
9/10/2021 6:15:00 PM 17.55 63.59 0.116 7.8 2.28 9.67
9/10/2021 6:30:00 PM 17.49 63.482 0.116 7.75 2.23 9.59
9/10/2021 6:45:00 PM 17.42 63.356 0.117 7.7 2.25 9.46
9/10/2021 7:00:00 PM 17.33 63.194 0.117 7.65 2.21 9.35
9/10/2021 7:15:00 PM 17.24 63.032 0.117 7.61 2.34 9.28
9/10/2021 7:30:00 PM 17.15 62.87 0.117 7.58 2.34 9.22
9/10/2021 7:45:00 PM 17.06 62.708 0.117 7.55 2.3 9.17
9/10/2021 8:00:00 PM 16.97 62.546 0.117 7.53 2.36 9.16
9/10/2021 8:15:00 PM 16.88 62.384 0.117 7.51 2.31 9.15
9/10/2021 8:30:00 PM 16.8 62.24 0.117 7.5 2.45 9.16
9/10/2021 8:45:00 PM 16.71 62.078 0.117 7.49 2.5 9.17
9/10/2021 9:00:00 PM 16.61 61.898 0.117 7.48 2.65 9.18
9/10/2021 9:15:00 PM 16.52 61.736 0.117 7.48 2.63 9.19
9/10/2021 9:30:00 PM 16.43 61.574 0.117 7.47 2.51 9.2
9/10/2021 9:45:00 PM 16.34 61.412 0.117 7.47 2.44 9.23
9/10/2021 10:00:00 PM 16.24 61.232 0.117 7.47 2.43 9.25
9/10/2021 10:15:00 PM 16.15 61.07 0.117 7.46 2.36 9.28
9/10/2021 10:30:00 PM 16.06 60.908 0.117 7.46 2.46 9.29
9/10/2021 10:45:00 PM 15.97 60.746 0.117 7.46 2.31 9.31
9/10/2021 11:00:00 PM 15.88 60.584 0.117 7.45 2.3 9.33
9/10/2021 11:15:00 PM 15.79 60.422 0.117 7.45 2.46 9.34
9/10/2021 11:30:00 PM 15.71 60.278 0.117 7.45 2.6 9.36
9/10/2021 11:45:00 PM 15.63 60.134 0.117 7.45 2.73 9.38
9/11/2021 12:00:00 AM 15.55 59.99 0.117 7.45 2.29 9.41
9/11/2021 12:15:00 AM 15.49 59.882 0.117 7.44 2.26 9.43
9/11/2021 12:30:00 AM 15.43 59.774 0.117 7.45 2.28 9.45
9/11/2021 12:45:00 AM 15.38 59.684 0.117 7.45 2.41 9.46
9/11/2021 1:00:00 AM 15.34 59.612 0.117 7.45 2.28 9.48
9/11/2021 1:15:00 AM 15.29 59.522 0.117 7.45 2.64 9.48
9/11/2021 1:30:00 AM 15.25 59.45 0.117 7.45 2.52 9.49
9/11/2021 1:45:00 AM 15.2 59.36 0.117 7.45 2.5 9.5
9/11/2021 2:00:00 AM 15.15 59.27 0.117 7.45 2.38 9.5
9/11/2021 2:15:00 AM 15.1 59.18 0.117 7.45 2.37 9.52
9/11/2021 2:30:00 AM 15.05 59.09 0.117 7.45 2.28 9.53
9/11/2021 2:45:00 AM 15 59 0.117 7.44 2.3 9.54
9/11/2021 3:00:00 AM 14.95 58.91 0.117 7.45 2.34 9.57
9/11/2021 3:15:00 AM 14.9 58.82 0.117 7.44 2.27 9.58
9/11/2021 3:30:00 AM 14.85 58.73 0.117 7.45 2.37 9.59
9/11/2021 3:45:00 AM 14.81 58.658 0.117 7.45 2.42 9.6
9/11/2021 4:00:00 AM 14.76 58.568 0.117 7.45 2.29 9.62
9/11/2021 4:15:00 AM 14.71 58.478 0.117 7.44 2.2 9.63
9/11/2021 4:30:00 AM 14.67 58.406 0.117 7.44 2.52 9.64
9/11/2021 4:45:00 AM 14.62 58.316 0.117 7.43 2.42 9.65
9/11/2021 5:00:00 AM 14.57 58.226 0.117 7.43 2.29 9.66
9/11/2021 5:15:00 AM 14.52 58.136 0.117 7.43 2.24 9.66
9/11/2021 5:30:00 AM 14.45 58.01 0.117 7.42 2.25 9.68
9/11/2021 5:45:00 AM 14.4 57.92 0.117 7.42 2.26 9.69
9/11/2021 6:00:00 AM 14.37 57.866 0.117 7.42 2.2 9.7
9/11/2021 6:15:00 AM 14.33 57.794 0.117 7.42 2.32 9.72
9/11/2021 6:30:00 AM 14.3 57.74 0.117 7.41 2.23 9.74
9/11/2021 6:45:00 AM 14.25 57.65 0.117 7.41 2.3 9.75
9/11/2021 7:00:00 AM 14.21 57.578 0.117 7.41 2.29 9.78
9/11/2021 7:15:00 AM 14.16 57.488 0.117 7.41 2.23 9.82
9/11/2021 7:30:00 AM 14.12 57.416 0.117 7.42 2.26 9.89
9/11/2021 7:45:00 AM 14.1 57.38 0.117 7.44 2.22 9.99
9/11/2021 8:00:00 AM 14.07 57.326 0.117 7.46 2.14 10.06
9/11/2021 8:15:00 AM 14.06 57.308 0.116 7.48 2.13 10.15
9/11/2021 8:30:00 AM 14.05 57.29 0.116 7.5 2.06 10.24
9/11/2021 8:45:00 AM 14.05 57.29 0.116 7.53 2.14 10.34
9/11/2021 9:00:00 AM 14.07 57.326 0.116 7.57 2.11 10.46
9/11/2021 9:15:00 AM 14.11 57.398 0.116 7.62 2.11 10.57
9/11/2021 9:30:00 AM 14.16 57.488 0.116 7.66 2.07 10.64
9/11/2021 9:45:00 AM 14.21 57.578 0.115 7.7 2.08 10.72
9/11/2021 10:00:00 AM 14.3 57.74 0.115 7.74 2.21 10.75
9/11/2021 10:15:00 AM 14.4 57.92 0.115 7.76 2.06 10.71
9/11/2021 10:30:00 AM 14.47 58.046 0.116 7.75 2.09 10.62
9/11/2021 10:45:00 AM 14.54 58.172 0.115 7.74 1.93 10.58
9/11/2021 11:00:00 AM 14.65 58.37 0.115 7.75 2.06 10.58
9/11/2021 11:15:00 AM 14.79 58.622 0.115 7.76 1.94 10.56
9/11/2021 11:30:00 AM 14.97 58.946 0.115 7.78 2.06 10.54
9/11/2021 11:45:00 AM 15.17 59.306 0.115 7.8 1.96 10.51
9/11/2021 12:00:00 PM 15.4 59.72 0.115 7.83 1.86 10.53
9/11/2021 12:15:00 PM 15.64 60.152 0.115 7.86 1.87 10.51
9/11/2021 12:30:00 PM 15.88 60.584 0.115 7.88 1.87 10.47
9/11/2021 12:45:00 PM 16.12 61.016 0.115 7.9 1.94 10.46
9/11/2021 1:00:00 PM 16.34 61.412 0.115 7.92 1.9 10.41
9/11/2021 1:15:00 PM 16.57 61.826 0.115 7.95 1.94 10.41
9/11/2021 1:30:00 PM 16.75 62.15 0.115 7.97 1.92 10.37
9/11/2021 1:45:00 PM 17 62.6 0.115 8.02 1.91 10.4
9/11/2021 2:00:00 PM 17.14 62.852 0.114 8.04 1.91 10.35
9/11/2021 2:15:00 PM 17.21 62.978 0.114 8.03 1.92 10.29
9/11/2021 2:30:00 PM 17.23 63.014 0.114 8.03 1.93 10.24
9/11/2021 2:45:00 PM 17.38 63.284 0.114 8.06 2.1 10.29
9/11/2021 3:00:00 PM 17.55 63.59 0.114 8.11 1.98 10.31
9/11/2021 3:15:00 PM 17.66 63.788 0.114 8.12 1.93 10.28
9/11/2021 3:30:00 PM 17.78 64.004 0.114 8.15 1.98 10.27
9/11/2021 3:45:00 PM 17.93 64.274 0.114 8.19 1.94 10.31
9/11/2021 4:00:00 PM 17.95 64.31 0.114 8.18 1.99 10.22
9/11/2021 4:15:00 PM 18.04 64.472 0.114 8.19 2.11 10.21
9/11/2021 4:30:00 PM 18.03 64.454 0.114 8.15 2.02 10.13
9/11/2021 4:45:00 PM 18.05 64.49 0.114 8.13 1.95 10.09
9/11/2021 5:00:00 PM 17.99 64.382 0.114 8.08 2.06 10.02
9/11/2021 5:15:00 PM 17.94 64.292 0.114 8.03 2.01 9.96
9/11/2021 5:30:00 PM 17.89 64.202 0.114 7.98 2.03 9.88
9/11/2021 5:45:00 PM 17.79 64.022 0.114 7.92 2.11 9.78
9/11/2021 6:00:00 PM 17.69 63.842 0.114 7.86 2.07 9.7
9/11/2021 6:15:00 PM 17.6 63.68 0.115 7.8 1.97 9.62
9/11/2021 6:30:00 PM 17.52 63.536 0.115 7.75 2.09 9.55
9/11/2021 6:45:00 PM 17.43 63.374 0.115 7.7 2.15 9.47
9/11/2021 7:00:00 PM 17.33 63.194 0.115 7.65 2.07 9.38
9/11/2021 7:15:00 PM 17.23 63.014 0.115 7.61 2.14 9.3
9/11/2021 7:30:00 PM 17.14 62.852 0.115 7.58 2.08 9.23
9/11/2021 7:45:00 PM 17.06 62.708 0.115 7.55 2.12 9.18
9/11/2021 8:00:00 PM 16.97 62.546 0.115 7.53 2.22 9.16
9/11/2021 8:15:00 PM 16.89 62.402 0.115 7.51 2.26 9.15
9/11/2021 8:30:00 PM 16.82 62.276 0.115 7.5 2.3 9.15
9/11/2021 8:45:00 PM 16.74 62.132 0.115 7.49 2.41 9.16
9/11/2021 9:00:00 PM 16.67 62.006 0.115 7.48 2.21 9.16
9/11/2021 9:15:00 PM 16.6 61.88 0.115 7.47 2.34 9.18
9/11/2021 9:30:00 PM 16.53 61.754 0.115 7.47 2.31 9.18
9/11/2021 9:45:00 PM 16.47 61.646 0.115 7.47 2.2 9.18
9/11/2021 10:00:00 PM 16.41 61.538 0.115 7.46 2.17 9.19
9/11/2021 10:15:00 PM 16.34 61.412 0.115 7.46 2.3 9.21
9/11/2021 10:30:00 PM 16.29 61.322 0.116 7.45 2.29 9.23
9/11/2021 10:45:00 PM 16.23 61.214 0.115 7.45 2.35 9.24
9/11/2021 11:00:00 PM 16.17 61.106 0.116 7.45 2.37 9.25
9/11/2021 11:15:00 PM 16.11 60.998 0.116 7.45 2.14 9.27
9/11/2021 11:30:00 PM 16.06 60.908 0.116 7.45 2.15 9.28
9/11/2021 11:45:00 PM 16 60.8 0.116 7.44 2.2 9.29
9/12/2021 12:00:00 AM 15.94 60.692 0.116 7.44 2.25 9.3
9/12/2021 12:15:00 AM 15.88 60.584 0.116 7.44 2.27 9.31
9/12/2021 12:30:00 AM 15.83 60.494 0.116 7.44 2.37 9.32
9/12/2021 12:45:00 AM 15.77 60.386 0.116 7.44 2.23 9.33
9/12/2021 1:00:00 AM 15.71 60.278 0.116 7.44 2.17 9.34
9/12/2021 1:15:00 AM 15.65 60.17 0.116 7.44 2.45 9.37
9/12/2021 1:30:00 AM 15.61 60.098 0.116 7.43 2.41 9.38
9/12/2021 1:45:00 AM 15.56 60.008 0.116 7.43 2.38 9.4
9/12/2021 2:00:00 AM 15.51 59.918 0.116 7.43 2.28 9.41
9/12/2021 2:15:00 AM 15.45 59.81 0.116 7.43 2.5 9.42
9/12/2021 2:30:00 AM 15.4 59.72 0.116 7.43 2.44 9.43
9/12/2021 2:45:00 AM 15.36 59.648 0.116 7.43 2.26 9.44
9/12/2021 3:00:00 AM 15.32 59.576 0.116 7.43 2.16 9.45
9/12/2021 3:15:00 AM 15.27 59.486 0.116 7.43 2.21 9.45
9/12/2021 3:30:00 AM 15.23 59.414 0.116 7.43 2.08 9.46
9/12/2021 3:45:00 AM 15.18 59.324 0.116 7.43 2.14 9.47
9/12/2021 4:00:00 AM 15.13 59.234 0.116 7.43 2.17 9.47
9/12/2021 4:15:00 AM 15.08 59.144 0.116 7.43 2.3 9.49
9/12/2021 4:30:00 AM 15.04 59.072 0.116 7.43 2.75 9.5
9/12/2021 4:45:00 AM 14.99 58.982 0.116 7.43 2.95 9.51
9/12/2021 5:00:00 AM 14.95 58.91 0.116 7.43 2.77 9.53
9/12/2021 5:15:00 AM 14.9 58.82 0.116 7.43 2.3 9.54
9/12/2021 5:30:00 AM 14.86 58.748 0.116 7.43 2.16 9.56
9/12/2021 5:45:00 AM 14.82 58.676 0.116 7.43 2.14 9.56
9/12/2021 6:00:00 AM 14.78 58.604 0.116 7.42 2.15 9.57
9/12/2021 6:15:00 AM 14.73 58.514 0.116 7.42 2.19 9.58
9/12/2021 6:30:00 AM 14.69 58.442 0.116 7.42 2.23 9.59
9/12/2021 6:45:00 AM 14.66 58.388 0.116 7.42 2.22 9.6
9/12/2021 7:00:00 AM 14.63 58.334 0.116 7.43 2.12 9.63
9/12/2021 7:15:00 AM 14.6 58.28 0.116 7.44 2.19 9.69
9/12/2021 7:30:00 AM 14.58 58.244 0.116 7.45 2.09 9.76
9/12/2021 7:45:00 AM 14.57 58.226 0.116 7.47 2.07 9.86
9/12/2021 8:00:00 AM 14.57 58.226 0.115 7.48 2.11 9.91
9/12/2021 8:15:00 AM 14.57 58.226 0.115 7.51 2.09 10.04
9/12/2021 8:30:00 AM 14.59 58.262 0.115 7.54 2.08 10.17
9/12/2021 8:45:00 AM 14.63 58.334 0.115 7.58 1.98 10.3
9/12/2021 9:00:00 AM 14.68 58.424 0.115 7.62 2.02 10.39
9/12/2021 9:15:00 AM 14.74 58.532 0.115 7.66 2.04 10.45
9/12/2021 9:30:00 AM 14.8 58.64 0.115 7.69 2.07 10.5
9/12/2021 9:45:00 AM 14.9 58.82 0.114 7.72 1.98 10.53
9/12/2021 10:00:00 AM 14.99 58.982 0.114 7.75 1.99 10.54
9/12/2021 10:15:00 AM 15.08 59.144 0.114 7.77 2 10.53
9/12/2021 10:30:00 AM 15.19 59.342 0.114 7.81 2.12 10.62
9/12/2021 10:45:00 AM 15.28 59.504 0.114 7.86 1.9 10.66
9/12/2021 11:00:00 AM 15.38 59.684 0.114 7.88 1.91 10.64
9/12/2021 11:15:00 AM 15.47 59.846 0.114 7.92 1.91 10.67
9/12/2021 11:30:00 AM 15.61 60.098 0.114 7.99 1.91 10.73
9/12/2021 11:45:00 AM 15.73 60.314 0.114 8.03 1.88 10.73
9/12/2021 12:00:00 PM 15.85 60.53 0.114 8.06 2.1 10.68
9/12/2021 12:15:00 PM 15.97 60.746 0.114 8.08 2.03 10.69
9/12/2021 12:30:00 PM 16.08 60.944 0.114 8.1 1.9 10.66
9/12/2021 12:45:00 PM 16.18 61.124 0.114 8.11 1.86 10.61
9/12/2021 1:00:00 PM 16.3 61.34 0.114 8.13 1.92 10.61
9/12/2021 1:15:00 PM 16.38 61.484 0.114 8.14 1.91 10.57
9/12/2021 1:30:00 PM 16.46 61.628 0.114 8.16 2.02 10.58
9/12/2021 1:45:00 PM 16.52 61.736 0.114 8.17 1.88 10.56
9/12/2021 2:00:00 PM 16.58 61.844 0.114 8.17 2.16 10.53
9/12/2021 2:15:00 PM 16.7 62.06 0.114 8.2 1.93 10.59
9/12/2021 2:30:00 PM 16.87 62.366 0.114 8.26 1.88 10.63
9/12/2021 2:45:00 PM 16.97 62.546 0.114 8.29 1.87 10.6
9/12/2021 3:00:00 PM 17.1 62.78 0.113 8.31 1.95 10.57
9/12/2021 3:15:00 PM 17.21 62.978 0.113 8.32 1.93 10.54
9/12/2021 3:30:00 PM 17.34 63.212 0.113 8.33 1.97 10.53
9/12/2021 3:45:00 PM 17.46 63.428 0.113 8.35 2.04 10.49
9/12/2021 4:00:00 PM 17.5 63.5 0.113 8.31 1.94 10.4
9/12/2021 4:15:00 PM 17.5 63.5 0.113 8.21 1.93 10.22
9/12/2021 4:30:00 PM 17.52 63.536 0.113 8.16 1.98 10.2
9/12/2021 4:45:00 PM 17.53 63.554 0.113 8.1 2.04 10.16
9/12/2021 5:00:00 PM 17.59 63.662 0.113 8.11 2.01 10.17
9/12/2021 5:15:00 PM 17.61 63.698 0.113 8.08 2.05 10.11
9/12/2021 5:30:00 PM 17.64 63.752 0.113 8.04 1.97 10.03
9/12/2021 5:45:00 PM 17.62 63.716 0.114 7.93 2 9.85
9/12/2021 6:00:00 PM 17.56 63.608 0.114 7.85 2.12 9.74
9/12/2021 6:15:00 PM 17.52 63.536 0.114 7.79 2.05 9.69
9/12/2021 6:30:00 PM 17.53 63.554 0.114 7.75 2.03 9.63
9/12/2021 6:45:00 PM 17.5 63.5 0.114 7.7 2.01 9.51
9/12/2021 7:00:00 PM 17.44 63.392 0.114 7.65 2.02 9.39
9/12/2021 7:15:00 PM 17.37 63.266 0.115 7.59 2.19 9.29
9/12/2021 7:30:00 PM 17.31 63.158 0.115 7.55 2.02 9.19
9/12/2021 7:45:00 PM 17.26 63.068 0.115 7.5 2.07 9.12
9/12/2021 8:00:00 PM 17.22 62.996 0.115 7.47 2.28 9.07
9/12/2021 8:15:00 PM 17.19 62.942 0.115 7.44 2.15 9.04
9/12/2021 8:30:00 PM 17.17 62.906 0.115 7.43 2.16 9.03
9/12/2021 8:45:00 PM 17.15 62.87 0.115 7.41 2.09 9.03
9/12/2021 9:00:00 PM 17.12 62.816 0.115 7.4 2.16 9.03
9/12/2021 9:15:00 PM 17.1 62.78 0.115 7.39 2.28 9.02
9/12/2021 9:30:00 PM 17.08 62.744 0.115 7.38 2.14 9.02
9/12/2021 9:45:00 PM 17.06 62.708 0.115 7.38 2.08 9.02
9/12/2021 10:00:00 PM 17.04 62.672 0.115 7.37 3.91 9.03
9/12/2021 10:15:00 PM 17.02 62.636 0.116 7.36 2.26 9.03
9/12/2021 10:30:00 PM 16.99 62.582 0.116 7.35 2.23 9.03
9/12/2021 10:45:00 PM 16.97 62.546 0.116 7.35 2.2 9.04
9/12/2021 11:00:00 PM 16.94 62.492 0.116 7.34 2.06 9.05
9/12/2021 11:15:00 PM 16.91 62.438 0.116 7.33 2.11 9.05
9/12/2021 11:30:00 PM 16.88 62.384 0.116 7.33 2.07 9.06
9/12/2021 11:45:00 PM 16.85 62.33 0.116 7.33 2.11 9.06
9/13/2021 12:00:00 AM 16.82 62.276 0.116 7.32 2.16 9.07
9/13/2021 12:15:00 AM 16.79 62.222 0.116 7.32 2.37 9.07
9/13/2021 12:30:00 AM 16.76 62.168 0.116 7.33 2.28 9.09
9/13/2021 12:45:00 AM 16.73 62.114 0.116 7.33 2.37 9.09
9/13/2021 1:00:00 AM 16.69 62.042 0.116 7.33 2.07 9.09
9/13/2021 1:15:00 AM 16.67 62.006 0.116 7.33 2.17 9.1
9/13/2021 1:30:00 AM 16.65 61.97 0.116 7.33 2.16 9.11
9/13/2021 1:45:00 AM 16.63 61.934 0.116 7.33 2.14 9.12
9/13/2021 2:00:00 AM 16.61 61.898 0.116 7.34 2.06 9.12
9/13/2021 2:15:00 AM 16.59 61.862 0.116 7.34 2.19 9.12
9/13/2021 2:30:00 AM 16.57 61.826 0.116 7.34 2.45 9.12
9/13/2021 2:45:00 AM 16.55 61.79 0.116 7.34 2.2 9.14
9/13/2021 3:00:00 AM 16.54 61.772 0.117 7.34 2.46 9.13
9/13/2021 3:15:00 AM 16.53 61.754 0.117 7.33 2.15 9.14
9/13/2021 3:30:00 AM 16.51 61.718 0.117 7.33 2.04 9.13
9/13/2021 3:45:00 AM 16.5 61.7 0.117 7.33 2.08 9.14
9/13/2021 4:00:00 AM 16.48 61.664 0.117 7.34 2.22 9.14
9/13/2021 4:15:00 AM 16.47 61.646 0.117 7.34 2.18 9.15
9/13/2021 4:30:00 AM 16.45 61.61 0.117 7.35 2.11 9.15
9/13/2021 4:45:00 AM 16.43 61.574 0.117 7.35 2.12 9.15
9/13/2021 5:00:00 AM 16.41 61.538 0.117 7.35 1.93 9.16
9/13/2021 5:15:00 AM 16.39 61.502 0.117 7.35 2.02 9.16
9/13/2021 5:30:00 AM 16.38 61.484 0.117 7.35 2.08 9.17
9/13/2021 5:45:00 AM 16.37 61.466 0.117 7.34 1.98 9.17
9/13/2021 6:00:00 AM 16.35 61.43 0.117 7.34 2.24 9.18
9/13/2021 6:15:00 AM 16.33 61.394 0.117 7.34 2.05 9.18
9/13/2021 6:30:00 AM 16.32 61.376 0.117 7.34 2.2 9.19
9/13/2021 6:45:00 AM 16.31 61.358 0.117 7.34 2.13 9.2
9/13/2021 7:00:00 AM 16.29 61.322 0.117 7.34 2.08 9.22
9/13/2021 7:15:00 AM 16.28 61.304 0.117 7.34 2.08 9.24
9/13/2021 7:30:00 AM 16.26 61.268 0.117 7.35 2.09 9.28
9/13/2021 7:45:00 AM 16.26 61.268 0.117 7.36 2.08 9.34
9/13/2021 8:00:00 AM 16.27 61.286 0.117 7.37 2.01 9.42
9/13/2021 8:15:00 AM 16.28 61.304 0.117 7.4 2.03 9.57
9/13/2021 8:30:00 AM 16.3 61.34 0.116 7.43 2.04 9.71
9/13/2021 8:45:00 AM 16.32 61.376 0.116 7.45 2.02 9.73
9/13/2021 9:00:00 AM 16.35 61.43 0.116 7.46 1.96 9.75
9/13/2021 9:15:00 AM 16.41 61.538 0.116 7.51 1.93 9.92
9/13/2021 9:30:00 AM 16.47 61.646 0.116 7.55 1.99 10.05
9/13/2021 9:45:00 AM 16.52 61.736 0.116 7.61 1.93 10.14
9/13/2021 10:00:00 AM 16.61 61.898 0.116 7.67 1.89 10.22
9/13/2021 10:15:00 AM 16.75 62.15 0.115 7.76 1.94 10.33
9/13/2021 10:30:00 AM 16.82 62.276 0.115 7.81 1.86 10.32
9/13/2021 10:45:00 AM 16.91 62.438 0.115 7.86 1.95 10.37
9/13/2021 11:00:00 AM 17.06 62.708 0.115 7.92 1.88 10.39
9/13/2021 11:15:00 AM 17.19 62.942 0.115 7.98 1.9 10.43
9/13/2021 11:30:00 AM 17.33 63.194 0.115 8.04 1.92 10.46
9/13/2021 11:45:00 AM 17.5 63.5 0.115 8.09 2 10.45
9/13/2021 12:00:00 PM 17.57 63.626 0.115 8.11 1.84 10.41
9/13/2021 12:15:00 PM 17.71 63.878 0.115 8.15 1.83 10.42
9/13/2021 12:30:00 PM 17.95 64.31 0.115 8.23 1.9 10.49
9/13/2021 12:45:00 PM 18.1 64.58 0.115 8.28 1.93 10.45
9/13/2021 1:00:00 PM 18.21 64.778 0.115 8.3 1.93 10.38
9/13/2021 1:15:00 PM 18.26 64.868 0.115 8.22 1.83 10.18
9/13/2021 1:30:00 PM 18.4 65.12 0.115 8.23 2.04 10.22
9/13/2021 1:45:00 PM 18.45 65.21 0.115 8.24 2.01 10.22
9/13/2021 2:00:00 PM 18.61 65.498 0.115 8.33 2.03 10.33
9/13/2021 2:15:00 PM 18.79 65.82201 0.114 8.38 1.84 10.34
9/13/2021 2:30:00 PM 18.9 66.02 0.114 8.39 1.89 10.3
9/13/2021 2:45:00 PM 19.02 66.236 0.114 8.42 1.99 10.26
9/13/2021 3:00:00 PM 19.27 66.686 0.114 8.48 2.03 10.29
9/13/2021 3:15:00 PM 19.43 66.974 0.114 8.49 1.91 10.22
9/13/2021 3:30:00 PM 19.59 67.262 0.115 8.51 1.94 10.17
9/13/2021 3:45:00 PM 19.76 67.568 0.115 8.51 1.93 10.11
9/13/2021 4:00:00 PM 19.78 67.604 0.115 8.48 1.94 9.99
9/13/2021 4:15:00 PM 19.79 67.622 0.115 8.42 1.97 9.9
9/13/2021 4:30:00 PM 19.8 67.64 0.115 8.37 2.08 9.82
9/13/2021 4:45:00 PM 19.85 67.73 0.115 8.33 1.94 9.8
9/13/2021 5:00:00 PM 19.81 67.658 0.115 8.27 1.95 9.71
9/13/2021 5:15:00 PM 19.79 67.622 0.115 8.2 2.11 9.65
9/13/2021 5:30:00 PM 19.75 67.55 0.115 8.09 2.11 9.49
9/13/2021 5:45:00 PM 19.69 67.442 0.115 7.97 2.01 9.37
9/13/2021 6:00:00 PM 19.62 67.316 0.115 7.84 2.1 9.18
9/13/2021 6:15:00 PM 19.56 67.208 0.116 7.74 2.02 9.03
9/13/2021 6:30:00 PM 19.52 67.136 0.114 7.65 2.23 8.86
9/13/2021 6:45:00 PM 19.53 67.154 0.11 7.58 5.13 8.75
9/13/2021 7:00:00 PM 18.75 65.75 0.1 7.53 17.59 8.81
9/13/2021 7:15:00 PM 18.46 65.228 0.096 7.45 40.2 8.79
9/13/2021 7:30:00 PM 18.31 64.958 0.095 7.4 42.27 8.81
9/13/2021 7:45:00 PM 18.33 64.994 0.097 7.39 27.67 8.8
9/13/2021 8:00:00 PM 18.34 65.012 0.097 7.36 30.01 8.77
9/13/2021 8:15:00 PM 18.17 64.706 0.093 7.31 44.42 8.76
9/13/2021 8:30:00 PM 18.11 64.598 0.091 7.25 47.41 8.75
9/13/2021 8:45:00 PM 17.93 64.274 0.08 7.21 107.88 8.87
9/13/2021 9:00:00 PM 17.43 63.374 0.059 7.05 447.04 9.06
9/13/2021 9:15:00 PM 17.15 62.87 0.072 7.05 499.63 9.13
9/13/2021 9:30:00 PM 17.14 62.852 0.081 7.16 600.12 9.13
9/13/2021 9:45:00 PM 17.63 63.734 0.083 7.05 602.89 9.01
9/13/2021 10:00:00 PM 18 64.4 0.094 7.19 345.4 8.94
9/13/2021 10:15:00 PM 17.95 64.31 0.095 7.26 240.7 8.96
9/13/2021 10:30:00 PM 17.78 64.004 0.091 7.26 225.05 8.97
9/13/2021 10:45:00 PM 17.64 63.752 0.087 7.24 245.92 9
9/13/2021 11:00:00 PM 17.57 63.626 0.084 7.22 256.95 9.01
9/13/2021 11:15:00 PM 17.51 63.518 0.082 7.21 253.5 9.02
9/13/2021 11:30:00 PM 17.46 63.428 0.079 7.21 238.36 9.03
9/13/2021 11:45:00 PM 17.42 63.356 0.078 7.2 213.43 9.04
9/14/2021 12:00:00 AM 17.37 63.266 0.077 7.19 192.29 9.04
9/14/2021 12:15:00 AM 17.31 63.158 0.076 7.19 170.62 9.05
9/14/2021 12:30:00 AM 17.26 63.068 0.076 7.19 141.49 9.06
9/14/2021 12:45:00 AM 17.21 62.978 0.076 7.19 134.38 9.08
9/14/2021 1:00:00 AM 17.17 62.906 0.077 7.19 122.97 9.08
9/14/2021 1:15:00 AM 17.12 62.816 0.078 7.19 109.08 9.09
9/14/2021 1:30:00 AM 17.07 62.726 0.079 7.2 92.63 9.1
9/14/2021 1:45:00 AM 17.02 62.636 0.08 7.21 82.91 9.11
9/14/2021 2:00:00 AM 16.96 62.528 0.082 7.21 76.91 9.12
9/14/2021 2:15:00 AM 16.91 62.438 0.083 7.22 68.03 9.14
9/14/2021 2:30:00 AM 16.85 62.33 0.084 7.22 58.27 9.17
9/14/2021 2:45:00 AM 16.8 62.24 0.085 7.22 52.22 9.18
9/14/2021 3:00:00 AM 16.75 62.15 0.086 7.23 46.23 9.19
9/14/2021 3:15:00 AM 16.7 62.06 0.087 7.24 43.49 9.2
9/14/2021 3:30:00 AM 16.66 61.988 0.088 7.24 38.77 9.21
9/14/2021 3:45:00 AM 16.62 61.916 0.089 7.24 34.77 9.22
9/14/2021 4:00:00 AM 16.58 61.844 0.09 7.25 30.87 9.23
9/14/2021 4:15:00 AM 16.54 61.772 0.091 7.26 26.92 9.24
9/14/2021 4:30:00 AM 16.5 61.7 0.091 7.26 25.58 9.25
9/14/2021 4:45:00 AM 16.45 61.61 0.092 7.26 24.12 9.26
9/14/2021 5:00:00 AM 16.41 61.538 0.092 7.26 22.51 9.26
9/14/2021 5:15:00 AM 16.38 61.484 0.092 7.27 21.32 9.27
9/14/2021 5:30:00 AM 16.34 61.412 0.092 7.27 20.63 9.27
9/14/2021 5:45:00 AM 16.31 61.358 0.093 7.27 19.32 9.28
9/14/2021 6:00:00 AM 16.29 61.322 0.093 7.28 18.23 9.29
9/14/2021 6:15:00 AM 16.25 61.25 0.093 7.28 17.36 9.3
9/14/2021 6:30:00 AM 16.22 61.196 0.093 7.28 16.48 9.31
9/14/2021 6:45:00 AM 16.18 61.124 0.093 7.28 17.32 9.32
9/14/2021 7:00:00 AM 16.15 61.07 0.093 7.28 15.28 9.33
9/14/2021 7:15:00 AM 16.12 61.016 0.093 7.28 15.61 9.36
9/14/2021 7:30:00 AM 16.08 60.944 0.093 7.28 14.07 9.4
9/14/2021 7:45:00 AM 16.06 60.908 0.093 7.3 13.28 9.44
9/14/2021 8:00:00 AM 16.04 60.872 0.093 7.3 13.12 9.49
9/14/2021 8:15:00 AM 16.03 60.854 0.093 7.32 12.5 9.55
9/14/2021 8:30:00 AM 16.04 60.872 0.093 7.33 12.02 9.59
9/14/2021 8:45:00 AM 16.06 60.908 0.093 7.35 11.6 9.66
9/14/2021 9:00:00 AM 16.08 60.944 0.093 7.36 10.87 9.72
9/14/2021 9:15:00 AM 16.1 60.98 0.093 7.38 10.87 9.76
9/14/2021 9:30:00 AM 16.12 61.016 0.093 7.38 10.44 9.75
9/14/2021 9:45:00 AM 16.13 61.034 0.093 7.39 10.01 9.75
9/14/2021 10:00:00 AM 16.15 61.07 0.093 7.39 9.4 9.77
9/14/2021 10:15:00 AM 16.18 61.124 0.094 7.4 9.45 9.8
9/14/2021 10:30:00 AM 16.23 61.214 0.094 7.42 8.72 9.88
9/14/2021 10:45:00 AM 16.3 61.34 0.094 7.45 8.5 9.96
9/14/2021 11:00:00 AM 16.39 61.502 0.094 7.48 8.34 10.03
9/14/2021 11:15:00 AM 16.49 61.682 0.094 7.51 8 10.07
9/14/2021 11:30:00 AM 16.61 61.898 0.094 7.54 7.81 10.09
9/14/2021 11:45:00 AM 16.66 61.988 0.094 7.55 7.85 10.06
9/14/2021 12:00:00 PM 16.75 62.15 0.094 7.56 7.49 10.06
9/14/2021 12:15:00 PM 16.83 62.294 0.094 7.57 7.44 10.03
9/14/2021 12:30:00 PM 16.91 62.438 0.094 7.58 7.14 10.01
9/14/2021 12:45:00 PM 17.07 62.726 0.094 7.6 7.29 10.04
9/14/2021 1:00:00 PM 17.17 62.906 0.094 7.6 6.78 9.98
9/14/2021 1:15:00 PM 17.23 63.014 0.094 7.59 6.71 9.92
9/14/2021 1:30:00 PM 17.33 63.194 0.094 7.6 6.31 9.94
9/14/2021 1:45:00 PM 17.36 63.248 0.094 7.61 6.79 9.94
9/14/2021 2:00:00 PM 17.39 63.302 0.094 7.61 6.31 9.92
9/14/2021 2:15:00 PM 17.53 63.554 0.093 7.64 6.42 9.97
9/14/2021 2:30:00 PM 17.67 63.806 0.094 7.66 6.27 9.95
9/14/2021 2:45:00 PM 17.8 64.04 0.094 7.68 6.2 9.94
9/14/2021 3:00:00 PM 17.95 64.31 0.093 7.69 6.29 9.95
9/14/2021 3:15:00 PM 18.03 64.454 0.093 7.7 6.62 9.91
9/14/2021 3:30:00 PM 18.13 64.634 0.093 7.69 6.08 9.88
9/14/2021 3:45:00 PM 18.21 64.778 0.093 7.71 6.1 9.87
9/14/2021 4:00:00 PM 18.25 64.85 0.093 7.69 6.47 9.81
9/14/2021 4:15:00 PM 18.25 64.85 0.093 7.67 5.94 9.73
9/14/2021 4:30:00 PM 18.26 64.868 0.093 7.65 6.19 9.69
9/14/2021 4:45:00 PM 18.28 64.904 0.093 7.64 6.04 9.65
9/14/2021 5:00:00 PM 18.28 64.904 0.093 7.62 6.39 9.6
9/14/2021 5:15:00 PM 18.25 64.85 0.093 7.59 6.4 9.54
9/14/2021 5:30:00 PM 18.24 64.832 0.093 7.56 5.99 9.48
9/14/2021 5:45:00 PM 18.23 64.814 0.093 7.54 6.09 9.46
9/14/2021 6:00:00 PM 18.22 64.796 0.093 7.52 5.99 9.42
9/14/2021 6:15:00 PM 18.17 64.706 0.094 7.5 6.09 9.36
9/14/2021 6:30:00 PM 18.14 64.652 0.094 7.47 6.04 9.32
9/14/2021 6:45:00 PM 18.09 64.562 0.094 7.45 5.81 9.24
9/14/2021 7:00:00 PM 18.02 64.436 0.094 7.42 5.7 9.16
9/14/2021 7:15:00 PM 17.94 64.292 0.094 7.39 5.95 9.09
9/14/2021 7:30:00 PM 17.88 64.184 0.094 7.37 5.9 9.03
9/14/2021 7:45:00 PM 17.82 64.076 0.094 7.35 5.95 9
9/14/2021 8:00:00 PM 17.76 63.968 0.094 7.33 6.22 8.97
9/14/2021 8:15:00 PM 17.69 63.842 0.094 7.32 6.46 8.98
9/14/2021 8:30:00 PM 17.64 63.752 0.094 7.31 6.12 8.98
9/14/2021 8:45:00 PM 17.58 63.644 0.094 7.31 6.62 8.99
9/14/2021 9:00:00 PM 17.52 63.536 0.094 7.3 6.29 9
9/14/2021 9:15:00 PM 17.46 63.428 0.094 7.3 6.35 9.01
9/14/2021 9:30:00 PM 17.4 63.32 0.094 7.29 6.36 9.02
9/14/2021 9:45:00 PM 17.34 63.212 0.094 7.29 6.01 9.03
9/14/2021 10:00:00 PM 17.29 63.122 0.094 7.29 5.97 9.03
9/14/2021 10:15:00 PM 17.23 63.014 0.094 7.29 6.53 9.04
9/14/2021 10:30:00 PM 17.18 62.924 0.094 7.29 5.91 9.05
9/14/2021 10:45:00 PM 17.12 62.816 0.094 7.28 5.95 9.06
9/14/2021 11:00:00 PM 17.06 62.708 0.094 7.28 5.98 9.07
9/14/2021 11:15:00 PM 17 62.6 0.094 7.28 5.84 9.08
9/14/2021 11:30:00 PM 16.95 62.51 0.094 7.28 6.09 9.09
9/14/2021 11:45:00 PM 16.89 62.402 0.094 7.28 6.35 9.1
9/15/2021 12:00:00 AM 16.84 62.312 0.094 7.27 5.76 9.12
9/15/2021 12:15:00 AM 16.79 62.222 0.094 7.27 5.84 9.13
9/15/2021 12:30:00 AM 16.73 62.114 0.094 7.27 5.67 9.15
9/15/2021 12:45:00 AM 16.68 62.024 0.094 7.27 5.75 9.16
9/15/2021 1:00:00 AM 16.62 61.916 0.094 7.27 5.73 9.18
9/15/2021 1:15:00 AM 16.57 61.826 0.094 7.27 5.52 9.19
9/15/2021 1:30:00 AM 16.52 61.736 0.094 7.27 5.48 9.19
9/15/2021 1:45:00 AM 16.46 61.628 0.094 7.26 5.71 9.2
9/15/2021 2:00:00 AM 16.42 61.556 0.094 7.26 6.31 9.21
9/15/2021 2:15:00 AM 16.37 61.466 0.094 7.26 5.44 9.22
9/15/2021 2:30:00 AM 16.32 61.376 0.094 7.26 5.19 9.22
9/15/2021 2:45:00 AM 16.29 61.322 0.094 7.26 5.46 9.23
9/15/2021 3:00:00 AM 16.25 61.25 0.094 7.26 5.44 9.25
9/15/2021 3:15:00 AM 16.22 61.196 0.094 7.25 5.61 9.25
9/15/2021 3:30:00 AM 16.18 61.124 0.094 7.25 5.6 9.27
9/15/2021 3:45:00 AM 16.14 61.052 0.094 7.25 5.24 9.28
9/15/2021 4:00:00 AM 16.1 60.98 0.094 7.25 5.39 9.29
9/15/2021 4:15:00 AM 16.07 60.926 0.094 7.25 5.18 9.29
9/15/2021 4:30:00 AM 16.04 60.872 0.094 7.25 5.12 9.31
9/15/2021 4:45:00 AM 16.01 60.818 0.094 7.25 5.63 9.31
9/15/2021 5:00:00 AM 15.98 60.764 0.094 7.25 5.36 9.32
9/15/2021 5:15:00 AM 15.95 60.71 0.094 7.25 5.41 9.33
9/15/2021 5:30:00 AM 15.91 60.638 0.094 7.26 5.54 9.34
9/15/2021 5:45:00 AM 15.87 60.566 0.094 7.26 5.19 9.35
9/15/2021 6:00:00 AM 15.83 60.494 0.094 7.26 5.21 9.36
9/15/2021 6:15:00 AM 15.8 60.44 0.094 7.26 5.06 9.36
9/15/2021 6:30:00 AM 15.78 60.404 0.094 7.26 5.03 9.37
9/15/2021 6:45:00 AM 15.75 60.35 0.094 7.26 5.22 9.38
9/15/2021 7:00:00 AM 15.74 60.332 0.094 7.26 5.09 9.39
9/15/2021 7:15:00 AM 15.72 60.296 0.094 7.27 4.92 9.43
9/15/2021 7:30:00 AM 15.71 60.278 0.094 7.27 4.81 9.47
9/15/2021 7:45:00 AM 15.71 60.278 0.094 7.29 4.71 9.55
9/15/2021 8:00:00 AM 15.74 60.332 0.093 7.31 4.77 9.66
9/15/2021 8:15:00 AM 15.77 60.386 0.093 7.33 4.65 9.74
9/15/2021 8:30:00 AM 15.82 60.476 0.093 7.36 4.53 9.82
9/15/2021 8:45:00 AM 15.87 60.566 0.093 7.39 4.48 9.91
9/15/2021 9:00:00 AM 15.91 60.638 0.093 7.41 4.29 9.94
9/15/2021 9:15:00 AM 15.95 60.71 0.093 7.41 4.29 9.92
9/15/2021 9:30:00 AM 16.02 60.836 0.093 7.43 4.2 9.95
9/15/2021 9:45:00 AM 16.08 60.944 0.093 7.44 4.08 9.99
9/15/2021 10:00:00 AM 16.16 61.088 0.093 7.46 4.1 10.01
9/15/2021 10:15:00 AM 16.25 61.25 0.093 7.49 4.04 10.06
9/15/2021 10:30:00 AM 16.35 61.43 0.093 7.52 3.95 10.05
9/15/2021 10:45:00 AM 16.48 61.664 0.092 7.55 3.8 10.07
9/15/2021 11:00:00 AM 16.6 61.88 0.092 7.56 3.9 10.04
9/15/2021 11:15:00 AM 16.8 62.24 0.092 7.6 3.71 10.12
9/15/2021 11:30:00 AM 16.79 62.222 0.092 7.61 3.7 10.08
9/15/2021 11:45:00 AM 16.84 62.312 0.092 7.6 3.66 10.02
9/15/2021 12:00:00 PM 16.95 62.51 0.092 7.61 3.6 9.99
9/15/2021 12:15:00 PM 17.1 62.78 0.092 7.63 3.65 10.03
9/15/2021 12:30:00 PM 17.13 62.834 0.092 7.65 3.58 10.02
9/15/2021 12:45:00 PM 17.19 62.942 0.092 7.66 3.67 10.05
9/15/2021 1:00:00 PM 17.29 63.122 0.092 7.71 3.61 10.11
9/15/2021 1:15:00 PM 17.36 63.248 0.092 7.71 3.68 10.04
9/15/2021 1:30:00 PM 17.39 63.302 0.092 7.68 3.7 9.94
9/15/2021 1:45:00 PM 17.47 63.446 0.091 7.7 3.57 9.98
9/15/2021 2:00:00 PM 17.6 63.68 0.091 7.73 3.58 10.02
9/15/2021 2:15:00 PM 17.75 63.95 0.091 7.76 3.62 10.04
9/15/2021 2:30:00 PM 17.78 64.004 0.091 7.76 3.54 9.98
9/15/2021 2:45:00 PM 17.83 64.094 0.091 7.74 3.61 9.9
9/15/2021 3:00:00 PM 17.89 64.202 0.091 7.7 3.68 9.81
9/15/2021 3:15:00 PM 17.9 64.22 0.091 7.65 3.66 9.65
9/15/2021 3:30:00 PM 17.87 64.166 0.092 7.58 3.55 9.47
9/15/2021 3:45:00 PM 17.81 64.058 0.092 7.52 3.68 9.34
9/15/2021 4:00:00 PM 17.82 64.076 0.091 7.53 3.72 9.51
9/15/2021 4:15:00 PM 17.85 64.13 0.091 7.56 3.54 9.61
9/15/2021 4:30:00 PM 17.85 64.13 0.091 7.55 3.61 9.54
9/15/2021 4:45:00 PM 17.85 64.13 0.091 7.53 3.74 9.48
9/15/2021 5:00:00 PM 17.86 64.148 0.091 7.52 3.92 9.41
9/15/2021 5:15:00 PM 17.84 64.112 0.092 7.48 3.94 9.31
9/15/2021 5:30:00 PM 17.8 64.04 0.092 7.46 3.97 9.26
9/15/2021 5:45:00 PM 17.76 63.968 0.092 7.44 3.88 9.2
9/15/2021 6:00:00 PM 17.71 63.878 0.092 7.42 4.15 9.17
9/15/2021 6:15:00 PM 17.66 63.788 0.091 7.42 4.12 9.19
9/15/2021 6:30:00 PM 17.62 63.716 0.092 7.4 4.24 9.16
9/15/2021 6:45:00 PM 17.58 63.644 0.092 7.39 4.11 9.13
9/15/2021 7:00:00 PM 17.54 63.572 0.092 7.38 4.02 9.1
9/15/2021 7:15:00 PM 17.5 63.5 0.092 7.36 4.08 9.08
9/15/2021 7:30:00 PM 17.46 63.428 0.092 7.35 4.27 9.06
9/15/2021 7:45:00 PM 17.41 63.338 0.091 7.33 4.45 9.06
9/15/2021 8:00:00 PM 17.37 63.266 0.091 7.33 4.59 9.05
9/15/2021 8:15:00 PM 17.33 63.194 0.092 7.32 4.57 9.06
9/15/2021 8:30:00 PM 17.28 63.104 0.092 7.31 4.49 9.06
9/15/2021 8:45:00 PM 17.24 63.032 0.092 7.31 4.36 9.07
9/15/2021 9:00:00 PM 17.2 62.96 0.092 7.31 4.41 9.08
9/15/2021 9:15:00 PM 17.16 62.888 0.092 7.3 4.49 9.08
9/15/2021 9:30:00 PM 17.12 62.816 0.092 7.3 4.42 9.09
9/15/2021 9:45:00 PM 17.07 62.726 0.092 7.3 4.55 9.1
9/15/2021 10:00:00 PM 17.02 62.636 0.092 7.3 4.53 9.11
9/15/2021 10:15:00 PM 16.98 62.564 0.092 7.3 4.49 9.12
9/15/2021 10:30:00 PM 16.93 62.474 0.092 7.29 4.64 9.14
9/15/2021 10:45:00 PM 16.88 62.384 0.092 7.29 4.76 9.15
9/15/2021 11:00:00 PM 16.84 62.312 0.092 7.29 4.56 9.16
9/15/2021 11:15:00 PM 16.79 62.222 0.092 7.29 4.64 9.18
9/15/2021 11:30:00 PM 16.75 62.15 0.092 7.29 4.44 9.2
9/15/2021 11:45:00 PM 16.71 62.078 0.092 7.29 4.32 9.2
9/16/2021 12:00:00 AM 16.67 62.006 0.092 7.3 4.78 9.22
9/16/2021 12:15:00 AM 16.61 61.898 0.092 7.31 4.91 9.23
9/16/2021 12:30:00 AM 16.56 61.808 0.092 7.3 4.45 9.25
9/16/2021 12:45:00 AM 16.51 61.718 0.092 7.31 4.64 9.26
9/16/2021 1:00:00 AM 16.46 61.628 0.092 7.31 4.66 9.27
9/16/2021 1:15:00 AM 16.41 61.538 0.092 7.31 4.55 9.28
9/16/2021 1:30:00 AM 16.36 61.448 0.092 7.31 4.59 9.29
9/16/2021 1:45:00 AM 16.3 61.34 0.093 7.31 4.4 9.29
9/16/2021 2:00:00 AM 16.25 61.25 0.093 7.31 4.49 9.31
9/16/2021 2:15:00 AM 16.19 61.142 0.093 7.31 4.55 9.33
9/16/2021 2:30:00 AM 16.13 61.034 0.093 7.31 4.65 9.35
9/16/2021 2:45:00 AM 16.08 60.944 0.093 7.31 5.08 9.36
9/16/2021 3:00:00 AM 16.02 60.836 0.093 7.31 4.46 9.38
9/16/2021 3:15:00 AM 15.97 60.746 0.093 7.31 4.69 9.39
9/16/2021 3:30:00 AM 15.91 60.638 0.093 7.31 4.72 9.41
9/16/2021 3:45:00 AM 15.85 60.53 0.093 7.31 4.52 9.43
9/16/2021 4:00:00 AM 15.79 60.422 0.093 7.31 4.26 9.44
9/16/2021 4:15:00 AM 15.74 60.332 0.094 7.31 4.48 9.45
9/16/2021 4:30:00 AM 15.7 60.26 0.094 7.31 4.45 9.46
9/16/2021 4:45:00 AM 15.67 60.206 0.094 7.31 4.69 9.47
9/16/2021 5:00:00 AM 15.64 60.152 0.094 7.31 4.33 9.48
9/16/2021 5:15:00 AM 15.61 60.098 0.094 7.31 4.63 9.49
9/16/2021 5:30:00 AM 15.57 60.026 0.095 7.32 4.27 9.49
9/16/2021 5:45:00 AM 15.54 59.972 0.095 7.32 4.66 9.5
9/16/2021 6:00:00 AM 15.51 59.918 0.095 7.32 4.23 9.51
9/16/2021 6:15:00 AM 15.48 59.864 0.095 7.32 4.23 9.53
9/16/2021 6:30:00 AM 15.44 59.792 0.096 7.32 4.24 9.54
9/16/2021 6:45:00 AM 15.41 59.738 0.096 7.33 4.52 9.55
9/16/2021 7:00:00 AM 15.37 59.666 0.096 7.33 4.36 9.57
9/16/2021 7:15:00 AM 15.34 59.612 0.097 7.33 4.37 9.61
9/16/2021 7:30:00 AM 15.31 59.558 0.097 7.34 4.28 9.66
9/16/2021 7:45:00 AM 15.28 59.504 0.097 7.36 4.28 9.73
9/16/2021 8:00:00 AM 15.27 59.486 0.097 7.37 4.04 9.77
9/16/2021 8:15:00 AM 15.27 59.486 0.097 7.38 3.83 9.84
9/16/2021 8:30:00 AM 15.29 59.522 0.098 7.4 3.86 9.93
9/16/2021 8:45:00 AM 15.3 59.54 0.098 7.43 3.82 10
9/16/2021 9:00:00 AM 15.32 59.576 0.098 7.45 3.7 10.07
9/16/2021 9:15:00 AM 15.35 59.63 0.098 7.49 3.8 10.17
9/16/2021 9:30:00 AM 15.39 59.702 0.098 7.52 3.82 10.26
9/16/2021 9:45:00 AM 15.47 59.846 0.098 7.56 3.73 10.34
9/16/2021 10:00:00 AM 15.56 60.008 0.098 7.6 3.44 10.4
9/16/2021 10:15:00 AM 15.6 60.08 0.098 7.63 3.76 10.45
9/16/2021 10:30:00 AM 15.69 60.242 0.098 7.67 3.31 10.51
9/16/2021 10:45:00 AM 15.83 60.494 0.098 7.71 3.25 10.54
9/16/2021 11:00:00 AM 15.97 60.746 0.098 7.75 3.58 10.56
9/16/2021 11:15:00 AM 16.05 60.89 0.097 7.77 3.25 10.56
9/16/2021 11:30:00 AM 16.16 61.088 0.097 7.81 3.28 10.58
9/16/2021 11:45:00 AM 16.27 61.286 0.098 7.84 3.29 10.59
9/16/2021 12:00:00 PM 16.37 61.466 0.097 7.86 3.22 10.56
9/16/2021 12:15:00 PM 16.49 61.682 0.097 7.89 3.26 10.58
9/16/2021 12:30:00 PM 16.62 61.916 0.097 7.91 3.3 10.58
9/16/2021 12:45:00 PM 16.75 62.15 0.097 7.93 3.18 10.55
9/16/2021 1:00:00 PM 16.83 62.294 0.097 7.94 3.2 10.53
9/16/2021 1:15:00 PM 16.93 62.474 0.097 7.95 3.13 10.5
9/16/2021 1:30:00 PM 17.02 62.636 0.097 7.96 3.23 10.46
9/16/2021 1:45:00 PM 17.09 62.762 0.097 7.96 3.16 10.44
9/16/2021 2:00:00 PM 17.16 62.888 0.097 7.97 3.27 10.43
9/16/2021 2:15:00 PM 17.23 63.014 0.097 7.97 3.32 10.42
9/16/2021 2:30:00 PM 17.29 63.122 0.097 7.95 3.21 10.36
9/16/2021 2:45:00 PM 17.38 63.284 0.097 7.97 3.16 10.37
9/16/2021 3:00:00 PM 17.45 63.41 0.097 7.97 3.15 10.35
9/16/2021 3:15:00 PM 17.53 63.554 0.097 7.97 3.14 10.32
9/16/2021 3:30:00 PM 17.56 63.608 0.097 7.95 3.2 10.28
9/16/2021 3:45:00 PM 17.63 63.734 0.097 7.94 3.18 10.24
9/16/2021 4:00:00 PM 17.64 63.752 0.097 7.89 3.21 10.15
9/16/2021 4:15:00 PM 17.63 63.734 0.097 7.84 3.38 10.07
9/16/2021 4:30:00 PM 17.63 63.734 0.097 7.8 3.32 10.01
9/16/2021 4:45:00 PM 17.63 63.734 0.097 7.77 3.23 9.96
9/16/2021 5:00:00 PM 17.62 63.716 0.097 7.72 3.24 9.88
9/16/2021 5:15:00 PM 17.61 63.698 0.097 7.68 3.21 9.8
9/16/2021 5:30:00 PM 17.6 63.68 0.097 7.63 3.33 9.71
9/16/2021 5:45:00 PM 17.59 63.662 0.098 7.6 3.28 9.64
9/16/2021 6:00:00 PM 17.57 63.626 0.098 7.56 3.13 9.57
9/16/2021 6:15:00 PM 17.55 63.59 0.098 7.52 3.25 9.5
9/16/2021 6:30:00 PM 17.51 63.518 0.098 7.49 3.44 9.41
9/16/2021 6:45:00 PM 17.48 63.464 0.098 7.45 3.25 9.32
9/16/2021 7:00:00 PM 17.43 63.374 0.098 7.42 3.2 9.25
9/16/2021 7:15:00 PM 17.39 63.302 0.098 7.39 3.3 9.19
9/16/2021 7:30:00 PM 17.36 63.248 0.099 7.37 3.44 9.16
9/16/2021 7:45:00 PM 17.32 63.176 0.099 7.35 3.56 9.14
9/16/2021 8:00:00 PM 17.27 63.086 0.099 7.34 3.75 9.13
9/16/2021 8:15:00 PM 17.24 63.032 0.099 7.32 3.82 9.12
9/16/2021 8:30:00 PM 17.21 62.978 0.099 7.32 3.49 9.12
9/16/2021 8:45:00 PM 17.18 62.924 0.099 7.31 3.6 9.12
9/16/2021 9:00:00 PM 17.15 62.87 0.099 7.31 3.56 9.12
9/16/2021 9:15:00 PM 17.12 62.816 0.099 7.3 3.56 9.12
9/16/2021 9:30:00 PM 17.09 62.762 0.099 7.3 3.59 9.12
9/16/2021 9:45:00 PM 17.06 62.708 0.099 7.3 3.79 9.13
9/16/2021 10:00:00 PM 17.04 62.672 0.099 7.3 3.62 9.13
9/16/2021 10:15:00 PM 17.01 62.618 0.099 7.29 3.61 9.14
9/16/2021 10:30:00 PM 16.98 62.564 0.099 7.29 3.57 9.14
9/16/2021 10:45:00 PM 16.95 62.51 0.099 7.28 3.33 9.15
9/16/2021 11:00:00 PM 16.92 62.456 0.099 7.29 3.32 9.16
9/16/2021 11:15:00 PM 16.89 62.402 0.099 7.29 3.37 9.17
9/16/2021 11:30:00 PM 16.87 62.366 0.099 7.29 3.35 9.18
9/16/2021 11:45:00 PM 16.83 62.294 0.099 7.29 3.64 9.18
9/17/2021 12:00:00 AM 16.79 62.222 0.099 7.29 3.42 9.19
9/17/2021 12:15:00 AM 16.76 62.168 0.099 7.29 3.21 9.2
9/17/2021 12:30:00 AM 16.72 62.096 0.099 7.29 3.31 9.2
9/17/2021 12:45:00 AM 16.69 62.042 0.099 7.29 3.17 9.22
9/17/2021 1:00:00 AM 16.66 61.988 0.099 7.3 3.3 9.23
9/17/2021 1:15:00 AM 16.63 61.934 0.099 7.3 3.26 9.24
9/17/2021 1:30:00 AM 16.6 61.88 0.099 7.3 3.24 9.24
9/17/2021 1:45:00 AM 16.57 61.826 0.099 7.29 3.24 9.24
9/17/2021 2:00:00 AM 16.55 61.79 0.099 7.29 3.2 9.25
9/17/2021 2:15:00 AM 16.52 61.736 0.099 7.29 3.3 9.26
9/17/2021 2:30:00 AM 16.49 61.682 0.099 7.29 3.21 9.26
9/17/2021 2:45:00 AM 16.45 61.61 0.099 7.29 3.54 9.27
9/17/2021 3:00:00 AM 16.43 61.574 0.099 7.28 3.73 9.27
9/17/2021 3:15:00 AM 16.41 61.538 0.1 7.28 3.9 9.27
9/17/2021 3:30:00 AM 16.39 61.502 0.099 7.28 3.38 9.28
9/17/2021 3:45:00 AM 16.36 61.448 0.099 7.29 3.15 9.28
9/17/2021 4:00:00 AM 16.35 61.43 0.099 7.28 3.26 9.28
9/17/2021 4:15:00 AM 16.33 61.394 0.099 7.28 3.46 9.28
9/17/2021 4:30:00 AM 16.31 61.358 0.099 7.28 3.3 9.29
9/17/2021 4:45:00 AM 16.29 61.322 0.099 7.28 3.22 9.3
9/17/2021 5:00:00 AM 16.27 61.286 0.099 7.28 3.11 9.3
9/17/2021 5:15:00 AM 16.25 61.25 0.099 7.28 3.26 9.31
9/17/2021 5:30:00 AM 16.23 61.214 0.099 7.28 3.22 9.32
9/17/2021 5:45:00 AM 16.22 61.196 0.099 7.28 3.26 9.32
9/17/2021 6:00:00 AM 16.21 61.178 0.099 7.28 3.12 9.33
9/17/2021 6:15:00 AM 16.2 61.16 0.099 7.28 3.41 9.34
9/17/2021 6:30:00 AM 16.18 61.124 0.099 7.27 3.32 9.34
9/17/2021 6:45:00 AM 16.17 61.106 0.099 7.28 3.21 9.35
9/17/2021 7:00:00 AM 16.16 61.088 0.099 7.28 3.17 9.35
9/17/2021 7:15:00 AM 16.15 61.07 0.099 7.28 3.33 9.37
9/17/2021 7:30:00 AM 16.14 61.052 0.099 7.28 3.26 9.39
9/17/2021 7:45:00 AM 16.14 61.052 0.099 7.29 3.21 9.41
9/17/2021 8:00:00 AM 16.14 61.052 0.099 7.29 2.99 9.44
9/17/2021 8:15:00 AM 16.14 61.052 0.099 7.3 3.22 9.47
9/17/2021 8:30:00 AM 16.13 61.034 0.099 7.3 2.88 9.51
9/17/2021 8:45:00 AM 16.13 61.034 0.099 7.31 3.04 9.54
9/17/2021 9:00:00 AM 16.15 61.07 0.099 7.32 2.89 9.6
9/17/2021 9:15:00 AM 16.18 61.124 0.099 7.35 2.98 9.72
9/17/2021 9:30:00 AM 16.2 61.16 0.099 7.37 2.82 9.76
9/17/2021 9:45:00 AM 16.22 61.196 0.099 7.39 2.75 9.74
9/17/2021 10:00:00 AM 16.24 61.232 0.099 7.4 2.77 9.79
9/17/2021 10:15:00 AM 16.29 61.322 0.099 7.43 2.86 9.88
9/17/2021 10:30:00 AM 16.33 61.394 0.099 7.45 2.78 9.94
9/17/2021 10:45:00 AM 16.4 61.52 0.098 7.5 2.86 10.08
9/17/2021 11:00:00 AM 16.48 61.664 0.098 7.56 2.63 10.22
9/17/2021 11:15:00 AM 16.57 61.826 0.098 7.61 2.73 10.28
9/17/2021 11:30:00 AM 16.67 62.006 0.098 7.65 2.66 10.31
9/17/2021 11:45:00 AM 16.71 62.078 0.098 7.65 2.73 10.22
9/17/2021 12:00:00 PM 16.75 62.15 0.098 7.61 2.74 10.1
9/17/2021 12:15:00 PM 16.87 62.366 0.098 7.67 2.68 10.24
9/17/2021 12:30:00 PM 16.94 62.492 0.098 7.71 2.67 10.3
9/17/2021 12:45:00 PM 16.96 62.528 0.098 7.71 2.63 10.22
9/17/2021 1:00:00 PM 16.99 62.582 0.098 7.7 2.67 10.2
9/17/2021 1:15:00 PM 17.06 62.708 0.098 7.74 2.69 10.26
9/17/2021 1:30:00 PM 17.09 62.762 0.098 7.73 2.72 10.16
9/17/2021 1:45:00 PM 17.17 62.906 0.098 7.75 2.7 10.23
9/17/2021 2:00:00 PM 17.24 63.032 0.097 7.81 2.69 10.34
9/17/2021 2:15:00 PM 17.4 63.32 0.097 7.88 2.61 10.43
9/17/2021 2:30:00 PM 17.51 63.518 0.097 7.92 2.77 10.41
9/17/2021 2:45:00 PM 17.62 63.716 0.097 7.95 2.7 10.39
9/17/2021 3:00:00 PM 17.72 63.896 0.097 7.96 2.77 10.35
9/17/2021 3:15:00 PM 17.79 64.022 0.097 7.96 2.76 10.31
9/17/2021 3:30:00 PM 17.86 64.148 0.097 7.97 2.69 10.3
9/17/2021 3:45:00 PM 17.97 64.346 0.097 7.98 2.7 10.28
9/17/2021 4:00:00 PM 18.01 64.418 0.097 7.95 2.77 10.18
9/17/2021 4:15:00 PM 18.17 64.706 0.097 7.93 2.81 10.15
9/17/2021 4:30:00 PM 18.32 64.976 0.097 7.96 2.86 10.17
9/17/2021 4:45:00 PM 18.37 65.066 0.097 7.93 2.93 10.06
9/17/2021 5:00:00 PM 18.37 65.066 0.097 7.84 2.89 9.87
9/17/2021 5:15:00 PM 18.32 64.976 0.097 7.76 2.81 9.73
9/17/2021 5:30:00 PM 18.3 64.94 0.097 7.69 2.65 9.63
9/17/2021 5:45:00 PM 18.27 64.886 0.098 7.63 2.76 9.51
9/17/2021 6:00:00 PM 18.21 64.778 0.098 7.57 2.82 9.39
9/17/2021 6:15:00 PM 18.17 64.706 0.098 7.54 2.77 9.3
9/17/2021 6:30:00 PM 18.13 64.634 0.098 7.52 2.94 9.29
9/17/2021 6:45:00 PM 18.07 64.526 0.098 7.5 3.03 9.25
9/17/2021 7:00:00 PM 18.01 64.418 0.098 7.47 3.07 9.19
9/17/2021 7:15:00 PM 17.93 64.274 0.099 7.44 3.08 9.13
9/17/2021 7:30:00 PM 17.87 64.166 0.099 7.41 2.99 9.06
9/17/2021 7:45:00 PM 17.8 64.04 0.099 7.39 3.04 9.02
9/17/2021 8:00:00 PM 17.74 63.932 0.099 7.36 3.18 9
9/17/2021 8:15:00 PM 17.67 63.806 0.099 7.35 3.05 9
9/17/2021 8:30:00 PM 17.6 63.68 0.099 7.34 3.49 9.01
9/17/2021 8:45:00 PM 17.54 63.572 0.099 7.34 3.3 9.01
9/17/2021 9:00:00 PM 17.48 63.464 0.099 7.33 3.22 9.03
9/17/2021 9:15:00 PM 17.43 63.374 0.099 7.32 3.15 9.04
9/17/2021 9:30:00 PM 17.38 63.284 0.099 7.32 3.02 9.05
9/17/2021 9:45:00 PM 17.33 63.194 0.099 7.31 3.14 9.05
9/17/2021 10:00:00 PM 17.28 63.104 0.099 7.31 3.12 9.06
9/17/2021 10:15:00 PM 17.24 63.032 0.099 7.31 2.99 9.06
9/17/2021 10:30:00 PM 17.21 62.978 0.1 7.31 3.09 9.07
9/17/2021 10:45:00 PM 17.18 62.924 0.1 7.31 3.1 9.08
9/17/2021 11:00:00 PM 17.14 62.852 0.1 7.31 3.04 9.08
9/17/2021 11:15:00 PM 17.11 62.798 0.1 7.32 3.17 9.08
9/17/2021 11:30:00 PM 17.08 62.744 0.1 7.32 3.13 9.09
9/17/2021 11:45:00 PM 17.04 62.672 0.1 7.32 3.13 9.09
9/18/2021 12:00:00 AM 16.99 62.582 0.1 7.32 3.01 9.11
9/18/2021 12:15:00 AM 16.94 62.492 0.1 7.32 3.1 9.12
9/18/2021 12:30:00 AM 16.91 62.438 0.1 7.32 3.12 9.13
9/18/2021 12:45:00 AM 16.87 62.366 0.1 7.32 3.28 9.14
9/18/2021 1:00:00 AM 16.85 62.33 0.1 7.32 3.08 9.15
9/18/2021 1:15:00 AM 16.82 62.276 0.1 7.32 2.93 9.15
9/18/2021 1:30:00 AM 16.79 62.222 0.1 7.32 8.06 9.16
9/18/2021 1:45:00 AM 16.75 62.15 0.1 7.32 3.08 9.17
9/18/2021 2:00:00 AM 16.73 62.114 0.1 7.32 2.91 9.18
9/18/2021 2:15:00 AM 16.7 62.06 0.1 7.32 3 9.19
9/18/2021 2:30:00 AM 16.67 62.006 0.101 7.32 3.12 9.19
9/18/2021 2:45:00 AM 16.64 61.952 0.101 7.32 2.99 9.2
9/18/2021 3:00:00 AM 16.62 61.916 0.101 7.32 3.06 9.2
9/18/2021 3:15:00 AM 16.59 61.862 0.101 7.32 2.94 9.21
9/18/2021 3:30:00 AM 16.57 61.826 0.101 7.32 3.17 9.22
9/18/2021 3:45:00 AM 16.54 61.772 0.101 7.32 3.3 9.22
9/18/2021 4:00:00 AM 16.52 61.736 0.101 7.32 3.4 9.23
9/18/2021 4:15:00 AM 16.5 61.7 0.101 7.32 3.3 9.23
9/18/2021 4:30:00 AM 16.48 61.664 0.101 7.32 3.19 9.24
9/18/2021 4:45:00 AM 16.45 61.61 0.101 7.31 3.07 9.24
9/18/2021 5:00:00 AM 16.43 61.574 0.101 7.31 2.98 9.24
9/18/2021 5:15:00 AM 16.42 61.556 0.101 7.31 3.21 9.26
9/18/2021 5:30:00 AM 16.4 61.52 0.101 7.31 2.96 9.25
9/18/2021 5:45:00 AM 16.38 61.484 0.101 7.31 2.97 9.25
9/18/2021 6:00:00 AM 16.36 61.448 0.101 7.31 2.96 9.25
9/18/2021 6:15:00 AM 16.34 61.412 0.101 7.3 3.06 9.26
9/18/2021 6:30:00 AM 16.33 61.394 0.101 7.3 3.16 9.26
9/18/2021 6:45:00 AM 16.31 61.358 0.101 7.3 3.06 9.26
9/18/2021 7:00:00 AM 16.3 61.34 0.101 7.3 3.03 9.27
9/18/2021 7:15:00 AM 16.29 61.322 0.101 7.31 3.1 9.31
9/18/2021 7:30:00 AM 16.28 61.304 0.101 7.32 3.03 9.38
9/18/2021 7:45:00 AM 16.28 61.304 0.101 7.33 3.18 9.45
9/18/2021 8:00:00 AM 16.28 61.304 0.101 7.34 3.15 9.49
9/18/2021 8:15:00 AM 16.28 61.304 0.101 7.35 3.02 9.52
9/18/2021 8:30:00 AM 16.28 61.304 0.101 7.35 3.26 9.52
9/18/2021 8:45:00 AM 16.28 61.304 0.101 7.36 3.4 9.57
9/18/2021 9:00:00 AM 16.31 61.358 0.101 7.38 3.22 9.69
9/18/2021 9:15:00 AM 16.34 61.412 0.1 7.41 2.89 9.81
9/18/2021 9:30:00 AM 16.39 61.502 0.1 7.45 2.9 9.96
9/18/2021 9:45:00 AM 16.45 61.61 0.1 7.48 2.78 10.02
9/18/2021 10:00:00 AM 16.47 61.646 0.1 7.5 2.66 10.02
9/18/2021 10:15:00 AM 16.56 61.808 0.1 7.53 2.71 10.08
9/18/2021 10:30:00 AM 16.6 61.88 0.1 7.55 2.76 10.1
9/18/2021 10:45:00 AM 16.78 62.204 0.1 7.59 2.58 10.13
9/18/2021 11:00:00 AM 16.95 62.51 0.1 7.62 2.57 10.14
9/18/2021 11:15:00 AM 17.14 62.852 0.1 7.65 2.65 10.1
9/18/2021 11:30:00 AM 17.3 63.14 0.1 7.67 2.55 10.09
9/18/2021 11:45:00 AM 17.45 63.41 0.1 7.69 2.58 10.12
9/18/2021 12:00:00 PM 17.66 63.788 0.099 7.73 2.61 10.1
9/18/2021 12:15:00 PM 17.8 64.04 0.099 7.74 2.85 10.05
9/18/2021 12:30:00 PM 18.01 64.418 0.099 7.79 2.47 10.11
9/18/2021 12:45:00 PM 18.24 64.832 0.099 7.83 2.49 10.13
9/18/2021 1:00:00 PM 18.44 65.192 0.099 7.88 2.65 10.13
9/18/2021 1:15:00 PM 18.56 65.408 0.099 7.92 2.62 10.15
9/18/2021 1:30:00 PM 18.77 65.786 0.099 7.97 2.6 10.16
9/18/2021 1:45:00 PM 18.89 66.002 0.099 7.97 2.5 10.11
9/18/2021 2:00:00 PM 19.03 66.254 0.099 8 2.6 10.08
9/18/2021 2:15:00 PM 19.15 66.47 0.099 8 2.56 10.02
9/18/2021 2:30:00 PM 19.28 66.704 0.099 8.01 2.71 10.01
9/18/2021 2:45:00 PM 19.43 66.974 0.099 8.06 2.63 10.04
9/18/2021 3:00:00 PM 19.65 67.37 0.099 8.11 2.56 10.03
9/18/2021 3:15:00 PM 19.83 67.694 0.099 8.12 2.59 9.96
9/18/2021 3:30:00 PM 19.96 67.92799 0.099 8.15 2.65 9.97
9/18/2021 3:45:00 PM 19.98 67.964 0.099 8.16 2.71 9.93
9/18/2021 4:00:00 PM 19.93 67.874 0.099 8.11 2.81 9.84
9/18/2021 4:15:00 PM 19.84 67.712 0.1 8.03 2.67 9.7
9/18/2021 4:30:00 PM 19.7 67.46 0.1 7.89 2.65 9.52
9/18/2021 4:45:00 PM 19.59 67.262 0.1 7.85 2.73 9.55
9/18/2021 5:00:00 PM 19.5 67.1 0.099 7.87 2.86 9.66
9/18/2021 5:15:00 PM 19.44 66.992 0.099 7.86 2.7 9.64
9/18/2021 5:30:00 PM 19.37 66.866 0.1 7.81 2.86 9.54
9/18/2021 5:45:00 PM 19.29 66.722 0.1 7.75 2.67 9.42
9/18/2021 6:00:00 PM 19.22 66.596 0.1 7.69 2.84 9.31
9/18/2021 6:15:00 PM 19.17 66.506 0.1 7.65 2.77 9.25
9/18/2021 6:30:00 PM 19.11 66.398 0.1 7.6 2.67 9.13
9/18/2021 6:45:00 PM 19.03 66.254 0.101 7.54 2.73 8.99
9/18/2021 7:00:00 PM 18.95 66.11 0.101 7.49 2.8 8.89
9/18/2021 7:15:00 PM 18.87 65.966 0.101 7.45 2.76 8.84
9/18/2021 7:30:00 PM 18.8 65.84 0.101 7.42 2.76 8.79
9/18/2021 7:45:00 PM 18.73 65.714 0.101 7.39 2.92 8.77
9/18/2021 8:00:00 PM 18.67 65.606 0.101 7.37 3.08 8.75
9/18/2021 8:15:00 PM 18.61 65.498 0.101 7.36 3.44 8.74
9/18/2021 8:30:00 PM 18.55 65.39 0.101 7.35 3.21 8.74
9/18/2021 8:45:00 PM 18.49 65.282 0.101 7.34 2.97 8.74
9/18/2021 9:00:00 PM 18.42 65.156 0.101 7.34 3.04 8.75
9/18/2021 9:15:00 PM 18.35 65.03 0.101 7.33 2.78 8.76
9/18/2021 9:30:00 PM 18.29 64.922 0.101 7.33 2.95 8.8
9/18/2021 9:45:00 PM 18.23 64.814 0.101 7.33 3.04 8.81
9/18/2021 10:00:00 PM 18.19 64.742 0.101 7.33 2.9 8.82
9/18/2021 10:15:00 PM 18.15 64.67 0.101 7.33 3.09 8.82
9/18/2021 10:30:00 PM 18.1 64.58 0.101 7.33 3.06 8.84
9/18/2021 10:45:00 PM 18.03 64.454 0.101 7.33 3.07 8.85
9/18/2021 11:00:00 PM 17.96 64.328 0.101 7.33 2.89 8.87
9/18/2021 11:15:00 PM 17.87 64.166 0.102 7.33 2.93 8.87
9/18/2021 11:30:00 PM 17.79 64.022 0.102 7.33 2.92 8.88
9/18/2021 11:45:00 PM 17.72 63.896 0.102 7.33 3.51 8.9
9/19/2021 12:00:00 AM 17.66 63.788 0.102 7.33 2.98 8.92
9/19/2021 12:15:00 AM 17.59 63.662 0.102 7.33 2.88 8.94
9/19/2021 12:30:00 AM 17.51 63.518 0.102 7.33 2.95 8.96
9/19/2021 12:45:00 AM 17.42 63.356 0.102 7.33 2.85 8.98
9/19/2021 1:00:00 AM 17.35 63.23 0.102 7.33 3.05 9
9/19/2021 1:15:00 AM 17.29 63.122 0.102 7.33 2.92 9.01
9/19/2021 1:30:00 AM 17.22 62.996 0.102 7.33 2.78 9.03
9/19/2021 1:45:00 AM 17.14 62.852 0.102 7.33 2.91 9.04
9/19/2021 2:00:00 AM 17.07 62.726 0.103 7.33 2.94 9.05
9/19/2021 2:15:00 AM 16.99 62.582 0.103 7.34 2.88 9.07
9/19/2021 2:30:00 AM 16.91 62.438 0.103 7.34 2.93 9.09
9/19/2021 2:45:00 AM 16.83 62.294 0.103 7.34 3.03 9.12
9/19/2021 3:00:00 AM 16.75 62.15 0.103 7.34 2.85 9.14
9/19/2021 3:15:00 AM 16.7 62.06 0.103 7.34 2.93 9.15
9/19/2021 3:30:00 AM 16.66 61.988 0.103 7.34 2.88 9.17
9/19/2021 3:45:00 AM 16.62 61.916 0.103 7.34 2.99 9.18
9/19/2021 4:00:00 AM 16.57 61.826 0.103 7.35 2.98 9.2
9/19/2021 4:15:00 AM 16.51 61.718 0.103 7.35 2.99 9.21
9/19/2021 4:30:00 AM 16.45 61.61 0.103 7.35 3.08 9.22
9/19/2021 4:45:00 AM 16.39 61.502 0.103 7.35 2.96 9.23
9/19/2021 5:00:00 AM 16.33 61.394 0.103 7.35 2.83 9.24
9/19/2021 5:15:00 AM 16.25 61.25 0.103 7.35 2.92 9.26
9/19/2021 5:30:00 AM 16.2 61.16 0.103 7.35 2.83 9.28
9/19/2021 5:45:00 AM 16.15 61.07 0.103 7.36 2.77 9.3
9/19/2021 6:00:00 AM 16.11 60.998 0.103 7.36 2.77 9.31
9/19/2021 6:15:00 AM 16.06 60.908 0.103 7.36 2.75 9.33
9/19/2021 6:30:00 AM 16.02 60.836 0.103 7.36 2.9 9.34
9/19/2021 6:45:00 AM 15.98 60.764 0.104 7.36 2.88 9.35
9/19/2021 7:00:00 AM 15.95 60.71 0.104 7.36 2.83 9.37
9/19/2021 7:15:00 AM 15.93 60.674 0.104 7.36 2.82 9.41
9/19/2021 7:30:00 AM 15.89 60.602 0.103 7.37 2.88 9.45
9/19/2021 7:45:00 AM 15.87 60.566 0.103 7.38 2.85 9.52
9/19/2021 8:00:00 AM 15.85 60.53 0.103 7.4 2.8 9.62
9/19/2021 8:15:00 AM 15.83 60.494 0.103 7.42 2.66 9.72
9/19/2021 8:30:00 AM 15.8 60.44 0.103 7.44 2.76 9.79
9/19/2021 8:45:00 AM 15.81 60.458 0.103 7.47 2.61 9.96
9/19/2021 9:00:00 AM 15.86 60.548 0.103 7.53 2.6 10.12
9/19/2021 9:15:00 AM 15.91 60.638 0.103 7.56 2.55 10.2
9/19/2021 9:30:00 AM 15.86 60.548 0.103 7.56 2.55 10.11
9/19/2021 9:45:00 AM 15.95 60.71 0.103 7.58 2.54 10.17
9/19/2021 10:00:00 AM 16.01 60.818 0.103 7.61 2.46 10.27
9/19/2021 10:15:00 AM 16.02 60.836 0.103 7.62 2.45 10.25
9/19/2021 10:30:00 AM 16.08 60.944 0.103 7.63 2.59 10.24
9/19/2021 10:45:00 AM 16.26 61.268 0.102 7.68 2.47 10.31
9/19/2021 11:00:00 AM 16.35 61.43 0.102 7.7 2.46 10.32
9/19/2021 11:15:00 AM 16.45 61.61 0.102 7.72 2.43 10.29
9/19/2021 11:30:00 AM 16.59 61.862 0.102 7.74 2.39 10.3
9/19/2021 11:45:00 AM 16.71 62.078 0.102 7.74 2.39 10.24
9/19/2021 12:00:00 PM 16.86 62.348 0.102 7.74 2.33 10.21
9/19/2021 12:15:00 PM 17.06 62.708 0.102 7.75 2.47 10.15
9/19/2021 12:30:00 PM 17.3 63.14 0.102 7.77 2.41 10.14
9/19/2021 12:45:00 PM 17.51 63.518 0.102 7.78 2.51 10.1
9/19/2021 1:00:00 PM 17.71 63.878 0.102 7.8 2.42 10.07
9/19/2021 1:15:00 PM 17.89 64.202 0.102 7.82 2.32 10.07
9/19/2021 1:30:00 PM 18.07 64.526 0.102 7.83 2.52 10.06
9/19/2021 1:45:00 PM 18.25 64.85 0.102 7.85 2.56 10.02
9/19/2021 2:00:00 PM 18.42 65.156 0.102 7.87 2.35 10
9/19/2021 2:15:00 PM 18.6 65.48 0.102 7.89 2.51 9.97
9/19/2021 2:30:00 PM 18.75 65.75 0.102 7.9 2.5 9.96
9/19/2021 2:45:00 PM 18.9 66.02 0.102 7.91 2.61 9.93
9/19/2021 3:00:00 PM 19.01 66.218 0.102 7.92 2.54 9.9
9/19/2021 3:15:00 PM 19.13 66.434 0.102 7.93 2.62 9.86
9/19/2021 3:30:00 PM 19.22 66.596 0.102 7.94 2.6 9.84
9/19/2021 3:45:00 PM 19.28 66.704 0.102 7.94 2.49 9.81
9/19/2021 4:00:00 PM 19.32 66.776 0.102 7.93 2.46 9.79
9/19/2021 4:15:00 PM 19.36 66.848 0.102 7.92 2.58 9.76
9/19/2021 4:30:00 PM 19.36 66.848 0.102 7.91 2.57 9.73
9/19/2021 4:45:00 PM 19.34 66.812 0.103 7.88 2.53 9.67
9/19/2021 5:00:00 PM 19.29 66.722 0.103 7.84 2.52 9.59
9/19/2021 5:15:00 PM 19.21 66.578 0.103 7.79 2.64 9.48
9/19/2021 5:30:00 PM 19.09 66.362 0.103 7.74 2.52 9.4
9/19/2021 5:45:00 PM 18.97 66.146 0.103 7.7 2.67 9.34
9/19/2021 6:00:00 PM 18.83 65.894 0.103 7.65 2.7 9.28
9/19/2021 6:15:00 PM 18.7 65.66 0.103 7.62 2.5 9.23
9/19/2021 6:30:00 PM 18.56 65.408 0.103 7.58 2.6 9.16
9/19/2021 6:45:00 PM 18.41 65.138 0.104 7.54 2.54 9.08
9/19/2021 7:00:00 PM 18.25 64.85 0.104 7.51 2.7 9.03
9/19/2021 7:15:00 PM 18.1 64.58 0.104 7.48 2.71 8.99
9/19/2021 7:30:00 PM 17.96 64.328 0.104 7.46 2.72 8.96
9/19/2021 7:45:00 PM 17.83 64.094 0.104 7.44 2.79 8.94
9/19/2021 8:00:00 PM 17.71 63.878 0.104 7.42 2.81 8.94
9/19/2021 8:15:00 PM 17.59 63.662 0.104 7.41 2.63 8.96
9/19/2021 8:30:00 PM 17.47 63.446 0.104 7.4 2.85 8.99
9/19/2021 8:45:00 PM 17.36 63.248 0.104 7.4 2.91 9.01
9/19/2021 9:00:00 PM 17.25 63.05 0.104 7.39 2.88 9.03
9/19/2021 9:15:00 PM 17.14 62.852 0.104 7.39 2.82 9.04
9/19/2021 9:30:00 PM 17.03 62.654 0.104 7.38 2.87 9.06
9/19/2021 9:45:00 PM 16.93 62.474 0.104 7.38 2.83 9.09
9/19/2021 10:00:00 PM 16.83 62.294 0.104 7.38 3.05 9.11
9/19/2021 10:15:00 PM 16.73 62.114 0.104 7.38 2.82 9.14
9/19/2021 10:30:00 PM 16.63 61.934 0.104 7.38 2.78 9.16
9/19/2021 10:45:00 PM 16.53 61.754 0.104 7.37 2.88 9.19
9/19/2021 11:00:00 PM 16.43 61.574 0.105 7.37 2.87 9.2
9/19/2021 11:15:00 PM 16.33 61.394 0.105 7.37 2.73 9.22
9/19/2021 11:30:00 PM 16.23 61.214 0.105 7.37 2.63 9.25
9/19/2021 11:45:00 PM 16.12 61.016 0.105 7.37 2.83 9.28
9/20/2021 12:00:00 AM 16.02 60.836 0.105 7.37 3.05 9.31
9/20/2021 12:15:00 AM 15.92 60.656 0.105 7.37 2.79 9.33
9/20/2021 12:30:00 AM 15.82 60.476 0.105 7.37 2.87 9.36
9/20/2021 12:45:00 AM 15.71 60.278 0.105 7.37 2.8 9.38
9/20/2021 1:00:00 AM 15.61 60.098 0.105 7.36 2.61 9.41
9/20/2021 1:15:00 AM 15.51 59.918 0.105 7.36 2.86 9.42
9/20/2021 1:30:00 AM 15.4 59.72 0.105 7.36 2.78 9.46
9/20/2021 1:45:00 AM 15.3 59.54 0.105 7.36 2.68 9.48
9/20/2021 2:00:00 AM 15.2 59.36 0.105 7.36 2.88 9.52
9/20/2021 2:15:00 AM 15.11 59.198 0.105 7.36 4.53 9.54
9/20/2021 2:30:00 AM 15.01 59.018 0.105 7.36 2.76 9.57
9/20/2021 2:45:00 AM 14.91 58.838 0.106 7.36 2.81 9.59
9/20/2021 3:00:00 AM 14.82 58.676 0.106 7.36 2.58 9.6
9/20/2021 3:15:00 AM 14.72 58.496 0.106 7.36 2.72 9.62
9/20/2021 3:30:00 AM 14.63 58.334 0.106 7.36 2.62 9.65
9/20/2021 3:45:00 AM 14.54 58.172 0.106 7.36 2.68 9.68
9/20/2021 4:00:00 AM 14.46 58.028 0.106 7.36 2.65 9.7
9/20/2021 4:15:00 AM 14.37 57.866 0.106 7.36 2.49 9.72
9/20/2021 4:30:00 AM 14.29 57.722 0.106 7.36 2.74 9.74
9/20/2021 4:45:00 AM 14.21 57.578 0.106 7.36 3.03 9.76
9/20/2021 5:00:00 AM 14.14 57.452 0.106 7.36 2.82 9.77
9/20/2021 5:15:00 AM 14.06 57.308 0.106 7.36 2.62 9.78
9/20/2021 5:30:00 AM 14 57.2 0.106 7.36 2.74 9.8
9/20/2021 5:45:00 AM 13.93 57.074 0.106 7.36 2.65 9.82
9/20/2021 6:00:00 AM 13.87 56.966 0.106 7.36 2.75 9.85
9/20/2021 6:15:00 AM 13.82 56.876 0.106 7.36 2.76 9.87
9/20/2021 6:30:00 AM 13.76 56.768 0.106 7.36 2.77 9.87
9/20/2021 6:45:00 AM 13.71 56.678 0.106 7.36 2.96 9.89
9/20/2021 7:00:00 AM 14.01 57.218 0.105 7.36 2.72 9.79
9/20/2021 7:15:00 AM 13.95 57.11 0.105 7.36 2.64 9.83
9/20/2021 7:30:00 AM 13.89 57.002 0.105 7.37 2.99 9.89
9/20/2021 7:45:00 AM 13.83 56.894 0.105 7.39 2.45 9.96
9/20/2021 8:00:00 AM 13.78 56.804 0.105 7.4 2.49 10.02
9/20/2021 8:15:00 AM 13.73 56.714 0.105 7.41 2.63 10.07
9/20/2021 8:30:00 AM 13.7 56.66 0.105 7.42 2.55 10.15
9/20/2021 8:45:00 AM 13.69 56.642 0.105 7.44 2.44 10.24
9/20/2021 9:00:00 AM 13.72 56.696 0.105 7.45 2.49 10.31
9/20/2021 9:15:00 AM 13.75 56.75 0.104 7.47 2.33 10.36
9/20/2021 9:30:00 AM 13.8 56.84 0.104 7.49 2.75 10.4
9/20/2021 9:45:00 AM 13.87 56.966 0.104 7.51 2.36 10.45
9/20/2021 10:00:00 AM 13.94 57.092 0.104 7.53 2.36 10.49
9/20/2021 10:15:00 AM 14.05 57.29 0.104 7.54 2.34 10.53
9/20/2021 10:30:00 AM 14.15 57.47 0.104 7.56 2.41 10.55
9/20/2021 10:45:00 AM 14.28 57.704 0.104 7.58 2.32 10.56
9/20/2021 11:00:00 AM 14.44 57.992 0.104 7.61 2.2 10.57
9/20/2021 11:15:00 AM 14.62 58.316 0.104 7.64 2.17 10.58
9/20/2021 11:30:00 AM 14.81 58.658 0.104 7.67 2.25 10.59
9/20/2021 11:45:00 AM 15 59 0.104 7.69 2.23 10.59
9/20/2021 12:00:00 PM 15.23 59.414 0.103 7.73 2.29 10.62
9/20/2021 12:15:00 PM 15.47 59.846 0.103 7.77 2.23 10.64
9/20/2021 12:30:00 PM 15.72 60.296 0.103 7.81 2.37 10.63
9/20/2021 12:45:00 PM 15.97 60.746 0.103 7.84 2.25 10.6
9/20/2021 1:00:00 PM 16.23 61.214 0.103 7.88 2.32 10.57
9/20/2021 1:15:00 PM 16.47 61.646 0.103 7.89 2.35 10.51
9/20/2021 1:30:00 PM 16.7 62.06 0.103 7.92 2.33 10.52
9/20/2021 1:45:00 PM 16.92 62.456 0.103 7.94 2.23 10.48
9/20/2021 2:00:00 PM 17.15 62.87 0.103 7.98 2.27 10.46
9/20/2021 2:15:00 PM 17.37 63.266 0.103 8.01 2.36 10.44
9/20/2021 2:30:00 PM 17.57 63.626 0.103 8.03 2.35 10.41
9/20/2021 2:45:00 PM 17.73 63.914 0.103 8.07 2.46 10.36
9/20/2021 3:00:00 PM 17.88 64.184 0.103 8.13 2.37 10.43
9/20/2021 3:15:00 PM 18.03 64.454 0.103 8.17 2.42 10.4
9/20/2021 3:30:00 PM 18.14 64.652 0.103 8.22 2.45 10.41
9/20/2021 3:45:00 PM 18.24 64.832 0.103 8.24 2.34 10.37
9/20/2021 4:00:00 PM 18.35 65.03 0.103 8.22 2.36 10.26
9/20/2021 4:15:00 PM 18.45 65.21 0.103 8.22 2.54 10.23
9/20/2021 4:30:00 PM 18.46 65.228 0.103 8.21 2.39 10.18
9/20/2021 4:45:00 PM 18.45 65.21 0.103 8.17 2.33 10.1
9/20/2021 5:00:00 PM 18.38 65.084 0.103 8.1 2.39 10.04
9/20/2021 5:15:00 PM 18.3 64.94 0.104 8.04 2.44 9.97
9/20/2021 5:30:00 PM 18.2 64.76 0.104 7.94 2.45 9.85
9/20/2021 5:45:00 PM 18.11 64.598 0.104 7.85 2.36 9.74
9/20/2021 6:00:00 PM 18.04 64.472 0.104 7.78 2.43 9.64
9/20/2021 6:15:00 PM 17.97 64.346 0.104 7.73 2.5 9.57
9/20/2021 6:30:00 PM 17.9 64.22 0.104 7.69 2.39 9.51
9/20/2021 6:45:00 PM 17.82 64.076 0.104 7.64 2.61 9.4
9/20/2021 7:00:00 PM 17.72 63.896 0.105 7.59 2.54 9.29
9/20/2021 7:15:00 PM 17.62 63.716 0.105 7.54 2.44 9.19
9/20/2021 7:30:00 PM 17.51 63.518 0.105 7.5 2.97 9.12
9/20/2021 7:45:00 PM 17.42 63.356 0.105 7.47 2.7 9.08
9/20/2021 8:00:00 PM 17.32 63.176 0.105 7.45 2.7 9.06
9/20/2021 8:15:00 PM 17.24 63.032 0.105 7.43 2.58 9.05
9/20/2021 8:30:00 PM 17.15 62.87 0.105 7.42 2.69 9.04
9/20/2021 8:45:00 PM 17.06 62.708 0.105 7.41 2.66 9.05
9/20/2021 9:00:00 PM 16.99 62.582 0.105 7.41 2.69 9.08
9/20/2021 9:15:00 PM 16.91 62.438 0.105 7.4 2.9 9.09
9/20/2021 9:30:00 PM 16.85 62.33 0.105 7.39 2.58 9.11
9/20/2021 9:45:00 PM 16.78 62.204 0.105 7.39 2.73 9.11
9/20/2021 10:00:00 PM 16.73 62.114 0.105 7.39 2.69 9.13
9/20/2021 10:15:00 PM 16.68 62.024 0.105 7.38 2.67 9.13
9/20/2021 10:30:00 PM 16.62 61.916 0.105 7.38 2.7 9.14
9/20/2021 10:45:00 PM 16.56 61.808 0.105 7.38 2.65 9.16
9/20/2021 11:00:00 PM 16.5 61.7 0.106 7.38 2.62 9.15
9/20/2021 11:15:00 PM 16.43 61.574 0.106 7.38 2.47 9.17
9/20/2021 11:30:00 PM 16.37 61.466 0.106 7.38 2.55 9.18
9/20/2021 11:45:00 PM 16.32 61.376 0.106 7.37 2.71 9.2
9/21/2021 12:00:00 AM 16.26 61.268 0.106 7.37 2.66 9.21
9/21/2021 12:15:00 AM 16.23 61.214 0.106 7.37 2.55 9.22
9/21/2021 12:30:00 AM 16.2 61.16 0.106 7.37 2.61 9.23
9/21/2021 12:45:00 AM 16.16 61.088 0.106 7.37 2.63 9.25
9/21/2021 1:00:00 AM 16.12 61.016 0.106 7.37 3.11 9.26
9/21/2021 1:15:00 AM 16.08 60.944 0.106 7.38 2.65 9.26
9/21/2021 1:30:00 AM 16.05 60.89 0.106 7.38 2.47 9.27
9/21/2021 1:45:00 AM 16.01 60.818 0.106 7.38 2.55 9.29
9/21/2021 2:00:00 AM 15.98 60.764 0.106 7.38 2.71 9.3
9/21/2021 2:15:00 AM 15.95 60.71 0.106 7.38 2.61 9.31
9/21/2021 2:30:00 AM 15.93 60.674 0.106 7.38 2.72 9.31
9/21/2021 2:45:00 AM 15.92 60.656 0.106 7.38 2.57 9.31
9/21/2021 3:00:00 AM 15.9 60.62 0.106 7.38 2.57 9.32
9/21/2021 3:15:00 AM 15.89 60.602 0.106 7.38 2.84 9.32
9/21/2021 3:30:00 AM 15.86 60.548 0.106 7.38 2.52 9.33
9/21/2021 3:45:00 AM 15.83 60.494 0.106 7.38 2.55 9.33
9/21/2021 4:00:00 AM 15.8 60.44 0.106 7.38 2.5 9.33
9/21/2021 4:15:00 AM 15.78 60.404 0.107 7.38 2.54 9.34
9/21/2021 4:30:00 AM 15.77 60.386 0.107 7.38 2.51 9.35
9/21/2021 4:45:00 AM 15.75 60.35 0.107 7.38 2.66 9.35
9/21/2021 5:00:00 AM 15.73 60.314 0.107 7.38 2.44 9.37
9/21/2021 5:15:00 AM 15.71 60.278 0.107 7.38 2.56 9.37
9/21/2021 5:30:00 AM 15.69 60.242 0.107 7.38 2.67 9.38
9/21/2021 5:45:00 AM 15.66 60.188 0.107 7.38 2.6 9.39
9/21/2021 6:00:00 AM 15.63 60.134 0.107 7.39 2.63 9.4
9/21/2021 6:15:00 AM 15.6 60.08 0.107 7.39 2.92 9.4
9/21/2021 6:30:00 AM 15.57 60.026 0.107 7.39 2.56 9.41
9/21/2021 6:45:00 AM 15.56 60.008 0.107 7.39 2.48 9.42
9/21/2021 7:00:00 AM 15.55 59.99 0.107 7.39 2.77 9.43
9/21/2021 7:15:00 AM 15.53 59.954 0.107 7.39 2.59 9.45
9/21/2021 7:30:00 AM 15.52 59.936 0.107 7.39 2.65 9.47
9/21/2021 7:45:00 AM 15.51 59.918 0.107 7.4 2.49 9.51
9/21/2021 8:00:00 AM 15.5 59.9 0.107 7.41 2.63 9.54
9/21/2021 8:15:00 AM 15.49 59.882 0.107 7.42 2.51 9.58
9/21/2021 8:30:00 AM 15.5 59.9 0.107 7.43 2.39 9.64
9/21/2021 8:45:00 AM 15.5 59.9 0.107 7.45 2.53 9.75
9/21/2021 9:00:00 AM 15.52 59.936 0.106 7.47 2.48 9.86
9/21/2021 9:15:00 AM 15.54 59.972 0.106 7.51 2.5 9.99
9/21/2021 9:30:00 AM 15.57 60.026 0.106 7.54 2.46 10.1
9/21/2021 9:45:00 AM 15.61 60.098 0.106 7.59 2.37 10.24
9/21/2021 10:00:00 AM 15.66 60.188 0.105 7.64 2.31 10.35
9/21/2021 10:15:00 AM 15.72 60.296 0.105 7.69 2.37 10.44
9/21/2021 10:30:00 AM 15.77 60.386 0.105 7.74 2.36 10.47
9/21/2021 10:45:00 AM 15.81 60.458 0.105 7.76 2.31 10.48
9/21/2021 11:00:00 AM 15.86 60.548 0.105 7.78 2.29 10.46
9/21/2021 11:15:00 AM 15.94 60.692 0.105 7.82 2.32 10.54
9/21/2021 11:30:00 AM 15.99 60.782 0.105 7.83 2.28 10.48
9/21/2021 11:45:00 AM 16.01 60.818 0.105 7.78 2.25 10.31
9/21/2021 12:00:00 PM 16.03 60.854 0.105 7.74 2.27 10.23
9/21/2021 12:15:00 PM 16.07 60.926 0.105 7.76 2.43 10.31
9/21/2021 12:30:00 PM 16.09 60.962 0.105 7.77 2.24 10.31
9/21/2021 12:45:00 PM 16.11 60.998 0.105 7.76 2.31 10.25
9/21/2021 1:00:00 PM 16.15 61.07 0.105 7.75 2.23 10.26
9/21/2021 1:15:00 PM 16.18 61.124 0.105 7.78 2.29 10.31
9/21/2021 1:30:00 PM 16.2 61.16 0.105 7.79 2.32 10.31
9/21/2021 1:45:00 PM 16.24 61.232 0.105 7.8 2.35 10.3
9/21/2021 2:00:00 PM 16.33 61.394 0.105 7.84 2.41 10.41
9/21/2021 2:15:00 PM 16.44 61.592 0.104 7.95 2.29 10.58
9/21/2021 2:30:00 PM 16.54 61.772 0.104 8.04 2.27 10.66
9/21/2021 2:45:00 PM 16.63 61.934 0.104 8.11 2.23 10.69
9/21/2021 3:00:00 PM 16.66 61.988 0.104 8.08 2.48 10.55
9/21/2021 3:15:00 PM 16.71 62.078 0.104 8.1 2.36 10.57
9/21/2021 3:30:00 PM 16.76 62.168 0.104 8.12 2.43 10.57
9/21/2021 3:45:00 PM 16.79 62.222 0.104 8.07 2.33 10.43
9/21/2021 4:00:00 PM 16.83 62.294 0.105 8.02 2.24 10.35
9/21/2021 4:15:00 PM 16.85 62.33 0.105 8 2.4 10.31
9/21/2021 4:30:00 PM 16.84 62.312 0.105 7.93 2.36 10.17
9/21/2021 4:45:00 PM 16.84 62.312 0.105 7.87 2.3 10.11
9/21/2021 5:00:00 PM 16.83 62.294 0.105 7.82 2.34 10.03
9/21/2021 5:15:00 PM 16.82 62.276 0.105 7.78 2.35 9.97
9/21/2021 5:30:00 PM 16.81 62.258 0.105 7.73 2.63 9.86
9/21/2021 5:45:00 PM 16.82 62.276 0.105 7.72 2.37 9.93
9/21/2021 6:00:00 PM 16.83 62.294 0.105 7.7 2.26 9.85
9/21/2021 6:15:00 PM 16.83 62.294 0.105 7.68 2.46 9.81
9/21/2021 6:30:00 PM 16.82 62.276 0.106 7.63 2.57 9.66
9/21/2021 6:45:00 PM 16.79 62.222 0.106 7.59 2.68 9.54
9/21/2021 7:00:00 PM 16.77 62.186 0.106 7.54 2.49 9.44
9/21/2021 7:15:00 PM 16.75 62.15 0.106 7.51 2.58 9.34
9/21/2021 7:30:00 PM 16.73 62.114 0.106 7.48 2.57 9.27
9/21/2021 7:45:00 PM 16.72 62.096 0.106 7.46 2.56 9.23
9/21/2021 8:00:00 PM 16.7 62.06 0.106 7.44 2.75 9.19
9/21/2021 8:15:00 PM 16.69 62.042 0.106 7.43 2.5 9.17
9/21/2021 8:30:00 PM 16.68 62.024 0.107 7.42 2.64 9.16
9/21/2021 8:45:00 PM 16.67 62.006 0.107 7.41 2.67 9.16
9/21/2021 9:00:00 PM 16.67 62.006 0.107 7.41 2.55 9.16
9/21/2021 9:15:00 PM 16.66 61.988 0.107 7.4 2.54 9.15
9/21/2021 9:30:00 PM 16.66 61.988 0.107 7.4 2.86 9.15
9/21/2021 9:45:00 PM 16.65 61.97 0.107 7.4 2.65 9.15
9/21/2021 10:00:00 PM 16.64 61.952 0.107 7.39 2.49 9.15
9/21/2021 10:15:00 PM 16.63 61.934 0.107 7.39 2.63 9.15
9/21/2021 10:30:00 PM 16.62 61.916 0.107 7.39 2.53 9.15
9/21/2021 10:45:00 PM 16.62 61.916 0.107 7.39 2.44 9.15
9/21/2021 11:00:00 PM 16.61 61.898 0.107 7.39 2.54 9.15
9/21/2021 11:15:00 PM 16.6 61.88 0.107 7.39 2.58 9.15
9/21/2021 11:30:00 PM 16.59 61.862 0.107 7.39 2.85 9.16
9/21/2021 11:45:00 PM 16.58 61.844 0.107 7.38 2.75 9.12
9/22/2021 12:00:00 AM 16.58 61.844 0.107 7.38 2.52 9.13
9/22/2021 12:15:00 AM 16.57 61.826 0.107 7.38 2.4 9.15
9/22/2021 12:30:00 AM 16.57 61.826 0.107 7.38 2.6 9.14
9/22/2021 12:45:00 AM 16.57 61.826 0.107 7.38 2.42 9.15
9/22/2021 1:00:00 AM 16.57 61.826 0.107 7.38 2.48 9.14
9/22/2021 1:15:00 AM 16.57 61.826 0.107 7.38 2.67 9.15
9/22/2021 1:30:00 AM 16.57 61.826 0.108 7.39 2.74 9.15
9/22/2021 1:45:00 AM 16.56 61.808 0.108 7.39 3.09 9.13
9/22/2021 2:00:00 AM 16.56 61.808 0.107 7.39 3.88 9.14
9/22/2021 2:15:00 AM 16.55 61.79 0.108 7.39 2.87 9.13
9/22/2021 2:30:00 AM 16.55 61.79 0.108 7.39 2.73 9.14
9/22/2021 2:45:00 AM 16.54 61.772 0.108 7.39 2.68 9.14
9/22/2021 3:00:00 AM 16.54 61.772 0.108 7.39 2.56 9.14
9/22/2021 3:15:00 AM 16.53 61.754 0.108 7.39 2.47 9.14
9/22/2021 3:30:00 AM 16.53 61.754 0.108 7.39 2.66 9.13
9/22/2021 3:45:00 AM 16.53 61.754 0.108 7.39 2.73 9.13
9/22/2021 4:00:00 AM 16.52 61.736 0.108 7.39 2.6 9.13
9/22/2021 4:15:00 AM 16.51 61.718 0.108 7.39 2.64 9.12
9/22/2021 4:30:00 AM 16.51 61.718 0.108 7.39 2.37 9.12
9/22/2021 4:45:00 AM 16.5 61.7 0.108 7.39 2.48 9.13
9/22/2021 5:00:00 AM 16.5 61.7 0.108 7.39 2.5 9.13
9/22/2021 5:15:00 AM 16.49 61.682 0.108 7.39 2.59 9.13
9/22/2021 5:30:00 AM 16.49 61.682 0.108 7.39 3.24 9.13
9/22/2021 5:45:00 AM 16.49 61.682 0.108 7.39 2.64 9.13
9/22/2021 6:00:00 AM 16.49 61.682 0.108 7.39 2.5 9.14
9/22/2021 6:15:00 AM 16.49 61.682 0.108 7.39 2.47 9.13
9/22/2021 6:30:00 AM 16.49 61.682 0.108 7.39 2.65 9.13
9/22/2021 6:45:00 AM 16.49 61.682 0.108 7.4 2.57 9.13
9/22/2021 7:00:00 AM 16.49 61.682 0.108 7.4 2.61 9.14
9/22/2021 7:15:00 AM 16.5 61.7 0.108 7.4 2.71 9.14
9/22/2021 7:30:00 AM 16.5 61.7 0.108 7.4 2.5 9.16
9/22/2021 7:45:00 AM 16.5 61.7 0.108 7.41 2.59 9.18
9/22/2021 8:00:00 AM 16.51 61.718 0.108 7.42 2.44 9.22
9/22/2021 8:15:00 AM 16.52 61.736 0.108 7.43 2.45 9.25
9/22/2021 8:30:00 AM 16.53 61.754 0.108 7.43 2.51 9.26
9/22/2021 8:45:00 AM 16.54 61.772 0.108 7.43 2.55 9.27
9/22/2021 9:00:00 AM 16.54 61.772 0.108 7.44 2.39 9.28
9/22/2021 9:15:00 AM 16.55 61.79 0.108 7.44 2.44 9.31
9/22/2021 9:30:00 AM 16.57 61.826 0.108 7.45 2.37 9.36
9/22/2021 9:45:00 AM 16.58 61.844 0.108 7.47 2.36 9.42
9/22/2021 10:00:00 AM 16.6 61.88 0.108 7.49 2.38 9.52
9/22/2021 10:15:00 AM 16.62 61.916 0.108 7.5 2.35 9.54
9/22/2021 10:30:00 AM 16.65 61.97 0.108 7.52 2.37 9.58
9/22/2021 10:45:00 AM 16.68 62.024 0.107 7.53 2.27 9.62
9/22/2021 11:00:00 AM 16.73 62.114 0.107 7.55 2.25 9.69
9/22/2021 11:15:00 AM 16.8 62.24 0.107 7.61 2.33 9.89
9/22/2021 11:30:00 AM 16.86 62.348 0.107 7.65 2.37 9.93
9/22/2021 11:45:00 AM 16.91 62.438 0.107 7.67 2.38 9.93
9/22/2021 12:00:00 PM 16.94 62.492 0.107 7.67 2.35 9.88
9/22/2021 12:15:00 PM 16.96 62.528 0.107 7.66 2.29 9.8
9/22/2021 12:30:00 PM 17.03 62.654 0.106 7.7 2.29 9.97
9/22/2021 12:45:00 PM 17.12 62.816 0.106 7.77 2.4 10.05
9/22/2021 1:00:00 PM 17.18 62.924 0.106 7.76 2.47 9.97
9/22/2021 1:15:00 PM 17.22 62.996 0.106 7.75 2.43 9.89
9/22/2021 1:30:00 PM 17.24 63.032 0.106 7.73 2.45 9.88
9/22/2021 1:45:00 PM 17.29 63.122 0.105 7.76 2.52 9.95
9/22/2021 2:00:00 PM 17.36 63.248 0.105 7.78 2.6 9.99
9/22/2021 2:15:00 PM 17.43 63.374 0.105 7.83 2.59 10.04
9/22/2021 2:30:00 PM 17.48 63.464 0.105 7.83 2.63 10
9/22/2021 2:45:00 PM 17.51 63.518 0.105 7.83 2.65 9.98
9/22/2021 3:00:00 PM 17.54 63.572 0.105 7.84 2.53 9.98
9/22/2021 3:15:00 PM 17.54 63.572 0.105 7.8 2.51 9.85
9/22/2021 3:30:00 PM 17.58 63.644 0.105 7.79 2.52 9.85
9/22/2021 3:45:00 PM 17.61 63.698 0.105 7.79 2.76 9.83
9/22/2021 4:00:00 PM 17.62 63.716 0.105 7.76 2.63 9.7
9/22/2021 4:15:00 PM 17.63 63.734 0.105 7.73 2.63 9.65
9/22/2021 4:30:00 PM 17.62 63.716 0.105 7.69 2.65 9.55
9/22/2021 4:45:00 PM 17.59 63.662 0.105 7.67 2.71 9.52
9/22/2021 5:00:00 PM 17.58 63.644 0.105 7.65 2.72 9.5
9/22/2021 5:15:00 PM 17.55 63.59 0.105 7.61 2.85 9.39
9/22/2021 5:30:00 PM 17.54 63.572 0.104 7.58 2.79 9.31
9/22/2021 5:45:00 PM 17.52 63.536 0.103 7.54 2.98 9.21
9/22/2021 6:00:00 PM 17.5 63.5 0.103 7.51 3.28 9.14
9/22/2021 6:15:00 PM 17.5 63.5 0.103 7.48 3.39 9.08
9/22/2021 6:30:00 PM 17.48 63.464 0.103 7.46 3.65 9.04
9/22/2021 6:45:00 PM 17.46 63.428 0.103 7.44 4.07 9.01
9/22/2021 7:00:00 PM 17.44 63.392 0.103 7.43 3.74 8.99
9/22/2021 7:15:00 PM 17.43 63.374 0.103 7.42 4.37 8.97
9/22/2021 7:30:00 PM 17.44 63.392 0.102 7.41 4.15 8.95
9/22/2021 7:45:00 PM 17.44 63.392 0.102 7.4 4.47 8.94
9/22/2021 8:00:00 PM 17.44 63.392 0.102 7.39 5.09 8.93
9/22/2021 8:15:00 PM 17.45 63.41 0.102 7.39 4.89 8.92
9/22/2021 8:30:00 PM 17.45 63.41 0.101 7.38 5.13 8.92
9/22/2021 8:45:00 PM 17.47 63.446 0.101 7.38 5.17 8.92
9/22/2021 9:00:00 PM 17.46 63.428 0.101 7.37 5.53 8.92
9/22/2021 9:15:00 PM 17.46 63.428 0.101 7.37 5.71 8.92
9/22/2021 9:30:00 PM 17.45 63.41 0.101 7.37 5.25 8.92
9/22/2021 9:45:00 PM 17.44 63.392 0.101 7.37 6.35 8.94
9/22/2021 10:00:00 PM 17.44 63.392 0.101 7.38 7.15 8.95
9/22/2021 10:15:00 PM 17.42 63.356 0.102 7.38 7.51 8.96
9/22/2021 10:30:00 PM 17.38 63.284 0.101 7.38 8.61 8.97
9/22/2021 10:45:00 PM 17.35 63.23 0.101 7.38 10.06 8.99
9/22/2021 11:00:00 PM 17.34 63.212 0.102 7.38 11.19 9.01
9/22/2021 11:15:00 PM 17.33 63.194 0.103 7.39 11.19 9.02
9/22/2021 11:30:00 PM 17.32 63.176 0.103 7.4 12.27 9.02
9/22/2021 11:45:00 PM 17.32 63.176 0.104 7.4 13.01 9.03
9/23/2021 12:00:00 AM 17.32 63.176 0.104 7.4 12.49 9.03
9/23/2021 12:15:00 AM 17.3 63.14 0.106 7.4 14.46 9.02
9/23/2021 12:30:00 AM 17.29 63.122 0.107 7.4 13.31 9.02
9/23/2021 12:45:00 AM 17.28 63.104 0.109 7.4 17.73 9.02
9/23/2021 1:00:00 AM 17.27 63.086 0.112 7.4 20.32 9.03
9/23/2021 1:15:00 AM 17.25 63.05 0.114 7.41 25.87 9.04
9/23/2021 1:30:00 AM 17.21 62.978 0.113 7.41 28.09 9.05
9/23/2021 1:45:00 AM 17.2 62.96 0.114 7.41 29.98 9.06
9/23/2021 2:00:00 AM 17.23 63.014 0.113 7.42 32.69 9.07
9/23/2021 2:15:00 AM 17.26 63.068 0.112 7.42 39.15 9.07
9/23/2021 2:30:00 AM 17.29 63.122 0.111 7.41 45.99 9.08
9/23/2021 2:45:00 AM 17.31 63.158 0.11 7.4 52.79 9.07
9/23/2021 3:00:00 AM 17.32 63.176 0.108 7.38 54.49 9.06
9/23/2021 3:15:00 AM 17.3 63.14 0.107 7.37 55.36 9.05
9/23/2021 3:30:00 AM 17.27 63.086 0.104 7.37 57.49 9.05
9/23/2021 3:45:00 AM 17.26 63.068 0.102 7.34 60.07 9.04
9/23/2021 4:00:00 AM 17.25 63.05 0.1 7.33 61.12 9.04
9/23/2021 4:15:00 AM 17.22 62.996 0.098 7.33 64.61 9.04
9/23/2021 4:30:00 AM 17.18 62.924 0.097 7.32 65.61 9.05
9/23/2021 4:45:00 AM 17.13 62.834 0.096 7.31 60.4 9.07
9/23/2021 5:00:00 AM 17.09 62.762 0.096 7.3 56.17 9.08
9/23/2021 5:15:00 AM 17.04 62.672 0.095 7.29 51.84 9.1
9/23/2021 5:30:00 AM 16.98 62.564 0.094 7.11 49.01 9.12
9/23/2021 5:45:00 AM 16.93 62.474 0.092 7.08 56.19 9.14
9/23/2021 6:00:00 AM 16.87 62.366 0.091 6.99 66.89 9.15
9/23/2021 6:15:00 AM 16.81 62.258 0.089 6.95 86.03 9.17
9/23/2021 6:30:00 AM 16.74 62.132 0.086 6.92 109.24 9.19
9/23/2021 6:45:00 AM 16.65 61.97 0.083 6.88 162.09 9.21
9/23/2021 7:00:00 AM 16.56 61.808 0.08 6.82 241.32 9.23
9/23/2021 7:15:00 AM 16.51 61.718 0.078 6.82 296.97 9.25
9/23/2021 7:30:00 AM 16.49 61.682 0.077 6.78 301.76 9.27
9/23/2021 7:45:00 AM 16.46 61.628 0.076 6.78 320.55 9.28
9/23/2021 8:00:00 AM 16.43 61.574 0.075 6.73 338.51 9.29
9/23/2021 8:15:00 AM 16.39 61.502 0.073 6.69 364.01 9.3
9/23/2021 8:30:00 AM 16.37 61.466 0.07 6.64 426.1 9.3
9/23/2021 8:45:00 AM 16.33 61.394 0.066 6.59 480.51 9.31
9/23/2021 9:00:00 AM 16.3 61.34 0.064 6.54 548.19 9.32
9/23/2021 9:15:00 AM 16.27 61.286 0.062 6.5 623.35 9.33
9/23/2021 9:30:00 AM 16.24 61.232 0.06 6.47 639.28 9.36
9/23/2021 9:45:00 AM 16.21 61.178 0.058 6.45 655.2 9.36
9/23/2021 10:00:00 AM 16.18 61.124 0.057 6.5 660.66 9.37
9/23/2021 10:15:00 AM 16.16 61.088 0.056 6.44 631.62 9.38
9/23/2021 10:30:00 AM 16.15 61.07 0.056 6.44 609.01 9.39
9/23/2021 10:45:00 AM 16.14 61.052 0.055 6.43 578.33 9.4
9/23/2021 11:00:00 AM 16.14 61.052 0.055 6.44 543.35 9.41
9/23/2021 11:15:00 AM 16.13 61.034 0.055 6.53 524.59 9.42
9/23/2021 11:30:00 AM 16.12 61.016 0.055 6.53 523.23 9.43
9/23/2021 11:45:00 AM 16.12 61.016 0.055 6.72 482.19 9.43
9/23/2021 12:00:00 PM 16.12 61.016 0.055 6.75 458.88 9.44
9/23/2021 12:15:00 PM 16.14 61.052 0.056 6.72 436.27 9.44
9/23/2021 12:30:00 PM 16.17 61.106 0.056 6.75 389.44 9.44
9/23/2021 12:45:00 PM 16.19 61.142 0.057 6.75 357.6 9.44
9/23/2021 1:00:00 PM 16.21 61.178 0.057 6.77 339.24 9.44
9/23/2021 1:15:00 PM 16.22 61.196 0.057 6.78 307.22 9.44
9/23/2021 1:30:00 PM 16.22 61.196 0.058 6.78 287.49 9.43
9/23/2021 1:45:00 PM 16.24 61.232 0.058 6.8 256.17 9.44
9/23/2021 2:00:00 PM 16.25 61.25 0.058 6.8 235.94 9.43
9/23/2021 2:15:00 PM 16.28 61.304 0.058 6.84 222.49 9.42
9/23/2021 2:30:00 PM 16.28 61.304 0.058 6.81 206.6 9.42
9/23/2021 2:45:00 PM 16.3 61.34 0.058 6.82 194.62 9.41
9/23/2021 3:00:00 PM 16.32 61.376 0.058 6.85 178.62 9.4
9/23/2021 3:15:00 PM 16.32 61.376 0.058 6.83 174.32 9.4
9/23/2021 3:30:00 PM 16.3 61.34 0.058 6.84 162.89 9.4
9/23/2021 3:45:00 PM 16.26 61.268 0.058 6.83 153.22 9.41
9/23/2021 4:00:00 PM 16.22 61.196 0.058 6.83 141.41 9.42
9/23/2021 4:15:00 PM 16.16 61.088 0.058 6.83 131.09 9.42
9/23/2021 4:30:00 PM 16.1 60.98 0.058 6.82 121.58 9.44
9/23/2021 4:45:00 PM 16.05 60.89 0.058 6.83 111.83 9.44
9/23/2021 5:00:00 PM 15.99 60.782 0.058 6.84 109.09 9.45
9/23/2021 5:15:00 PM 15.92 60.656 0.058 6.85 105.13 9.46
9/23/2021 5:30:00 PM 15.84 60.512 0.058 6.84 98.4 9.47
9/23/2021 5:45:00 PM 15.76 60.368 0.058 6.86 92.46 9.49
9/23/2021 6:00:00 PM 15.68 60.224 0.058 6.86 86.46 9.52
9/23/2021 6:15:00 PM 15.59 60.062 0.058 6.86 81.84 9.54
9/23/2021 6:30:00 PM 15.51 59.918 0.058 6.84 81.03 9.56
9/23/2021 6:45:00 PM 15.43 59.774 0.058 6.85 81.51 9.59
9/23/2021 7:00:00 PM 15.35 59.63 0.058 6.84 73.96 9.61
9/23/2021 7:15:00 PM 15.26 59.468 0.058 6.85 69.15 9.61
9/23/2021 7:30:00 PM 15.18 59.324 0.058 6.86 64.64 9.63
9/23/2021 7:45:00 PM 15.09 59.162 0.058 6.86 64.39 9.65
9/23/2021 8:00:00 PM 15.01 59.018 0.058 6.86 59.5 9.68
9/23/2021 8:15:00 PM 14.93 58.874 0.058 6.87 54.46 9.7
9/23/2021 8:30:00 PM 14.84 58.712 0.058 6.88 55.73 9.73
9/23/2021 8:45:00 PM 14.75 58.55 0.058 6.88 54.8 9.75
9/23/2021 9:00:00 PM 14.67 58.406 0.058 6.88 51.55 9.77
9/23/2021 9:15:00 PM 14.59 58.262 0.058 6.88 45.87 9.78
9/23/2021 9:30:00 PM 14.51 58.118 0.058 6.88 52.23 9.79
9/23/2021 9:45:00 PM 14.43 57.974 0.058 6.88 48.89 9.8
9/23/2021 10:00:00 PM 14.35 57.83 0.058 6.88 45.26 9.83
9/23/2021 10:15:00 PM 14.28 57.704 0.058 6.89 44.89 9.86
9/23/2021 10:30:00 PM 14.21 57.578 0.058 6.9 43.63 9.88
9/23/2021 10:45:00 PM 14.14 57.452 0.058 6.89 43.65 9.89
9/23/2021 11:00:00 PM 14.06 57.308 0.058 6.89 42.09 9.91
9/23/2021 11:15:00 PM 14 57.2 0.058 6.89 40.58 9.92
9/23/2021 11:30:00 PM 13.93 57.074 0.058 6.88 39.19 9.93
9/23/2021 11:45:00 PM 13.86 56.948 0.058 6.89 36.01 9.94
9/24/2021 12:00:00 AM 13.8 56.84 0.058 6.9 33.1 9.95
9/24/2021 12:15:00 AM 13.74 56.732 0.058 6.89 33.61 9.97
9/24/2021 12:30:00 AM 13.67 56.606 0.058 6.9 34.79 9.99
9/24/2021 12:45:00 AM 13.61 56.498 0.058 6.9 33.05 10.01
9/24/2021 1:00:00 AM 13.56 56.408 0.059 6.91 32.48 10.03
9/24/2021 1:15:00 AM 13.51 56.318 0.059 6.91 30.68 10.05
9/24/2021 1:30:00 AM 13.46 56.228 0.059 6.92 29.82 10.05
9/24/2021 1:45:00 AM 13.4 56.12 0.059 6.92 29.84 10.07
9/24/2021 2:00:00 AM 13.35 56.03 0.059 6.92 29.74 10.08
9/24/2021 2:15:00 AM 13.3 55.94 0.059 6.92 27.52 10.09
9/24/2021 2:30:00 AM 13.25 55.85 0.059 6.92 28.06 10.09
9/24/2021 2:45:00 AM 13.21 55.778 0.059 6.92 27.52 10.1
9/24/2021 3:00:00 AM 13.17 55.706 0.059 6.93 27.21 10.11
9/24/2021 3:15:00 AM 13.13 55.634 0.059 6.93 26.61 10.12
9/24/2021 3:30:00 AM 13.09 55.562 0.059 6.93 25.31 10.13
9/24/2021 3:45:00 AM 13.05 55.49 0.059 6.93 25.3 10.15
9/24/2021 4:00:00 AM 13.02 55.436 0.059 6.94 24.73 10.16
9/24/2021 4:15:00 AM 12.99 55.382 0.06 6.94 25.57 10.17
9/24/2021 4:30:00 AM 12.95 55.31 0.06 6.94 23.27 10.18
9/24/2021 4:45:00 AM 12.92 55.256 0.06 6.94 23.63 10.19
9/24/2021 5:00:00 AM 12.89 55.202 0.06 6.94 22.8 10.2
9/24/2021 5:15:00 AM 12.86 55.148 0.06 6.95 24.31 10.21
9/24/2021 5:30:00 AM 12.82 55.076 0.06 6.96 23.33 10.22
9/24/2021 5:45:00 AM 12.79 55.022 0.06 6.95 22.59 10.23
9/24/2021 6:00:00 AM 12.76 54.968 0.06 6.96 22.42 10.24
9/24/2021 6:15:00 AM 12.73 54.914 0.06 6.96 22.64 10.25
9/24/2021 6:30:00 AM 12.7 54.86 0.061 6.96 21.96 10.26
9/24/2021 6:45:00 AM 12.67 54.806 0.061 6.96 20.57 10.26
9/24/2021 7:00:00 AM 12.64 54.752 0.061 6.96 21.66 10.27
9/24/2021 7:15:00 AM 12.62 54.716 0.061 6.97 20.39 10.28
9/24/2021 7:30:00 AM 12.6 54.68 0.061 6.96 20.18 10.28
9/24/2021 7:45:00 AM 12.57 54.626 0.061 6.97 19.88 10.28
9/24/2021 8:00:00 AM 12.55 54.59 0.061 6.97 19.66 10.29
9/24/2021 8:15:00 AM 12.53 54.554 0.061 6.98 19.96 10.3
9/24/2021 8:30:00 AM 12.52 54.536 0.061 6.98 19.6 10.31
9/24/2021 8:45:00 AM 12.51 54.518 0.061 6.98 20.85 10.31
9/24/2021 9:00:00 AM 12.51 54.518 0.062 6.99 17.75 10.32
9/24/2021 9:15:00 AM 12.53 54.554 0.062 7 16.85 10.32
9/24/2021 9:30:00 AM 12.56 54.608 0.062 7 17.08 10.33
9/24/2021 9:45:00 AM 12.62 54.716 0.062 7 16.75 10.33
9/24/2021 10:00:00 AM 12.66 54.788 0.062 7.01 16.59 10.34
9/24/2021 10:15:00 AM 12.71 54.878 0.062 7.01 16.34 10.33
9/24/2021 10:30:00 AM 12.77 54.986 0.062 7.03 16.4 10.32
9/24/2021 10:45:00 AM 12.82 55.076 0.062 7.03 15.7 10.31
9/24/2021 11:00:00 AM 12.93 55.274 0.062 7.03 15.78 10.3
9/24/2021 11:15:00 AM 13.01 55.418 0.063 7.03 15.78 10.28
9/24/2021 11:30:00 AM 13.12 55.616 0.063 7.04 15.45 10.26
9/24/2021 11:45:00 AM 13.23 55.814 0.063 7.04 15.73 10.24
9/24/2021 12:00:00 PM 13.28 55.904 0.063 7.04 15.3 10.23
9/24/2021 12:15:00 PM 13.36 56.048 0.063 7.04 16.11 10.23
9/24/2021 12:30:00 PM 13.44 56.192 0.063 7.04 15.31 10.21
9/24/2021 12:45:00 PM 13.52 56.336 0.063 7.05 15.7 10.2
9/24/2021 1:00:00 PM 13.62 56.516 0.063 7.05 14.98 10.17
9/24/2021 1:15:00 PM 13.7 56.66 0.063 7.05 14.55 10.16
9/24/2021 1:30:00 PM 13.82 56.876 0.064 7.06 14.19 10.13
9/24/2021 1:45:00 PM 13.92 57.056 0.064 7.05 14.01 10.11
9/24/2021 2:00:00 PM 14.01 57.218 0.064 7.06 13.54 10.1
9/24/2021 2:15:00 PM 14.09 57.362 0.064 7.06 13.28 10.08
9/24/2021 2:30:00 PM 14.18 57.524 0.064 7.07 13.23 10.06
9/24/2021 2:45:00 PM 14.28 57.704 0.064 7.07 13.14 10.03
9/24/2021 3:00:00 PM 14.34 57.812 0.064 7.06 12.76 10.01
9/24/2021 3:15:00 PM 14.38 57.884 0.064 7.07 13.62 9.99
9/24/2021 3:30:00 PM 14.42 57.956 0.064 7.07 13.31 9.98
9/24/2021 3:45:00 PM 14.47 58.046 0.064 7.07 12.64 9.96
9/24/2021 4:00:00 PM 14.49 58.082 0.065 7.07 13.45 9.95
9/24/2021 4:15:00 PM 14.48 58.064 0.065 7.07 13.44 9.94
9/24/2021 4:30:00 PM 14.48 58.064 0.065 7.07 13.07 9.94
9/24/2021 4:45:00 PM 14.49 58.082 0.065 7.07 12.62 9.93
9/24/2021 5:00:00 PM 14.46 58.028 0.065 7.07 12.33 9.92
9/24/2021 5:15:00 PM 14.45 58.01 0.065 7.06 12.97 9.92
9/24/2021 5:30:00 PM 14.41 57.938 0.065 7.07 12.33 9.92
9/24/2021 5:45:00 PM 14.39 57.902 0.065 7.06 12.35 9.92
9/24/2021 6:00:00 PM 14.36 57.848 0.065 7.06 12.28 9.93
9/24/2021 6:15:00 PM 14.32 57.776 0.065 7.06 11.89 9.93
9/24/2021 6:30:00 PM 14.27 57.686 0.066 7.06 12.07 9.94
9/24/2021 6:45:00 PM 14.21 57.578 0.066 7.07 11.6 9.94
9/24/2021 7:00:00 PM 14.15 57.47 0.066 7.07 11.8 9.95
9/24/2021 7:15:00 PM 14.09 57.362 0.066 7.06 11.67 9.96
9/24/2021 7:30:00 PM 14.04 57.272 0.066 7.06 12.12 9.97
9/24/2021 7:45:00 PM 13.97 57.146 0.066 7.06 11.92 9.97
9/24/2021 8:00:00 PM 13.91 57.038 0.066 7.06 11.62 9.98
9/24/2021 8:15:00 PM 13.84 56.912 0.066 7.06 11.7 9.99
9/24/2021 8:30:00 PM 13.78 56.804 0.066 7.06 11.9 10.01
9/24/2021 8:45:00 PM 13.72 56.696 0.066 7.05 11.54 10.02
9/24/2021 9:00:00 PM 13.65 56.57 0.066 7.05 11.14 10.04
9/24/2021 9:15:00 PM 13.59 56.462 0.066 7.05 11.21 10.06
9/24/2021 9:30:00 PM 13.53 56.354 0.067 7.05 10.9 10.07
9/24/2021 9:45:00 PM 13.47 56.246 0.067 7.05 10.69 10.09
9/24/2021 10:00:00 PM 13.42 56.156 0.067 7.06 10.76 10.1
9/24/2021 10:15:00 PM 13.36 56.048 0.067 7.06 11.35 10.11
9/24/2021 10:30:00 PM 13.31 55.958 0.067 7.06 10.69 10.12
9/24/2021 10:45:00 PM 13.26 55.868 0.067 7.06 11.04 10.13
9/24/2021 11:00:00 PM 13.21 55.778 0.067 7.06 10.72 10.13
9/24/2021 11:15:00 PM 13.16 55.688 0.067 7.06 10.62 10.14
9/24/2021 11:30:00 PM 13.11 55.598 0.067 7.05 10.54 10.16
9/24/2021 11:45:00 PM 13.07 55.526 0.067 7.06 10.52 10.18
9/25/2021 12:00:00 AM 13.02 55.436 0.067 7.06 10.48 10.19
9/25/2021 12:15:00 AM 12.98 55.364 0.067 7.06 10.4 10.2
9/25/2021 12:30:00 AM 12.93 55.274 0.067 7.06 9.92 10.22
9/25/2021 12:45:00 AM 12.89 55.202 0.067 7.06 10.19 10.23
9/25/2021 1:00:00 AM 12.85 55.13 0.067 7.06 9.61 10.24
9/25/2021 1:15:00 AM 12.81 55.058 0.068 7.06 9.4 10.25
9/25/2021 1:30:00 AM 12.78 55.004 0.068 7.06 9.28 10.26
9/25/2021 1:45:00 AM 12.74 54.932 0.068 7.07 9.27 10.27
9/25/2021 2:00:00 AM 12.69 54.842 0.068 7.06 9.14 10.28
9/25/2021 2:15:00 AM 12.65 54.77 0.068 7.07 9.02 10.28
9/25/2021 2:30:00 AM 12.61 54.698 0.068 7.06 8.74 10.29
9/25/2021 2:45:00 AM 12.57 54.626 0.068 7.06 8.99 10.29
9/25/2021 3:00:00 AM 12.54 54.572 0.068 7.07 8.53 10.3
9/25/2021 3:15:00 AM 12.5 54.5 0.068 7.06 8.67 10.31
9/25/2021 3:30:00 AM 12.46 54.428 0.068 7.07 8.64 10.32
9/25/2021 3:45:00 AM 12.42 54.356 0.068 7.06 8.27 10.33
9/25/2021 4:00:00 AM 12.39 54.302 0.068 7.07 8.63 10.34
9/25/2021 4:15:00 AM 12.36 54.248 0.069 7.06 8.53 10.35
9/25/2021 4:30:00 AM 12.33 54.194 0.069 7.07 8.66 10.36
9/25/2021 4:45:00 AM 12.3 54.14 0.069 7.06 8.63 10.37
9/25/2021 5:00:00 AM 12.27 54.086 0.069 7.07 8.41 10.38
9/25/2021 5:15:00 AM 12.24 54.032 0.069 7.07 8.39 10.39
9/25/2021 5:30:00 AM 12.21 53.978 0.069 7.07 8.37 10.4
9/25/2021 5:45:00 AM 12.18 53.924 0.069 7.07 8.09 10.41
9/25/2021 6:00:00 AM 12.15 53.87 0.069 7.07 8.05 10.41
9/25/2021 6:15:00 AM 12.13 53.834 0.069 7.07 7.96 10.42
9/25/2021 6:30:00 AM 12.1 53.78 0.069 7.07 7.84 10.43
9/25/2021 6:45:00 AM 12.08 53.744 0.069 7.07 8.02 10.43
9/25/2021 7:00:00 AM 12.06 53.708 0.069 7.07 7.82 10.44
9/25/2021 7:15:00 AM 12.04 53.672 0.069 7.07 7.72 10.44
9/25/2021 7:30:00 AM 12.01 53.618 0.069 7.08 7.82 10.46
9/25/2021 7:45:00 AM 12 53.6 0.07 7.08 7.68 10.46
9/25/2021 8:00:00 AM 11.98 53.564 0.07 7.08 7.38 10.47
9/25/2021 8:15:00 AM 11.97 53.546 0.07 7.08 7.36 10.48
9/25/2021 8:30:00 AM 11.97 53.546 0.07 7.08 7.54 10.49
9/25/2021 8:45:00 AM 11.97 53.546 0.07 7.08 7.03 10.5
9/25/2021 9:00:00 AM 11.97 53.546 0.07 7.09 6.98 10.5
9/25/2021 9:15:00 AM 11.98 53.564 0.07 7.09 7.26 10.51
9/25/2021 9:30:00 AM 12.01 53.618 0.07 7.09 6.94 10.51
9/25/2021 9:45:00 AM 12.05 53.69 0.07 7.09 6.88 10.51
9/25/2021 10:00:00 AM 12.1 53.78 0.07 7.1 7.06 10.51
9/25/2021 10:15:00 AM 12.17 53.906 0.07 7.1 6.81 10.5
9/25/2021 10:30:00 AM 12.24 54.032 0.07 7.11 7.05 10.48
9/25/2021 10:45:00 AM 12.33 54.194 0.07 7.11 6.73 10.46
9/25/2021 11:00:00 AM 12.41 54.338 0.07 7.12 6.79 10.45
9/25/2021 11:15:00 AM 12.51 54.518 0.07 7.12 6.7 10.42
9/25/2021 11:30:00 AM 12.62 54.716 0.07 7.12 6.56 10.41
9/25/2021 11:45:00 AM 12.74 54.932 0.071 7.13 6.6 10.39
9/25/2021 12:00:00 PM 12.88 55.184 0.071 7.13 6.33 10.37
9/25/2021 12:15:00 PM 13.03 55.454 0.071 7.14 6.46 10.34
9/25/2021 12:30:00 PM 13.17 55.706 0.071 7.14 6.89 10.3
9/25/2021 12:45:00 PM 13.32 55.976 0.071 7.15 6.57 10.27
9/25/2021 1:00:00 PM 13.46 56.228 0.071 7.15 6.37 10.25
9/25/2021 1:15:00 PM 13.59 56.462 0.071 7.16 6.44 10.22
9/25/2021 1:30:00 PM 13.7 56.66 0.071 7.16 6.64 10.19
9/25/2021 1:45:00 PM 13.82 56.876 0.071 7.16 6.55 10.15
9/25/2021 2:00:00 PM 13.9 57.02 0.071 7.16 6.36 10.13
9/25/2021 2:15:00 PM 14 57.2 0.071 7.16 6.6 10.12
9/25/2021 2:30:00 PM 14.1 57.38 0.071 7.17 6.35 10.09
9/25/2021 2:45:00 PM 14.21 57.578 0.071 7.17 6.37 10.06
9/25/2021 3:00:00 PM 14.31 57.758 0.071 7.17 6.52 10.03
9/25/2021 3:15:00 PM 14.39 57.902 0.071 7.17 6.41 10
9/25/2021 3:30:00 PM 14.46 58.028 0.071 7.17 6.23 9.97
9/25/2021 3:45:00 PM 14.47 58.046 0.071 7.17 6.69 9.95
9/25/2021 4:00:00 PM 14.5 58.1 0.072 7.17 6.52 9.94
9/25/2021 4:15:00 PM 14.5 58.1 0.072 7.17 6.71 9.93
9/25/2021 4:30:00 PM 14.5 58.1 0.072 7.17 6.35 9.92
9/25/2021 4:45:00 PM 14.5 58.1 0.072 7.16 6.39 9.91
9/25/2021 5:00:00 PM 14.49 58.082 0.072 7.17 6.17 9.91
9/25/2021 5:15:00 PM 14.48 58.064 0.072 7.17 5.98 9.9
9/25/2021 5:30:00 PM 14.49 58.082 0.072 7.17 6.12 9.89
9/25/2021 5:45:00 PM 14.48 58.064 0.072 7.17 6.18 9.89
9/25/2021 6:00:00 PM 14.45 58.01 0.072 7.16 6.05 9.88
9/25/2021 6:15:00 PM 14.41 57.938 0.072 7.16 6.15 9.88
9/25/2021 6:30:00 PM 14.38 57.884 0.072 7.16 6.11 9.88
9/25/2021 6:45:00 PM 14.33 57.794 0.072 7.15 6.16 9.89
9/25/2021 7:00:00 PM 14.29 57.722 0.072 7.15 6.17 9.88
9/25/2021 7:15:00 PM 14.24 57.632 0.072 7.15 6.19 9.89
9/25/2021 7:30:00 PM 14.19 57.542 0.072 7.15 6.16 9.9
9/25/2021 7:45:00 PM 14.14 57.452 0.072 7.14 6.3 9.9
9/25/2021 8:00:00 PM 14.08 57.344 0.073 7.14 6.24 9.91
9/25/2021 8:15:00 PM 14.03 57.254 0.073 7.14 6.25 9.92
9/25/2021 8:30:00 PM 13.98 57.164 0.073 7.14 6.6 9.93
9/25/2021 8:45:00 PM 13.92 57.056 0.073 7.14 6.14 9.93
9/25/2021 9:00:00 PM 13.87 56.966 0.073 7.14 6.19 9.94
9/25/2021 9:15:00 PM 13.82 56.876 0.073 7.14 6.43 9.95
9/25/2021 9:30:00 PM 13.78 56.804 0.073 7.14 6 9.96
9/25/2021 9:45:00 PM 13.74 56.732 0.073 7.14 6.23 9.98
9/25/2021 10:00:00 PM 13.7 56.66 0.073 7.14 6.18 9.99
9/25/2021 10:15:00 PM 13.67 56.606 0.073 7.14 6.07 10
9/25/2021 10:30:00 PM 13.63 56.534 0.073 7.14 6.1 10.01
9/25/2021 10:45:00 PM 13.6 56.48 0.073 7.14 5.93 10.02
9/25/2021 11:00:00 PM 13.57 56.426 0.073 7.14 6.02 10.03
9/25/2021 11:15:00 PM 13.54 56.372 0.073 7.14 6.01 10.04
9/25/2021 11:30:00 PM 13.52 56.336 0.073 7.14 6.01 10.05
9/25/2021 11:45:00 PM 13.49 56.282 0.073 7.14 5.9 10.06
9/26/2021 12:00:00 AM 13.47 56.246 0.073 7.14 6.07 10.06
9/26/2021 12:15:00 AM 13.45 56.21 0.073 7.14 5.94 10.07
9/26/2021 12:30:00 AM 13.44 56.192 0.073 7.14 6.02 10.07
9/26/2021 12:45:00 AM 13.42 56.156 0.073 7.14 6.05 10.07
9/26/2021 1:00:00 AM 13.41 56.138 0.073 7.14 6 10.08
9/26/2021 1:15:00 AM 13.4 56.12 0.073 7.14 6.05 10.08
9/26/2021 1:30:00 AM 13.38 56.084 0.074 7.14 6.05 10.09
9/26/2021 1:45:00 AM 13.36 56.048 0.074 7.14 5.99 10.09
9/26/2021 2:00:00 AM 13.33 55.994 0.074 7.14 5.9 10.09
9/26/2021 2:15:00 AM 13.3 55.94 0.074 7.14 6.02 10.1
9/26/2021 2:30:00 AM 13.27 55.886 0.074 7.14 5.92 10.1
9/26/2021 2:45:00 AM 13.24 55.832 0.074 7.14 5.97 10.1
9/26/2021 3:00:00 AM 13.21 55.778 0.074 7.14 5.99 10.1
9/26/2021 3:15:00 AM 13.18 55.724 0.074 7.14 6.17 10.11
9/26/2021 3:30:00 AM 13.15 55.67 0.074 7.15 6.05 10.12
9/26/2021 3:45:00 AM 13.12 55.616 0.074 7.15 6.18 10.13
9/26/2021 4:00:00 AM 13.09 55.562 0.074 7.15 5.74 10.14
9/26/2021 4:15:00 AM 13.06 55.508 0.074 7.15 5.67 10.15
9/26/2021 4:30:00 AM 13.04 55.472 0.074 7.15 5.62 10.16
9/26/2021 4:45:00 AM 13.02 55.436 0.074 7.15 5.38 10.16
9/26/2021 5:00:00 AM 13 55.4 0.074 7.16 5.46 10.17
9/26/2021 5:15:00 AM 12.97 55.346 0.074 7.16 5.55 10.18
9/26/2021 5:30:00 AM 12.94 55.292 0.074 7.16 5.33 10.19
9/26/2021 5:45:00 AM 12.9 55.22 0.075 7.16 5.17 10.19
9/26/2021 6:00:00 AM 12.87 55.166 0.075 7.16 5.27 10.2
9/26/2021 6:15:00 AM 12.84 55.112 0.075 7.16 5.32 10.22
9/26/2021 6:30:00 AM 12.81 55.058 0.075 7.16 5.41 10.22
9/26/2021 6:45:00 AM 12.78 55.004 0.075 7.17 5.31 10.23
9/26/2021 7:00:00 AM 12.75 54.95 0.075 7.17 5.27 10.24
9/26/2021 7:15:00 AM 12.73 54.914 0.075 7.17 5.34 10.24
9/26/2021 7:30:00 AM 12.71 54.878 0.075 7.17 5.36 10.25
9/26/2021 7:45:00 AM 12.68 54.824 0.075 7.17 5.2 10.26
9/26/2021 8:00:00 AM 12.67 54.806 0.075 7.17 4.88 10.27
9/26/2021 8:15:00 AM 12.65 54.77 0.075 7.17 4.95 10.29
9/26/2021 8:30:00 AM 12.64 54.752 0.075 7.18 4.74 10.3
9/26/2021 8:45:00 AM 12.63 54.734 0.075 7.18 4.75 10.31
9/26/2021 9:00:00 AM 12.62 54.716 0.075 7.19 4.81 10.32
9/26/2021 9:15:00 AM 12.61 54.698 0.075 7.19 4.51 10.32
9/26/2021 9:30:00 AM 12.61 54.698 0.076 7.19 4.54 10.33
9/26/2021 9:45:00 AM 12.64 54.752 0.076 7.19 4.66 10.33
9/26/2021 10:00:00 AM 12.67 54.806 0.076 7.19 4.61 10.34
9/26/2021 10:15:00 AM 12.72 54.896 0.076 7.2 4.62 10.33
9/26/2021 10:30:00 AM 12.79 55.022 0.076 7.2 4.42 10.33
9/26/2021 10:45:00 AM 12.88 55.184 0.076 7.2 4.29 10.31
9/26/2021 11:00:00 AM 12.97 55.346 0.076 7.21 4.43 10.3
9/26/2021 11:15:00 AM 13.06 55.508 0.076 7.21 4.38 10.28
9/26/2021 11:30:00 AM 13.16 55.688 0.076 7.21 4.34 10.26
9/26/2021 11:45:00 AM 13.26 55.868 0.076 7.22 4.27 10.24
9/26/2021 12:00:00 PM 13.36 56.048 0.076 7.22 4.39 10.24
9/26/2021 12:15:00 PM 13.46 56.228 0.076 7.23 4.4 10.23
9/26/2021 12:30:00 PM 13.58 56.444 0.076 7.23 4.56 10.2
9/26/2021 12:45:00 PM 13.67 56.606 0.076 7.23 4.26 10.17
9/26/2021 1:00:00 PM 13.82 56.876 0.076 7.23 4.24 10.14
9/26/2021 1:15:00 PM 13.93 57.074 0.076 7.24 4.34 10.12
9/26/2021 1:30:00 PM 14.03 57.254 0.076 7.24 4.29 10.11
9/26/2021 1:45:00 PM 14.1 57.38 0.076 7.24 4.23 10.07
9/26/2021 2:00:00 PM 14.17 57.506 0.076 7.24 4.42 10.05
9/26/2021 2:15:00 PM 14.22 57.596 0.077 7.24 4.2 10.05
9/26/2021 2:30:00 PM 14.3 57.74 0.077 7.24 4.22 10.01
9/26/2021 2:45:00 PM 14.42 57.956 0.077 7.25 4.24 9.99
9/26/2021 3:00:00 PM 14.55 58.19 0.077 7.25 4.38 9.96
9/26/2021 3:15:00 PM 14.64 58.352 0.077 7.25 4.16 9.95
9/26/2021 3:30:00 PM 14.7 58.46 0.077 7.25 4.13 9.92
9/26/2021 3:45:00 PM 14.7 58.46 0.077 7.25 4.25 9.9
9/26/2021 4:00:00 PM 14.73 58.514 0.077 7.25 4.27 9.9
9/26/2021 4:15:00 PM 14.79 58.622 0.077 7.25 4.15 9.9
9/26/2021 4:30:00 PM 14.79 58.622 0.077 7.25 4.13 9.89
9/26/2021 4:45:00 PM 14.78 58.604 0.077 7.25 4.14 9.88
9/26/2021 5:00:00 PM 14.74 58.532 0.077 7.25 4.08 9.86
9/26/2021 5:15:00 PM 14.71 58.478 0.077 7.24 4.2 9.86
9/26/2021 5:30:00 PM 14.66 58.388 0.077 7.24 4.22 9.85
9/26/2021 5:45:00 PM 14.62 58.316 0.077 7.24 4.18 9.85
9/26/2021 6:00:00 PM 14.57 58.226 0.077 7.23 4.18 9.84
9/26/2021 6:15:00 PM 14.5 58.1 0.077 7.23 4.16 9.84
9/26/2021 6:30:00 PM 14.44 57.992 0.077 7.22 4.44 9.84
9/26/2021 6:45:00 PM 14.38 57.884 0.077 7.22 4.22 9.86
9/26/2021 7:00:00 PM 14.33 57.794 0.077 7.22 4.24 9.87
9/26/2021 7:15:00 PM 14.27 57.686 0.077 7.22 4.34 9.88
9/26/2021 7:30:00 PM 14.21 57.578 0.077 7.21 4.51 9.88
9/26/2021 7:45:00 PM 14.14 57.452 0.077 7.21 4.38 9.89
9/26/2021 8:00:00 PM 14.07 57.326 0.077 7.21 4.37 9.91
9/26/2021 8:15:00 PM 14 57.2 0.077 7.21 4.35 9.92
9/26/2021 8:30:00 PM 13.93 57.074 0.078 7.21 4.37 9.93
9/26/2021 8:45:00 PM 13.87 56.966 0.078 7.21 4.28 9.94
9/26/2021 9:00:00 PM 13.8 56.84 0.078 7.2 4.36 9.95
9/26/2021 9:15:00 PM 13.73 56.714 0.078 7.2 4.36 9.97
9/26/2021 9:30:00 PM 13.67 56.606 0.078 7.2 4.41 9.99
9/26/2021 9:45:00 PM 13.6 56.48 0.078 7.2 4.5 10.02
9/26/2021 10:00:00 PM 13.55 56.39 0.078 7.2 4.43 10.03
9/26/2021 10:15:00 PM 13.5 56.3 0.078 7.2 4.71 10.05
9/26/2021 10:30:00 PM 13.45 56.21 0.078 7.2 4.48 10.06
9/26/2021 10:45:00 PM 13.4 56.12 0.078 7.2 4.56 10.07
9/26/2021 11:00:00 PM 13.35 56.03 0.078 7.2 4.67 10.08
9/26/2021 11:15:00 PM 13.29 55.922 0.078 7.2 4.76 10.09
9/26/2021 11:30:00 PM 13.24 55.832 0.078 7.2 4.66 10.1
9/26/2021 11:45:00 PM 13.18 55.724 0.078 7.2 4.47 10.11
9/27/2021 12:00:00 AM 13.13 55.634 0.078 7.2 4.33 10.12
9/27/2021 12:15:00 AM 13.08 55.544 0.078 7.2 4.43 10.14
9/27/2021 12:30:00 AM 13.03 55.454 0.078 7.2 4.47 10.15
9/27/2021 12:45:00 AM 12.97 55.346 0.078 7.2 4.5 10.17
9/27/2021 1:00:00 AM 12.92 55.256 0.078 7.2 4.43 10.19
9/27/2021 1:15:00 AM 12.87 55.166 0.078 7.2 4.5 10.2
9/27/2021 1:30:00 AM 12.83 55.094 0.078 7.2 4.47 10.21
9/27/2021 1:45:00 AM 12.79 55.022 0.078 7.2 4.29 10.22
9/27/2021 2:00:00 AM 12.76 54.968 0.078 7.2 4.24 10.23
9/27/2021 2:15:00 AM 12.72 54.896 0.079 7.2 4.2 10.24
9/27/2021 2:30:00 AM 12.68 54.824 0.079 7.2 4.36 10.25
9/27/2021 2:45:00 AM 12.64 54.752 0.079 7.2 4.26 10.25
9/27/2021 3:00:00 AM 12.61 54.698 0.079 7.2 4.36 10.26
9/27/2021 3:15:00 AM 12.58 54.644 0.079 7.2 4.29 10.26
9/27/2021 3:30:00 AM 12.55 54.59 0.079 7.2 4.09 10.27
9/27/2021 3:45:00 AM 12.52 54.536 0.079 7.2 4.09 10.27
9/27/2021 4:00:00 AM 12.5 54.5 0.079 7.2 4.08 10.28
9/27/2021 4:15:00 AM 12.48 54.464 0.079 7.2 4.11 10.29
9/27/2021 4:30:00 AM 12.46 54.428 0.079 7.2 3.9 10.29
9/27/2021 4:45:00 AM 12.45 54.41 0.079 7.2 4.03 10.3
9/27/2021 5:00:00 AM 12.44 54.392 0.079 7.2 4.15 10.31
9/27/2021 5:15:00 AM 12.42 54.356 0.079 7.2 3.9 10.31
9/27/2021 5:30:00 AM 12.42 54.356 0.079 7.2 4.01 10.32
9/27/2021 5:45:00 AM 12.41 54.338 0.079 7.21 4.13 10.32
9/27/2021 6:00:00 AM 12.4 54.32 0.079 7.21 4.1 10.33
9/27/2021 6:15:00 AM 12.39 54.302 0.079 7.21 4.09 10.33
9/27/2021 6:30:00 AM 12.38 54.284 0.079 7.21 4.12 10.33
9/27/2021 6:45:00 AM 12.37 54.266 0.079 7.21 4.13 10.33
9/27/2021 7:00:00 AM 12.35 54.23 0.079 7.21 4.02 10.34
9/27/2021 7:15:00 AM 12.33 54.194 0.079 7.2 4.16 10.35
9/27/2021 7:30:00 AM 12.32 54.176 0.079 7.2 4.32 10.36
9/27/2021 7:45:00 AM 12.31 54.158 0.08 7.2 3.98 10.37
9/27/2021 8:00:00 AM 12.3 54.14 0.08 7.2 3.99 10.38
9/27/2021 8:15:00 AM 12.29 54.122 0.08 7.21 3.96 10.38
9/27/2021 8:30:00 AM 12.29 54.122 0.08 7.21 3.89 10.4
9/27/2021 8:45:00 AM 12.3 54.14 0.08 7.22 3.89 10.41
9/27/2021 9:00:00 AM 12.32 54.176 0.08 7.22 3.9 10.4
9/27/2021 9:15:00 AM 12.36 54.248 0.08 7.22 3.96 10.41
9/27/2021 9:30:00 AM 12.41 54.338 0.08 7.23 3.84 10.41
9/27/2021 9:45:00 AM 12.48 54.464 0.08 7.23 3.68 10.41
9/27/2021 10:00:00 AM 12.54 54.572 0.08 7.24 3.62 10.4
9/27/2021 10:15:00 AM 12.6 54.68 0.08 7.24 3.78 10.39
9/27/2021 10:30:00 AM 12.66 54.788 0.08 7.24 3.66 10.39
9/27/2021 10:45:00 AM 12.73 54.914 0.08 7.25 3.46 10.39
9/27/2021 11:00:00 AM 12.81 55.058 0.08 7.25 3.46 10.37
9/27/2021 11:15:00 AM 12.89 55.202 0.08 7.26 3.57 10.36
9/27/2021 11:30:00 AM 13 55.4 0.08 7.26 3.52 10.34
9/27/2021 11:45:00 AM 13.11 55.598 0.08 7.27 3.43 10.31
9/27/2021 12:00:00 PM 13.18 55.724 0.08 7.27 3.41 10.28
9/27/2021 12:15:00 PM 13.32 55.976 0.08 7.28 3.45 10.27
9/27/2021 12:30:00 PM 13.48 56.264 0.08 7.28 3.38 10.25
9/27/2021 12:45:00 PM 13.62 56.516 0.08 7.28 3.42 10.21
9/27/2021 1:00:00 PM 13.78 56.804 0.08 7.29 3.43 10.16
9/27/2021 1:15:00 PM 13.9 57.02 0.08 7.29 3.5 10.14
9/27/2021 1:30:00 PM 14.02 57.236 0.08 7.29 3.53 10.12
9/27/2021 1:45:00 PM 14.14 57.452 0.08 7.29 3.36 10.09
9/27/2021 2:00:00 PM 14.3 57.74 0.081 7.29 3.37 10.06
9/27/2021 2:15:00 PM 14.44 57.992 0.081 7.3 3.37 10.02
9/27/2021 2:30:00 PM 14.56 58.208 0.081 7.3 3.4 9.99
9/27/2021 2:45:00 PM 14.67 58.406 0.081 7.3 3.46 9.98
9/27/2021 3:00:00 PM 14.77 58.586 0.081 7.3 3.45 9.96
9/27/2021 3:15:00 PM 14.9 58.82 0.081 7.31 3.46 9.92
9/27/2021 3:30:00 PM 15.02 59.036 0.081 7.31 3.28 9.88
9/27/2021 3:45:00 PM 15.12 59.216 0.081 7.31 3.43 9.85
9/27/2021 4:00:00 PM 15.21 59.378 0.081 7.31 3.42 9.82
9/27/2021 4:15:00 PM 15.25 59.45 0.081 7.31 3.51 9.8
9/27/2021 4:30:00 PM 15.3 59.54 0.081 7.31 3.39 9.79
9/27/2021 4:45:00 PM 15.34 59.612 0.081 7.3 3.39 9.76
9/27/2021 5:00:00 PM 15.34 59.612 0.081 7.3 3.47 9.74
9/27/2021 5:15:00 PM 15.33 59.594 0.081 7.3 3.49 9.73
9/27/2021 5:30:00 PM 15.31 59.558 0.081 7.29 3.31 9.72
9/27/2021 5:45:00 PM 15.28 59.504 0.081 7.29 3.61 9.71
9/27/2021 6:00:00 PM 15.26 59.468 0.081 7.28 3.49 9.7
9/27/2021 6:15:00 PM 15.24 59.432 0.081 7.27 3.43 9.68
9/27/2021 6:30:00 PM 15.21 59.378 0.081 7.27 3.41 9.67
9/27/2021 6:45:00 PM 15.18 59.324 0.081 7.26 3.47 9.66
9/27/2021 7:00:00 PM 15.14 59.252 0.081 7.26 3.43 9.66
9/27/2021 7:15:00 PM 15.11 59.198 0.082 7.25 3.72 9.65
9/27/2021 7:30:00 PM 15.07 59.126 0.082 7.25 3.7 9.65
9/27/2021 7:45:00 PM 15.02 59.036 0.082 7.24 3.58 9.66
9/27/2021 8:00:00 PM 14.97 58.946 0.082 7.24 3.53 9.67
9/27/2021 8:15:00 PM 14.92 58.856 0.082 7.24 3.62 9.68
9/27/2021 8:30:00 PM 14.87 58.766 0.082 7.24 3.66 9.69
9/27/2021 8:45:00 PM 14.82 58.676 0.082 7.24 3.79 9.71
9/27/2021 9:00:00 PM 14.77 58.586 0.082 7.23 3.62 9.72
9/27/2021 9:15:00 PM 14.72 58.496 0.082 7.24 3.63 9.73
9/27/2021 9:30:00 PM 14.67 58.406 0.082 7.23 3.85 9.74
9/27/2021 9:45:00 PM 14.62 58.316 0.082 7.24 3.79 9.74
9/27/2021 10:00:00 PM 14.56 58.208 0.082 7.24 3.8 9.75
9/27/2021 10:15:00 PM 14.51 58.118 0.082 7.24 3.91 9.75
9/27/2021 10:30:00 PM 14.46 58.028 0.082 7.24 3.87 9.77
9/27/2021 10:45:00 PM 14.41 57.938 0.082 7.23 3.8 9.79
9/27/2021 11:00:00 PM 14.36 57.848 0.082 7.24 4.01 9.8
9/27/2021 11:15:00 PM 14.3 57.74 0.082 7.23 3.94 9.81
9/27/2021 11:30:00 PM 14.25 57.65 0.082 7.23 3.93 9.82
9/27/2021 11:45:00 PM 14.21 57.578 0.082 7.24 3.74 9.85
9/28/2021 12:00:00 AM 14.16 57.488 0.082 7.24 3.77 9.85
9/28/2021 12:15:00 AM 14.12 57.416 0.082 7.23 3.77 9.87
9/28/2021 12:30:00 AM 14.07 57.326 0.082 7.23 3.76 9.88
9/28/2021 12:45:00 AM 14.03 57.254 0.082 7.23 3.68 9.89
9/28/2021 1:00:00 AM 13.99 57.182 0.083 7.24 3.72 9.89
9/28/2021 1:15:00 AM 13.95 57.11 0.083 7.24 3.66 9.9
9/28/2021 1:30:00 AM 13.91 57.038 0.083 7.23 3.66 9.9
9/28/2021 1:45:00 AM 13.88 56.984 0.083 7.23 3.71 9.91
9/28/2021 2:00:00 AM 13.85 56.93 0.083 7.23 3.71 9.92
9/28/2021 2:15:00 AM 13.82 56.876 0.083 7.23 3.76 9.93
9/28/2021 2:30:00 AM 13.79 56.822 0.083 7.24 3.66 9.93
9/28/2021 2:45:00 AM 13.77 56.786 0.083 7.23 3.59 9.94
9/28/2021 3:00:00 AM 13.74 56.732 0.083 7.23 3.72 9.94
9/28/2021 3:15:00 AM 13.72 56.696 0.083 7.24 3.61 9.95
9/28/2021 3:30:00 AM 13.7 56.66 0.083 7.24 3.72 9.96
9/28/2021 3:45:00 AM 13.69 56.642 0.083 7.24 3.54 9.96
9/28/2021 4:00:00 AM 13.66 56.588 0.083 7.24 3.62 9.97
9/28/2021 4:15:00 AM 13.64 56.552 0.083 7.24 3.73 9.97
9/28/2021 4:30:00 AM 13.62 56.516 0.083 7.23 3.59 9.98
9/28/2021 4:45:00 AM 13.6 56.48 0.083 7.23 12.92 9.98
9/28/2021 5:00:00 AM 13.58 56.444 0.083 7.23 3.82 9.99
9/28/2021 5:15:00 AM 13.56 56.408 0.083 7.23 3.51 10
9/28/2021 5:30:00 AM 13.53 56.354 0.083 7.23 3.56 10.01
9/28/2021 5:45:00 AM 13.51 56.318 0.083 7.23 3.61 10.01
9/28/2021 6:00:00 AM 13.48 56.264 0.083 7.23 3.58 10.01
9/28/2021 6:15:00 AM 13.46 56.228 0.083 7.23 3.56 10.02
9/28/2021 6:30:00 AM 13.44 56.192 0.083 7.23 3.51 10.03
9/28/2021 6:45:00 AM 13.43 56.174 0.084 7.23 3.46 10.03
9/28/2021 7:00:00 AM 13.41 56.138 0.084 7.23 3.57 10.04
9/28/2021 7:15:00 AM 13.4 56.12 0.084 7.23 3.57 10.04
9/28/2021 7:30:00 AM 13.4 56.12 0.084 7.24 3.42 10.05
9/28/2021 7:45:00 AM 13.4 56.12 0.084 7.24 3.59 10.05
9/28/2021 8:00:00 AM 13.4 56.12 0.084 7.24 3.4 10.06
9/28/2021 8:15:00 AM 13.4 56.12 0.084 7.24 3.62 10.06
9/28/2021 8:30:00 AM 13.4 56.12 0.084 7.24 3.65 10.07
9/28/2021 8:45:00 AM 13.41 56.138 0.084 7.24 3.54 10.07
9/28/2021 9:00:00 AM 13.41 56.138 0.084 7.24 3.34 10.07
9/28/2021 9:15:00 AM 13.42 56.156 0.084 7.24 3.33 10.06
9/28/2021 9:30:00 AM 13.42 56.156 0.084 7.24 3.31 10.07
9/28/2021 9:45:00 AM 13.43 56.174 0.084 7.24 3.38 10.06
9/28/2021 10:00:00 AM 13.44 56.192 0.084 7.24 3.44 10.06
9/28/2021 10:15:00 AM 13.45 56.21 0.083 7.24 3.67 10.06
9/28/2021 10:30:00 AM 13.46 56.228 0.083 7.23 3.86 10.06
9/28/2021 10:45:00 AM 13.47 56.246 0.083 7.23 3.7 10.06
9/28/2021 11:00:00 AM 13.49 56.282 0.083 7.23 3.81 10.07
9/28/2021 11:15:00 AM 13.51 56.318 0.083 7.23 4.29 10.06
9/28/2021 11:30:00 AM 13.56 56.408 0.083 7.24 4.36 10.09
9/28/2021 11:45:00 AM 13.64 56.552 0.083 7.24 4.15 10.1
9/28/2021 12:00:00 PM -99999.99 -179968 -99999.99 -99999.99 -99999.99 -99999.99
9/28/2021 12:15:00 PM 13.83 56.894 0.084 7.13 2.15 10.13
9/28/2021 12:30:00 PM 13.85 56.93 0.084 7.14 2.38 10.12
9/28/2021 12:45:00 PM 13.89 57.002 0.085 7.12 2.41 10.12
9/28/2021 1:00:00 PM 13.96 57.128 0.085 7.1 2.61 10.12
9/28/2021 1:15:00 PM 14 57.2 0.085 7 3.03 10.13
9/28/2021 1:30:00 PM 14.03 57.254 0.086 6.88 4.91 10.12
9/28/2021 1:45:00 PM 14.07 57.326 0.087 6.88 7.86 10.11
9/28/2021 2:00:00 PM 14.09 57.362 0.088 6.91 11.57 10.09
9/28/2021 2:15:00 PM 14.13 57.434 0.089 6.99 13.16 10.06
9/28/2021 2:30:00 PM 14.16 57.488 0.09 7.11 13.34 10.03
9/28/2021 2:45:00 PM 14.18 57.524 0.091 7.18 13.89 10.02
9/28/2021 3:00:00 PM 14.21 57.578 0.092 7.2 14.2 10.01
9/28/2021 3:15:00 PM 14.23 57.614 0.091 7.21 14.84 10.01
9/28/2021 3:30:00 PM 14.26 57.668 0.09 7.22 15.3 10
9/28/2021 3:45:00 PM 14.3 57.74 0.091 7.22 15.56 9.99
9/28/2021 4:00:00 PM 14.35 57.83 0.091 7.22 15.38 9.99
9/28/2021 4:15:00 PM 14.43 57.974 0.092 7.23 15.29 9.99
9/28/2021 4:30:00 PM 14.54 58.172 0.093 7.25 15.18 9.97
9/28/2021 4:45:00 PM 14.57 58.226 0.093 7.25 14.81 9.95
9/28/2021 5:00:00 PM 14.58 58.244 0.093 7.25 13.88 9.93
9/28/2021 5:15:00 PM 14.61 58.298 0.093 7.25 13.78 9.91
9/28/2021 5:30:00 PM 14.62 58.316 0.093 7.26 13.45 9.9
9/28/2021 5:45:00 PM 14.62 58.316 0.093 7.26 13.24 9.88
9/28/2021 6:00:00 PM 14.61 58.298 0.092 7.24 13.16 9.88
9/28/2021 6:15:00 PM 14.58 58.244 0.092 7.25 12.89 9.88
9/28/2021 6:30:00 PM 14.54 58.172 0.092 7.24 11.99 9.88
9/28/2021 6:45:00 PM 14.49 58.082 0.092 7.24 11.52 9.89
9/28/2021 7:00:00 PM 14.45 58.01 0.092 7.24 10.17 9.89
9/28/2021 7:15:00 PM 14.4 57.92 0.092 7.24 9.39 9.9
9/28/2021 7:30:00 PM 14.35 57.83 0.093 7.23 8.81 9.91
9/28/2021 7:45:00 PM 14.29 57.722 0.093 7.24 7.95 9.92
9/28/2021 8:00:00 PM 14.24 57.632 0.094 7.23 7.29 9.93
9/28/2021 8:15:00 PM 14.2 57.56 0.094 7.23 6.89 9.94
9/28/2021 8:30:00 PM 14.16 57.488 0.093 7.22 6.62 9.95
9/28/2021 8:45:00 PM 14.12 57.416 0.093 7.23 5.91 9.96
9/28/2021 9:00:00 PM 14.08 57.344 0.093 7.22 5.68 9.97
9/28/2021 9:15:00 PM 14.03 57.254 0.092 7.22 5.37 9.99
9/28/2021 9:30:00 PM 13.97 57.146 0.092 7.22 5.27 10
9/28/2021 9:45:00 PM 13.93 57.074 0.091 7.22 5.12 10.01
9/28/2021 10:00:00 PM 13.88 56.984 0.091 7.22 4.85 10.03
9/28/2021 10:15:00 PM 13.82 56.876 0.09 7.22 4.72 10.05
9/28/2021 10:30:00 PM 13.77 56.786 0.09 7.21 4.4 10.06
9/28/2021 10:45:00 PM 13.71 56.678 0.09 7.22 4.34 10.07
9/28/2021 11:00:00 PM 13.66 56.588 0.09 7.21 4.19 10.09
9/28/2021 11:15:00 PM 13.61 56.498 0.09 7.21 4.03 10.1
9/28/2021 11:30:00 PM 13.55 56.39 0.09 7.2 3.95 10.12
9/28/2021 11:45:00 PM 13.5 56.3 0.09 7.21 3.93 10.13
9/29/2021 12:00:00 AM 13.45 56.21 0.09 7.21 3.83 10.15
9/29/2021 12:15:00 AM 13.4 56.12 0.09 7.2 3.61 10.16
9/29/2021 12:30:00 AM 13.35 56.03 0.09 7.21 3.52 10.17
9/29/2021 12:45:00 AM 13.29 55.922 0.09 7.21 3.58 10.19
9/29/2021 1:00:00 AM 13.25 55.85 0.09 7.21 3.44 10.2
9/29/2021 1:15:00 AM 13.2 55.76 0.09 7.21 3.21 10.21
9/29/2021 1:30:00 AM 13.16 55.688 0.09 7.21 3.07 10.22
9/29/2021 1:45:00 AM 13.12 55.616 0.09 7.21 3.05 10.24
9/29/2021 2:00:00 AM 13.08 55.544 0.09 7.22 3.13 10.24
9/29/2021 2:15:00 AM 13.04 55.472 0.09 7.21 2.82 10.26
9/29/2021 2:30:00 AM 12.99 55.382 0.09 7.22 2.83 10.27
9/29/2021 2:45:00 AM 12.94 55.292 0.09 7.21 2.79 10.28
9/29/2021 3:00:00 AM 12.89 55.202 0.09 7.21 2.88 10.29
9/29/2021 3:15:00 AM 12.84 55.112 0.09 7.21 2.81 10.3
9/29/2021 3:30:00 AM 12.79 55.022 0.09 7.21 2.6 10.31
9/29/2021 3:45:00 AM 12.74 54.932 0.09 7.2 2.54 10.33
9/29/2021 4:00:00 AM 12.68 54.824 0.09 7.21 2.54 10.34
9/29/2021 4:15:00 AM 12.64 54.752 0.09 7.22 2.49 10.35
9/29/2021 4:30:00 AM 12.59 54.662 0.09 7.22 2.42 10.37
9/29/2021 4:45:00 AM 12.54 54.572 0.09 7.22 2.43 10.38
9/29/2021 5:00:00 AM 12.5 54.5 0.09 7.21 2.45 10.39
9/29/2021 5:15:00 AM 12.45 54.41 0.09 7.16 2.3 10.4
9/29/2021 5:30:00 AM 12.41 54.338 0.09 7.06 2.41 10.42
9/29/2021 5:45:00 AM 12.37 54.266 0.09 7.11 2.28 10.43
9/29/2021 6:00:00 AM 12.34 54.212 0.09 7.15 2.35 10.44
9/29/2021 6:15:00 AM 12.32 54.176 0.09 7.18 2.29 10.44
9/29/2021 6:30:00 AM 12.28 54.104 0.09 7.17 2.19 10.46
9/29/2021 6:45:00 AM 12.25 54.05 0.09 7.17 2.22 10.46
9/29/2021 7:00:00 AM 12.22 53.996 0.09 7.19 2.14 10.48
9/29/2021 7:15:00 AM 12.19 53.942 0.09 7.19 2.27 10.49
9/29/2021 7:30:00 AM 12.16 53.888 0.09 7.19 2.16 10.5
9/29/2021 7:45:00 AM 12.13 53.834 0.09 7.2 2.02 10.52
9/29/2021 8:00:00 AM 12.09 53.762 0.09 7.2 1.99 10.54
9/29/2021 8:15:00 AM 12.06 53.708 0.09 7.21 1.96 10.56
9/29/2021 8:30:00 AM 12.03 53.654 0.09 7.2 1.88 10.57
9/29/2021 8:45:00 AM 12 53.6 0.09 7.21 1.85 10.59
9/29/2021 9:00:00 AM 11.99 53.582 0.09 7.22 1.78 10.6
9/29/2021 9:15:00 AM 11.99 53.582 0.09 7.22 1.77 10.62
9/29/2021 9:30:00 AM 12.01 53.618 0.09 7.23 1.72 10.63
9/29/2021 9:45:00 AM 12.04 53.672 0.09 7.24 1.69 10.64
9/29/2021 10:00:00 AM 12.08 53.744 0.09 7.24 1.68 10.64
9/29/2021 10:15:00 AM 12.13 53.834 0.09 7.25 1.68 10.64
9/29/2021 10:30:00 AM 12.19 53.942 0.09 7.24 1.56 10.64
9/29/2021 10:45:00 AM 12.27 54.086 0.09 7.25 1.62 10.63
9/29/2021 11:00:00 AM 12.38 54.284 0.09 7.26 1.52 10.62
9/29/2021 11:15:00 AM 12.52 54.536 0.09 7.27 1.61 10.6
9/29/2021 11:30:00 AM 12.66 54.788 0.09 7.28 1.44 10.58
9/29/2021 11:45:00 AM 12.8 55.04 0.09 7.28 1.51 10.56
9/29/2021 12:00:00 PM 12.93 55.274 0.09 7.28 1.38 10.53
9/29/2021 12:15:00 PM 13.04 55.472 0.09 7.28 1.39 10.51
9/29/2021 12:30:00 PM 13.16 55.688 0.09 7.3 1.42 10.49
9/29/2021 12:45:00 PM 13.3 55.94 0.09 7.3 1.45 10.46
9/29/2021 1:00:00 PM 13.46 56.228 0.091 7.3 1.37 10.44
9/29/2021 1:15:00 PM 13.58 56.444 0.091 7.3 1.37 10.41
9/29/2021 1:30:00 PM 13.75 56.75 0.091 7.32 1.32 10.38
9/29/2021 1:45:00 PM 13.84 56.912 0.091 7.32 1.41 10.36
9/29/2021 2:00:00 PM 13.84 56.912 0.091 7.32 1.38 10.33
9/29/2021 2:15:00 PM 13.94 57.092 0.091 7.32 1.4 10.32
9/29/2021 2:30:00 PM 14.03 57.254 0.091 7.33 1.35 10.3
9/29/2021 2:45:00 PM 14.16 57.488 0.091 7.33 1.42 10.27
9/29/2021 3:00:00 PM 14.28 57.704 0.091 7.31 1.34 10.23
9/29/2021 3:15:00 PM 14.4 57.92 0.091 7.32 1.34 10.2
9/29/2021 3:30:00 PM 14.49 58.082 0.091 7.33 1.36 10.19
9/29/2021 3:45:00 PM 14.53 58.154 0.091 7.32 1.34 10.16
9/29/2021 4:00:00 PM 14.6 58.28 0.091 7.33 1.35 10.14
9/29/2021 4:15:00 PM 14.64 58.352 0.091 7.33 1.34 10.12
9/29/2021 4:30:00 PM 14.63 58.334 0.091 7.33 1.33 10.11
9/29/2021 4:45:00 PM 14.6 58.28 0.091 7.31 1.42 10.09
9/29/2021 5:00:00 PM 14.61 58.298 0.091 7.32 1.37 10.08
9/29/2021 5:15:00 PM 14.68 58.424 0.091 7.31 1.27 10.07
9/29/2021 5:30:00 PM 14.66 58.388 0.091 7.32 1.45 10.06
9/29/2021 5:45:00 PM 14.64 58.352 0.091 7.32 1.32 10.04
9/29/2021 6:00:00 PM 14.64 58.352 0.091 7.3 1.28 10.02
9/29/2021 6:15:00 PM 14.6 58.28 0.091 7.31 1.34 10.01
9/29/2021 6:30:00 PM 14.53 58.154 0.091 7.29 1.3 9.99
9/29/2021 6:45:00 PM 14.47 58.046 0.091 7.29 1.32 9.99
9/29/2021 7:00:00 PM 14.4 57.92 0.091 7.28 1.36 9.99
9/29/2021 7:15:00 PM 14.34 57.812 0.091 7.27 1.4 9.99
9/29/2021 7:30:00 PM 14.27 57.686 0.091 7.27 1.42 10
9/29/2021 7:45:00 PM 14.2 57.56 0.091 7.26 1.47 10.01
9/29/2021 8:00:00 PM 14.13 57.434 0.091 7.26 1.45 10.02
9/29/2021 8:15:00 PM 14.06 57.308 0.091 7.25 1.49 10.04
9/29/2021 8:30:00 PM 13.99 57.182 0.092 7.26 1.5 10.05
9/29/2021 8:45:00 PM 13.92 57.056 0.092 7.25 1.51 10.06
9/29/2021 9:00:00 PM 13.84 56.912 0.092 7.25 1.51 10.08
9/29/2021 9:15:00 PM 13.77 56.786 0.092 7.25 1.55 10.09
9/29/2021 9:30:00 PM 13.69 56.642 0.092 7.24 1.55 10.11
9/29/2021 9:45:00 PM 13.62 56.516 0.092 7.24 1.61 10.13
9/29/2021 10:00:00 PM 13.55 56.39 0.092 7.24 1.41 10.15
9/29/2021 10:15:00 PM 13.48 56.264 0.092 7.23 1.51 10.16
9/29/2021 10:30:00 PM 13.41 56.138 0.092 7.24 1.55 10.18
9/29/2021 10:45:00 PM 13.34 56.012 0.092 7.24 1.56 10.2
9/29/2021 11:00:00 PM 13.27 55.886 0.092 7.24 1.51 10.22
9/29/2021 11:15:00 PM 13.2 55.76 0.092 7.24 1.49 10.23
9/29/2021 11:30:00 PM 13.14 55.652 0.092 7.23 1.53 10.25
9/29/2021 11:45:00 PM 13.07 55.526 0.092 7.23 1.57 10.27
9/30/2021 12:00:00 AM 13.02 55.436 0.092 7.24 1.49 10.28
9/30/2021 12:15:00 AM 12.96 55.328 0.092 7.23 1.54 10.3
9/30/2021 12:30:00 AM 12.91 55.238 0.092 7.23 1.48 10.31
9/30/2021 12:45:00 AM 12.87 55.166 0.092 7.23 1.48 10.32
9/30/2021 1:00:00 AM 12.83 55.094 0.092 7.23 1.51 10.34
9/30/2021 1:15:00 AM 12.78 55.004 0.092 7.24 1.47 10.35
9/30/2021 1:30:00 AM 12.74 54.932 0.092 7.23 1.49 10.36
9/30/2021 1:45:00 AM 12.7 54.86 0.092 7.23 1.51 10.38
9/30/2021 2:00:00 AM 12.66 54.788 0.092 7.23 1.44 10.39
9/30/2021 2:15:00 AM 12.63 54.734 0.092 7.23 1.42 10.39
9/30/2021 2:30:00 AM 12.6 54.68 0.092 7.23 1.34 10.41
9/30/2021 2:45:00 AM 12.58 54.644 0.092 7.22 1.46 10.42
9/30/2021 3:00:00 AM 12.53 54.554 0.092 7.23 1.45 10.43
9/30/2021 3:15:00 AM 12.5 54.5 0.093 7.23 1.36 10.43
9/30/2021 3:30:00 AM 12.45 54.41 0.092 7.23 1.38 10.45
9/30/2021 3:45:00 AM 12.41 54.338 0.092 7.24 1.34 10.45
9/30/2021 4:00:00 AM 12.37 54.266 0.093 7.23 1.42 10.46
9/30/2021 4:15:00 AM 12.34 54.212 0.093 7.24 1.41 10.47
9/30/2021 4:30:00 AM 12.3 54.14 0.093 7.23 1.38 10.48
9/30/2021 4:45:00 AM 12.28 54.104 0.093 7.23 1.36 10.49
9/30/2021 5:00:00 AM 12.25 54.05 0.093 7.23 1.34 10.5
9/30/2021 5:15:00 AM 12.21 53.978 0.093 7.23 1.33 10.51
9/30/2021 5:30:00 AM 12.17 53.906 0.093 7.23 1.32 10.52
9/30/2021 5:45:00 AM 12.13 53.834 0.093 7.23 1.32 10.54
9/30/2021 6:00:00 AM 12.1 53.78 0.093 7.23 1.33 10.54
9/30/2021 6:15:00 AM 12.06 53.708 0.093 7.23 1.32 10.55
9/30/2021 6:30:00 AM 12.03 53.654 0.093 7.23 1.32 10.57
9/30/2021 6:45:00 AM 12 53.6 0.093 7.23 1.35 10.57
9/30/2021 7:00:00 AM 11.97 53.546 0.093 7.24 1.38 10.58
9/30/2021 7:15:00 AM 11.94 53.492 0.093 7.23 1.34 10.6
9/30/2021 7:30:00 AM 11.9 53.42 0.093 7.24 1.23 10.61
9/30/2021 7:45:00 AM 11.87 53.366 0.093 7.23 1.3 10.64
9/30/2021 8:00:00 AM 11.86 53.348 0.093 7.24 1.28 10.66
9/30/2021 8:15:00 AM 11.85 53.33 0.093 7.24 1.19 10.68
9/30/2021 8:30:00 AM 11.85 53.33 0.093 7.24 1.26 10.71
9/30/2021 8:45:00 AM 11.85 53.33 0.093 7.25 1.18 10.73
9/30/2021 9:00:00 AM 11.86 53.348 0.093 7.25 1.21 10.74
9/30/2021 9:15:00 AM 11.88 53.384 0.093 7.26 1.12 10.75
9/30/2021 9:30:00 AM 11.91 53.438 0.093 7.27 1.14 10.77
9/30/2021 9:45:00 AM 11.96 53.528 0.093 7.27 1.08 10.78
9/30/2021 10:00:00 AM 11.98 53.564 0.093 7.27 1.12 10.78
9/30/2021 10:15:00 AM 12.02 53.636 0.093 7.28 1.08 10.78
9/30/2021 10:30:00 AM 12.13 53.834 0.093 7.29 1.08 10.78
9/30/2021 10:45:00 AM 12.2 53.96 0.093 7.3 1.07 10.77
9/30/2021 11:00:00 AM 12.24 54.032 0.093 7.3 1.05 10.76
9/30/2021 11:15:00 AM 12.3 54.14 0.093 7.31 1.01 10.75
9/30/2021 11:30:00 AM 12.35 54.23 0.093 7.31 1.04 10.73
9/30/2021 11:45:00 AM 12.42 54.356 0.093 7.32 1.02 10.73
9/30/2021 12:00:00 PM 12.5 54.5 0.093 7.32 0.98 10.72
9/30/2021 12:15:00 PM 12.62 54.716 0.093 7.32 0.98 10.71
9/30/2021 12:30:00 PM 12.68 54.824 0.093 7.32 1.1 10.7
9/30/2021 12:45:00 PM 12.83 55.094 0.093 7.34 0.98 10.68
9/30/2021 1:00:00 PM 12.82 55.076 0.093 7.33 0.94 10.65
9/30/2021 1:15:00 PM 12.97 55.346 0.093 7.34 1 10.63
9/30/2021 1:30:00 PM 13.04 55.472 0.094 7.34 0.91 10.62
9/30/2021 1:45:00 PM 13.1 55.58 0.094 7.34 1.13 10.58
9/30/2021 2:00:00 PM 13.18 55.724 0.093 7.35 1.01 10.56
9/30/2021 2:15:00 PM 13.29 55.922 0.094 7.35 0.95 10.55
9/30/2021 2:30:00 PM 13.4 56.12 0.093 7.35 0.98 10.52
9/30/2021 2:45:00 PM 13.47 56.246 0.094 7.35 0.96 10.5
9/30/2021 3:00:00 PM 13.54 56.372 0.093 7.36 0.94 10.48
9/30/2021 3:15:00 PM 13.58 56.444 0.094 7.36 0.97 10.46
9/30/2021 3:30:00 PM 13.61 56.498 0.093 7.36 0.94 10.44
9/30/2021 3:45:00 PM 13.75 56.75 0.094 7.35 0.95 10.44
9/30/2021 4:00:00 PM 13.85 56.93 0.094 7.36 0.9 10.41
9/30/2021 4:15:00 PM 13.84 56.912 0.094 7.36 0.91 10.36
9/30/2021 4:30:00 PM 13.81 56.858 0.094 7.36 0.95 10.35
9/30/2021 4:45:00 PM 13.81 56.858 0.094 7.34 1.03 10.34
9/30/2021 5:00:00 PM 13.84 56.912 0.094 7.34 0.91 10.32
9/30/2021 5:15:00 PM 13.81 56.858 0.094 7.34 0.94 10.3
9/30/2021 5:30:00 PM 13.84 56.912 0.094 7.34 0.9 10.28
9/30/2021 5:45:00 PM 13.83 56.894 0.094 7.33 0.94 10.27
9/30/2021 6:00:00 PM 13.76 56.768 0.094 7.33 0.97 10.27
9/30/2021 6:15:00 PM 13.71 56.678 0.094 7.32 0.95 10.26
9/30/2021 6:30:00 PM 13.66 56.588 0.094 7.32 0.95 10.25
9/30/2021 6:45:00 PM 13.62 56.516 0.094 7.32 0.99 10.25
9/30/2021 7:00:00 PM 13.58 56.444 0.094 7.3 0.96 10.24
9/30/2021 7:15:00 PM 13.54 56.372 0.094 7.3 0.97 10.24
9/30/2021 7:30:00 PM 13.49 56.282 0.094 7.29 1.03 10.24
9/30/2021 7:45:00 PM 13.43 56.174 0.094 7.29 1.05 10.25
9/30/2021 8:00:00 PM 13.37 56.066 0.094 7.29 1.12 10.26
9/30/2021 8:15:00 PM 13.31 55.958 0.094 7.28 1.11 10.27
9/30/2021 8:30:00 PM 13.26 55.868 0.094 7.28 1.12 10.28